<?xml version="1.0" encoding="UTF-8" standalone="no" ?>
<gpx xmlns="http://www.topografix.com/GPX/1/1" xmlns:xsi="http://www.w3.org/2001/XMLSchema-instance" xsi:schemaLocation="http://www.topografix.com/GPX/1/1 http://www.topografix.com/GPX/1/1/gpx.xsd" version="1.1" creator="VisuGPX - https://www.visugpx.com">
  <metadata>
    <name>Chatonnay 30km</name>
    <desc><![CDATA[J2 Prévu pour le 19/05/2024]]></desc>
  </metadata>
  <wpt lat="45.45971" lon="5.20906">
    <ele>541.1</ele>
    <name><![CDATA[Ecurie du Lungta]]></name>
    <type><![CDATA[camping]]></type>
  </wpt>
  <trk>
    <name><![CDATA[fait le 19/05/2024]]></name>
    <extensions>
      <line xmlns="http://www.topografix.com/GPX/gpx_style/0/2">
        <color>0000FF</color>
        <width>4</width>
      </line>
    </extensions>
    <trkseg>
      <trkpt lat="45.45918" lon="5.20901">
        <ele>541.84</ele>
        <time>2024-05-18T15:05:47Z</time>
      </trkpt>
      <trkpt lat="45.45918" lon="5.20902">
        <ele>541.84</ele>
        <time>2024-05-18T15:05:50Z</time>
      </trkpt>
      <trkpt lat="45.4592" lon="5.20916">
        <ele>536.07</ele>
        <time>2024-05-18T15:26:16Z</time>
      </trkpt>
      <trkpt lat="45.45926" lon="5.20898">
        <ele>549.05</ele>
        <time>2024-05-18T15:26:42Z</time>
      </trkpt>
      <trkpt lat="45.45926" lon="5.209">
        <ele>547.13</ele>
        <time>2024-05-18T15:27:13Z</time>
      </trkpt>
      <trkpt lat="45.45926" lon="5.20897">
        <ele>545.69</ele>
        <time>2024-05-18T15:27:32Z</time>
      </trkpt>
      <trkpt lat="45.45927" lon="5.20895">
        <ele>545.2</ele>
        <time>2024-05-18T15:27:46Z</time>
      </trkpt>
      <trkpt lat="45.45927" lon="5.20896">
        <ele>544.72</ele>
        <time>2024-05-18T15:28:04Z</time>
      </trkpt>
      <trkpt lat="45.45924" lon="5.209">
        <ele>543.28</ele>
        <time>2024-05-18T15:28:12Z</time>
      </trkpt>
      <trkpt lat="45.45921" lon="5.20902">
        <ele>542.32</ele>
        <time>2024-05-18T15:28:17Z</time>
      </trkpt>
      <trkpt lat="45.45901" lon="5.209">
        <ele>535.11</ele>
        <time>2024-05-19T07:55:29Z</time>
      </trkpt>
      <trkpt lat="45.45909" lon="5.20893">
        <ele>544.72</ele>
        <time>2024-05-19T07:55:44Z</time>
      </trkpt>
      <trkpt lat="45.45921" lon="5.20896">
        <ele>550.97</ele>
        <time>2024-05-19T07:55:59Z</time>
      </trkpt>
      <trkpt lat="45.45923" lon="5.20894">
        <ele>552.41</ele>
        <time>2024-05-19T07:56:14Z</time>
      </trkpt>
      <trkpt lat="45.45929" lon="5.20888">
        <ele>552.9</ele>
        <time>2024-05-19T07:56:30Z</time>
      </trkpt>
      <trkpt lat="45.45937" lon="5.20878">
        <ele>550.01</ele>
        <time>2024-05-19T07:56:44Z</time>
      </trkpt>
      <trkpt lat="45.45942" lon="5.20874">
        <ele>548.57</ele>
        <time>2024-05-19T07:56:50Z</time>
      </trkpt>
      <trkpt lat="45.45942" lon="5.20872">
        <ele>550.97</ele>
        <time>2024-05-19T07:57:03Z</time>
      </trkpt>
      <trkpt lat="45.45941" lon="5.20873">
        <ele>550.97</ele>
        <time>2024-05-19T07:57:04Z</time>
      </trkpt>
      <trkpt lat="45.45937" lon="5.20875">
        <ele>550.49</ele>
        <time>2024-05-19T07:57:19Z</time>
      </trkpt>
      <trkpt lat="45.45942" lon="5.20871">
        <ele>549.05</ele>
        <time>2024-05-19T07:57:45Z</time>
      </trkpt>
      <trkpt lat="45.45943" lon="5.2087">
        <ele>549.05</ele>
        <time>2024-05-19T07:57:46Z</time>
      </trkpt>
      <trkpt lat="45.45955" lon="5.20858">
        <ele>547.13</ele>
        <time>2024-05-19T07:58:02Z</time>
      </trkpt>
      <trkpt lat="45.45977" lon="5.20845">
        <ele>547.13</ele>
        <time>2024-05-19T07:58:20Z</time>
      </trkpt>
      <trkpt lat="45.45993" lon="5.20837">
        <ele>546.17</ele>
        <time>2024-05-19T07:58:35Z</time>
      </trkpt>
      <trkpt lat="45.46015" lon="5.20829">
        <ele>544.72</ele>
        <time>2024-05-19T07:58:51Z</time>
      </trkpt>
      <trkpt lat="45.46029" lon="5.20825">
        <ele>543.28</ele>
        <time>2024-05-19T07:59:03Z</time>
      </trkpt>
      <trkpt lat="45.46043" lon="5.20821">
        <ele>542.8</ele>
        <time>2024-05-19T07:59:16Z</time>
      </trkpt>
      <trkpt lat="45.46053" lon="5.20839">
        <ele>542.8</ele>
        <time>2024-05-19T07:59:29Z</time>
      </trkpt>
      <trkpt lat="45.4607" lon="5.20861">
        <ele>545.2</ele>
        <time>2024-05-19T07:59:45Z</time>
      </trkpt>
      <trkpt lat="45.46071" lon="5.20862">
        <ele>545.69</ele>
        <time>2024-05-19T07:59:46Z</time>
      </trkpt>
      <trkpt lat="45.46082" lon="5.20884">
        <ele>549.05</ele>
        <time>2024-05-19T07:59:59Z</time>
      </trkpt>
      <trkpt lat="45.46092" lon="5.20899">
        <ele>550.49</ele>
        <time>2024-05-19T08:00:12Z</time>
      </trkpt>
      <trkpt lat="45.46102" lon="5.2092">
        <ele>550.97</ele>
        <time>2024-05-19T08:00:23Z</time>
      </trkpt>
      <trkpt lat="45.46104" lon="5.20921">
        <ele>550.97</ele>
        <time>2024-05-19T08:00:24Z</time>
      </trkpt>
      <trkpt lat="45.46105" lon="5.20923">
        <ele>551.45</ele>
        <time>2024-05-19T08:00:25Z</time>
      </trkpt>
      <trkpt lat="45.4611" lon="5.20928">
        <ele>551.93</ele>
        <time>2024-05-19T08:00:28Z</time>
      </trkpt>
      <trkpt lat="45.46111" lon="5.20929">
        <ele>551.93</ele>
        <time>2024-05-19T08:00:29Z</time>
      </trkpt>
      <trkpt lat="45.46118" lon="5.20936">
        <ele>550.01</ele>
        <time>2024-05-19T08:00:40Z</time>
      </trkpt>
      <trkpt lat="45.46131" lon="5.20954">
        <ele>548.09</ele>
        <time>2024-05-19T08:00:52Z</time>
      </trkpt>
      <trkpt lat="45.46136" lon="5.20964">
        <ele>546.17</ele>
        <time>2024-05-19T08:01:03Z</time>
      </trkpt>
      <trkpt lat="45.46137" lon="5.20967">
        <ele>546.17</ele>
        <time>2024-05-19T08:01:04Z</time>
      </trkpt>
      <trkpt lat="45.46138" lon="5.20969">
        <ele>546.17</ele>
        <time>2024-05-19T08:01:05Z</time>
      </trkpt>
      <trkpt lat="45.46139" lon="5.20971">
        <ele>546.17</ele>
        <time>2024-05-19T08:01:06Z</time>
      </trkpt>
      <trkpt lat="45.4614" lon="5.20974">
        <ele>546.65</ele>
        <time>2024-05-19T08:01:07Z</time>
      </trkpt>
      <trkpt lat="45.46145" lon="5.2099">
        <ele>549.05</ele>
        <time>2024-05-19T08:01:18Z</time>
      </trkpt>
      <trkpt lat="45.46148" lon="5.20988">
        <ele>553.86</ele>
        <time>2024-05-19T08:01:41Z</time>
      </trkpt>
      <trkpt lat="45.46154" lon="5.20985">
        <ele>554.34</ele>
        <time>2024-05-19T08:02:06Z</time>
      </trkpt>
      <trkpt lat="45.4615" lon="5.20985">
        <ele>555.78</ele>
        <time>2024-05-19T08:02:35Z</time>
      </trkpt>
      <trkpt lat="45.46149" lon="5.20987">
        <ele>556.26</ele>
        <time>2024-05-19T08:02:57Z</time>
      </trkpt>
      <trkpt lat="45.46149" lon="5.20983">
        <ele>556.26</ele>
        <time>2024-05-19T08:03:19Z</time>
      </trkpt>
      <trkpt lat="45.4615" lon="5.20989">
        <ele>557.7</ele>
        <time>2024-05-19T08:03:43Z</time>
      </trkpt>
      <trkpt lat="45.46151" lon="5.20989">
        <ele>558.18</ele>
        <time>2024-05-19T08:03:44Z</time>
      </trkpt>
      <trkpt lat="45.46152" lon="5.20989">
        <ele>558.18</ele>
        <time>2024-05-19T08:03:45Z</time>
      </trkpt>
      <trkpt lat="45.46153" lon="5.20988">
        <ele>558.66</ele>
        <time>2024-05-19T08:03:46Z</time>
      </trkpt>
      <trkpt lat="45.46154" lon="5.20988">
        <ele>558.66</ele>
        <time>2024-05-19T08:03:47Z</time>
      </trkpt>
      <trkpt lat="45.46156" lon="5.20987">
        <ele>559.14</ele>
        <time>2024-05-19T08:03:48Z</time>
      </trkpt>
      <trkpt lat="45.46157" lon="5.20987">
        <ele>559.14</ele>
        <time>2024-05-19T08:03:49Z</time>
      </trkpt>
      <trkpt lat="45.4616" lon="5.20985">
        <ele>560.59</ele>
        <time>2024-05-19T08:03:53Z</time>
      </trkpt>
      <trkpt lat="45.46174" lon="5.20976">
        <ele>562.03</ele>
        <time>2024-05-19T08:04:06Z</time>
      </trkpt>
      <trkpt lat="45.46185" lon="5.20971">
        <ele>557.7</ele>
        <time>2024-05-19T08:04:19Z</time>
      </trkpt>
      <trkpt lat="45.46202" lon="5.20962">
        <ele>551.93</ele>
        <time>2024-05-19T08:04:33Z</time>
      </trkpt>
      <trkpt lat="45.46204" lon="5.2096">
        <ele>550.97</ele>
        <time>2024-05-19T08:04:35Z</time>
      </trkpt>
      <trkpt lat="45.46205" lon="5.20959">
        <ele>550.49</ele>
        <time>2024-05-19T08:04:36Z</time>
      </trkpt>
      <trkpt lat="45.4621" lon="5.20957">
        <ele>548.57</ele>
        <time>2024-05-19T08:04:41Z</time>
      </trkpt>
      <trkpt lat="45.46212" lon="5.20957">
        <ele>548.57</ele>
        <time>2024-05-19T08:04:42Z</time>
      </trkpt>
      <trkpt lat="45.46213" lon="5.20957">
        <ele>548.57</ele>
        <time>2024-05-19T08:04:43Z</time>
      </trkpt>
      <trkpt lat="45.46214" lon="5.20957">
        <ele>549.05</ele>
        <time>2024-05-19T08:04:44Z</time>
      </trkpt>
      <trkpt lat="45.4622" lon="5.20959">
        <ele>551.45</ele>
        <time>2024-05-19T08:04:50Z</time>
      </trkpt>
      <trkpt lat="45.46226" lon="5.20963">
        <ele>554.34</ele>
        <time>2024-05-19T08:04:57Z</time>
      </trkpt>
      <trkpt lat="45.46245" lon="5.20971">
        <ele>559.62</ele>
        <time>2024-05-19T08:05:11Z</time>
      </trkpt>
      <trkpt lat="45.46255" lon="5.20977">
        <ele>561.07</ele>
        <time>2024-05-19T08:05:19Z</time>
      </trkpt>
      <trkpt lat="45.46268" lon="5.20989">
        <ele>560.59</ele>
        <time>2024-05-19T08:05:33Z</time>
      </trkpt>
      <trkpt lat="45.46282" lon="5.20992">
        <ele>560.59</ele>
        <time>2024-05-19T08:05:48Z</time>
      </trkpt>
      <trkpt lat="45.46298" lon="5.20986">
        <ele>559.62</ele>
        <time>2024-05-19T08:06:08Z</time>
      </trkpt>
      <trkpt lat="45.46305" lon="5.20972">
        <ele>560.11</ele>
        <time>2024-05-19T08:06:26Z</time>
      </trkpt>
      <trkpt lat="45.46305" lon="5.20948">
        <ele>556.74</ele>
        <time>2024-05-19T08:06:44Z</time>
      </trkpt>
      <trkpt lat="45.46313" lon="5.20924">
        <ele>555.3</ele>
        <time>2024-05-19T08:07:00Z</time>
      </trkpt>
      <trkpt lat="45.46325" lon="5.20916">
        <ele>553.86</ele>
        <time>2024-05-19T08:07:15Z</time>
      </trkpt>
      <trkpt lat="45.46335" lon="5.20917">
        <ele>553.38</ele>
        <time>2024-05-19T08:07:34Z</time>
      </trkpt>
      <trkpt lat="45.46332" lon="5.20914">
        <ele>551.93</ele>
        <time>2024-05-19T08:07:54Z</time>
      </trkpt>
      <trkpt lat="45.46336" lon="5.20907">
        <ele>550.49</ele>
        <time>2024-05-19T08:08:08Z</time>
      </trkpt>
      <trkpt lat="45.46337" lon="5.20907">
        <ele>549.05</ele>
        <time>2024-05-19T08:08:26Z</time>
      </trkpt>
      <trkpt lat="45.4634" lon="5.20909">
        <ele>552.41</ele>
        <time>2024-05-19T08:08:48Z</time>
      </trkpt>
      <trkpt lat="45.46346" lon="5.20914">
        <ele>554.34</ele>
        <time>2024-05-19T08:09:18Z</time>
      </trkpt>
      <trkpt lat="45.46347" lon="5.20915">
        <ele>554.34</ele>
        <time>2024-05-19T08:09:47Z</time>
      </trkpt>
      <trkpt lat="45.46354" lon="5.20935">
        <ele>556.74</ele>
        <time>2024-05-19T08:10:04Z</time>
      </trkpt>
      <trkpt lat="45.46367" lon="5.20949">
        <ele>561.07</ele>
        <time>2024-05-19T08:10:17Z</time>
      </trkpt>
      <trkpt lat="45.46375" lon="5.20957">
        <ele>562.99</ele>
        <time>2024-05-19T08:10:31Z</time>
      </trkpt>
      <trkpt lat="45.46382" lon="5.20961">
        <ele>566.35</ele>
        <time>2024-05-19T08:10:47Z</time>
      </trkpt>
      <trkpt lat="45.46398" lon="5.20969">
        <ele>569.24</ele>
        <time>2024-05-19T08:11:02Z</time>
      </trkpt>
      <trkpt lat="45.46425" lon="5.20982">
        <ele>572.12</ele>
        <time>2024-05-19T08:11:21Z</time>
      </trkpt>
      <trkpt lat="45.46458" lon="5.20994">
        <ele>575.97</ele>
        <time>2024-05-19T08:11:41Z</time>
      </trkpt>
      <trkpt lat="45.46465" lon="5.21001">
        <ele>575.49</ele>
        <time>2024-05-19T08:11:44Z</time>
      </trkpt>
      <trkpt lat="45.46466" lon="5.21003">
        <ele>575.01</ele>
        <time>2024-05-19T08:11:45Z</time>
      </trkpt>
      <trkpt lat="45.46485" lon="5.21014">
        <ele>575.97</ele>
        <time>2024-05-19T08:11:59Z</time>
      </trkpt>
      <trkpt lat="45.46488" lon="5.21016">
        <ele>575.97</ele>
        <time>2024-05-19T08:12:01Z</time>
      </trkpt>
      <trkpt lat="45.4649" lon="5.21016">
        <ele>576.45</ele>
        <time>2024-05-19T08:12:02Z</time>
      </trkpt>
      <trkpt lat="45.46517" lon="5.21015">
        <ele>577.41</ele>
        <time>2024-05-19T08:12:18Z</time>
      </trkpt>
      <trkpt lat="45.46537" lon="5.21011">
        <ele>575.01</ele>
        <time>2024-05-19T08:12:32Z</time>
      </trkpt>
      <trkpt lat="45.4654" lon="5.2101">
        <ele>575.49</ele>
        <time>2024-05-19T08:12:34Z</time>
      </trkpt>
      <trkpt lat="45.46541" lon="5.21009">
        <ele>575.49</ele>
        <time>2024-05-19T08:12:35Z</time>
      </trkpt>
      <trkpt lat="45.46563" lon="5.20995">
        <ele>574.04</ele>
        <time>2024-05-19T08:12:49Z</time>
      </trkpt>
      <trkpt lat="45.46582" lon="5.20986">
        <ele>575.49</ele>
        <time>2024-05-19T08:13:02Z</time>
      </trkpt>
      <trkpt lat="45.46602" lon="5.20976">
        <ele>577.89</ele>
        <time>2024-05-19T08:13:18Z</time>
      </trkpt>
      <trkpt lat="45.46621" lon="5.20963">
        <ele>582.22</ele>
        <time>2024-05-19T08:13:34Z</time>
      </trkpt>
      <trkpt lat="45.46645" lon="5.20957">
        <ele>574.04</ele>
        <time>2024-05-19T08:13:49Z</time>
      </trkpt>
      <trkpt lat="45.46659" lon="5.20947">
        <ele>571.16</ele>
        <time>2024-05-19T08:14:01Z</time>
      </trkpt>
      <trkpt lat="45.4666" lon="5.20946">
        <ele>571.16</ele>
        <time>2024-05-19T08:14:02Z</time>
      </trkpt>
      <trkpt lat="45.46687" lon="5.20926">
        <ele>567.8</ele>
        <time>2024-05-19T08:14:20Z</time>
      </trkpt>
      <trkpt lat="45.46692" lon="5.20914">
        <ele>565.87</ele>
        <time>2024-05-19T08:14:26Z</time>
      </trkpt>
      <trkpt lat="45.46691" lon="5.20912">
        <ele>565.87</ele>
        <time>2024-05-19T08:14:27Z</time>
      </trkpt>
      <trkpt lat="45.46691" lon="5.2091">
        <ele>565.39</ele>
        <time>2024-05-19T08:14:28Z</time>
      </trkpt>
      <trkpt lat="45.4669" lon="5.20908">
        <ele>565.39</ele>
        <time>2024-05-19T08:14:29Z</time>
      </trkpt>
      <trkpt lat="45.46689" lon="5.20906">
        <ele>565.39</ele>
        <time>2024-05-19T08:14:30Z</time>
      </trkpt>
      <trkpt lat="45.46688" lon="5.20905">
        <ele>564.91</ele>
        <time>2024-05-19T08:14:31Z</time>
      </trkpt>
      <trkpt lat="45.46687" lon="5.20903">
        <ele>564.91</ele>
        <time>2024-05-19T08:14:32Z</time>
      </trkpt>
      <trkpt lat="45.46669" lon="5.20875">
        <ele>561.07</ele>
        <time>2024-05-19T08:14:51Z</time>
      </trkpt>
      <trkpt lat="45.46668" lon="5.20873">
        <ele>560.59</ele>
        <time>2024-05-19T08:14:52Z</time>
      </trkpt>
      <trkpt lat="45.46668" lon="5.20872">
        <ele>560.59</ele>
        <time>2024-05-19T08:14:53Z</time>
      </trkpt>
      <trkpt lat="45.46652" lon="5.20843">
        <ele>558.66</ele>
        <time>2024-05-19T08:15:10Z</time>
      </trkpt>
      <trkpt lat="45.46639" lon="5.20812">
        <ele>558.18</ele>
        <time>2024-05-19T08:15:28Z</time>
      </trkpt>
      <trkpt lat="45.46636" lon="5.20777">
        <ele>556.74</ele>
        <time>2024-05-19T08:15:45Z</time>
      </trkpt>
      <trkpt lat="45.46634" lon="5.20737">
        <ele>556.26</ele>
        <time>2024-05-19T08:16:04Z</time>
      </trkpt>
      <trkpt lat="45.46632" lon="5.20701">
        <ele>551.93</ele>
        <time>2024-05-19T08:16:22Z</time>
      </trkpt>
      <trkpt lat="45.46634" lon="5.2067">
        <ele>549.53</ele>
        <time>2024-05-19T08:16:36Z</time>
      </trkpt>
      <trkpt lat="45.46637" lon="5.20636">
        <ele>548.09</ele>
        <time>2024-05-19T08:16:53Z</time>
      </trkpt>
      <trkpt lat="45.46635" lon="5.20607">
        <ele>545.2</ele>
        <time>2024-05-19T08:17:07Z</time>
      </trkpt>
      <trkpt lat="45.46634" lon="5.20571">
        <ele>541.84</ele>
        <time>2024-05-19T08:17:23Z</time>
      </trkpt>
      <trkpt lat="45.46631" lon="5.20533">
        <ele>542.8</ele>
        <time>2024-05-19T08:17:41Z</time>
      </trkpt>
      <trkpt lat="45.46631" lon="5.20525">
        <ele>543.28</ele>
        <time>2024-05-19T08:17:46Z</time>
      </trkpt>
      <trkpt lat="45.4663" lon="5.20523">
        <ele>543.76</ele>
        <time>2024-05-19T08:17:47Z</time>
      </trkpt>
      <trkpt lat="45.46629" lon="5.2052">
        <ele>543.76</ele>
        <time>2024-05-19T08:17:49Z</time>
      </trkpt>
      <trkpt lat="45.46629" lon="5.20497">
        <ele>545.69</ele>
        <time>2024-05-19T08:18:02Z</time>
      </trkpt>
      <trkpt lat="45.46627" lon="5.20494">
        <ele>546.17</ele>
        <time>2024-05-19T08:18:11Z</time>
      </trkpt>
      <trkpt lat="45.46616" lon="5.20465">
        <ele>548.09</ele>
        <time>2024-05-19T08:18:30Z</time>
      </trkpt>
      <trkpt lat="45.46613" lon="5.20445">
        <ele>550.49</ele>
        <time>2024-05-19T08:18:43Z</time>
      </trkpt>
      <trkpt lat="45.46605" lon="5.20425">
        <ele>552.41</ele>
        <time>2024-05-19T08:19:01Z</time>
      </trkpt>
      <trkpt lat="45.46599" lon="5.20404">
        <ele>552.9</ele>
        <time>2024-05-19T08:19:17Z</time>
      </trkpt>
      <trkpt lat="45.46594" lon="5.20382">
        <ele>554.82</ele>
        <time>2024-05-19T08:19:32Z</time>
      </trkpt>
      <trkpt lat="45.46594" lon="5.20376">
        <ele>555.3</ele>
        <time>2024-05-19T08:19:35Z</time>
      </trkpt>
      <trkpt lat="45.46594" lon="5.20374">
        <ele>555.3</ele>
        <time>2024-05-19T08:19:36Z</time>
      </trkpt>
      <trkpt lat="45.46593" lon="5.20371">
        <ele>555.3</ele>
        <time>2024-05-19T08:19:37Z</time>
      </trkpt>
      <trkpt lat="45.46593" lon="5.20369">
        <ele>555.78</ele>
        <time>2024-05-19T08:19:38Z</time>
      </trkpt>
      <trkpt lat="45.46592" lon="5.20367">
        <ele>555.78</ele>
        <time>2024-05-19T08:19:39Z</time>
      </trkpt>
      <trkpt lat="45.46592" lon="5.20364">
        <ele>555.78</ele>
        <time>2024-05-19T08:19:40Z</time>
      </trkpt>
      <trkpt lat="45.46592" lon="5.20362">
        <ele>555.78</ele>
        <time>2024-05-19T08:19:41Z</time>
      </trkpt>
      <trkpt lat="45.46586" lon="5.20335">
        <ele>555.78</ele>
        <time>2024-05-19T08:19:55Z</time>
      </trkpt>
      <trkpt lat="45.46585" lon="5.20288">
        <ele>554.82</ele>
        <time>2024-05-19T08:20:15Z</time>
      </trkpt>
      <trkpt lat="45.46582" lon="5.2026">
        <ele>552.9</ele>
        <time>2024-05-19T08:20:29Z</time>
      </trkpt>
      <trkpt lat="45.46577" lon="5.20227">
        <ele>550.49</ele>
        <time>2024-05-19T08:20:44Z</time>
      </trkpt>
      <trkpt lat="45.46574" lon="5.20187">
        <ele>550.01</ele>
        <time>2024-05-19T08:21:01Z</time>
      </trkpt>
      <trkpt lat="45.46571" lon="5.20154">
        <ele>549.05</ele>
        <time>2024-05-19T08:21:16Z</time>
      </trkpt>
      <trkpt lat="45.46566" lon="5.20122">
        <ele>548.57</ele>
        <time>2024-05-19T08:21:32Z</time>
      </trkpt>
      <trkpt lat="45.46564" lon="5.20091">
        <ele>549.05</ele>
        <time>2024-05-19T08:21:47Z</time>
      </trkpt>
      <trkpt lat="45.4656" lon="5.2006">
        <ele>549.05</ele>
        <time>2024-05-19T08:22:02Z</time>
      </trkpt>
      <trkpt lat="45.46558" lon="5.20028">
        <ele>548.09</ele>
        <time>2024-05-19T08:22:17Z</time>
      </trkpt>
      <trkpt lat="45.46554" lon="5.19989">
        <ele>547.13</ele>
        <time>2024-05-19T08:22:33Z</time>
      </trkpt>
      <trkpt lat="45.46548" lon="5.19959">
        <ele>546.65</ele>
        <time>2024-05-19T08:22:49Z</time>
      </trkpt>
      <trkpt lat="45.46543" lon="5.19943">
        <ele>545.69</ele>
        <time>2024-05-19T08:23:03Z</time>
      </trkpt>
      <trkpt lat="45.46541" lon="5.19927">
        <ele>545.69</ele>
        <time>2024-05-19T08:23:18Z</time>
      </trkpt>
      <trkpt lat="45.4654" lon="5.19925">
        <ele>545.69</ele>
        <time>2024-05-19T08:23:22Z</time>
      </trkpt>
      <trkpt lat="45.4654" lon="5.19923">
        <ele>545.69</ele>
        <time>2024-05-19T08:23:23Z</time>
      </trkpt>
      <trkpt lat="45.46539" lon="5.19921">
        <ele>545.69</ele>
        <time>2024-05-19T08:23:25Z</time>
      </trkpt>
      <trkpt lat="45.46537" lon="5.19915">
        <ele>543.76</ele>
        <time>2024-05-19T08:23:41Z</time>
      </trkpt>
      <trkpt lat="45.46534" lon="5.19898">
        <ele>542.8</ele>
        <time>2024-05-19T08:24:05Z</time>
      </trkpt>
      <trkpt lat="45.46533" lon="5.19869">
        <ele>542.8</ele>
        <time>2024-05-19T08:24:20Z</time>
      </trkpt>
      <trkpt lat="45.46532" lon="5.19835">
        <ele>542.8</ele>
        <time>2024-05-19T08:24:36Z</time>
      </trkpt>
      <trkpt lat="45.46524" lon="5.19809">
        <ele>541.84</ele>
        <time>2024-05-19T08:24:50Z</time>
      </trkpt>
      <trkpt lat="45.46523" lon="5.19808">
        <ele>541.84</ele>
        <time>2024-05-19T08:24:51Z</time>
      </trkpt>
      <trkpt lat="45.46522" lon="5.19806">
        <ele>541.84</ele>
        <time>2024-05-19T08:24:52Z</time>
      </trkpt>
      <trkpt lat="45.46521" lon="5.19802">
        <ele>541.84</ele>
        <time>2024-05-19T08:24:54Z</time>
      </trkpt>
      <trkpt lat="45.46521" lon="5.198">
        <ele>541.84</ele>
        <time>2024-05-19T08:24:55Z</time>
      </trkpt>
      <trkpt lat="45.46522" lon="5.19787">
        <ele>542.32</ele>
        <time>2024-05-19T08:25:02Z</time>
      </trkpt>
      <trkpt lat="45.46523" lon="5.19785">
        <ele>542.32</ele>
        <time>2024-05-19T08:25:03Z</time>
      </trkpt>
      <trkpt lat="45.46523" lon="5.19783">
        <ele>542.32</ele>
        <time>2024-05-19T08:25:04Z</time>
      </trkpt>
      <trkpt lat="45.46523" lon="5.1978">
        <ele>542.32</ele>
        <time>2024-05-19T08:25:05Z</time>
      </trkpt>
      <trkpt lat="45.46522" lon="5.19778">
        <ele>542.32</ele>
        <time>2024-05-19T08:25:06Z</time>
      </trkpt>
      <trkpt lat="45.46518" lon="5.19769">
        <ele>542.32</ele>
        <time>2024-05-19T08:25:12Z</time>
      </trkpt>
      <trkpt lat="45.46518" lon="5.19767">
        <ele>542.32</ele>
        <time>2024-05-19T08:25:13Z</time>
      </trkpt>
      <trkpt lat="45.46505" lon="5.19741">
        <ele>543.76</ele>
        <time>2024-05-19T08:25:28Z</time>
      </trkpt>
      <trkpt lat="45.46505" lon="5.19702">
        <ele>544.72</ele>
        <time>2024-05-19T08:25:47Z</time>
      </trkpt>
      <trkpt lat="45.46505" lon="5.19686">
        <ele>545.69</ele>
        <time>2024-05-19T08:25:54Z</time>
      </trkpt>
      <trkpt lat="45.46506" lon="5.19684">
        <ele>546.17</ele>
        <time>2024-05-19T08:25:55Z</time>
      </trkpt>
      <trkpt lat="45.46522" lon="5.19666">
        <ele>545.69</ele>
        <time>2024-05-19T08:26:12Z</time>
      </trkpt>
      <trkpt lat="45.46533" lon="5.19638">
        <ele>546.65</ele>
        <time>2024-05-19T08:26:27Z</time>
      </trkpt>
      <trkpt lat="45.46535" lon="5.19637">
        <ele>546.65</ele>
        <time>2024-05-19T08:26:28Z</time>
      </trkpt>
      <trkpt lat="45.46536" lon="5.19636">
        <ele>546.65</ele>
        <time>2024-05-19T08:26:29Z</time>
      </trkpt>
      <trkpt lat="45.46537" lon="5.19633">
        <ele>546.65</ele>
        <time>2024-05-19T08:26:30Z</time>
      </trkpt>
      <trkpt lat="45.46537" lon="5.19632">
        <ele>546.65</ele>
        <time>2024-05-19T08:26:31Z</time>
      </trkpt>
      <trkpt lat="45.46538" lon="5.1963">
        <ele>546.65</ele>
        <time>2024-05-19T08:26:32Z</time>
      </trkpt>
      <trkpt lat="45.46541" lon="5.19607">
        <ele>548.09</ele>
        <time>2024-05-19T08:26:44Z</time>
      </trkpt>
      <trkpt lat="45.46541" lon="5.19605">
        <ele>548.57</ele>
        <time>2024-05-19T08:26:45Z</time>
      </trkpt>
      <trkpt lat="45.46541" lon="5.19602">
        <ele>548.57</ele>
        <time>2024-05-19T08:26:46Z</time>
      </trkpt>
      <trkpt lat="45.46539" lon="5.19562">
        <ele>546.65</ele>
        <time>2024-05-19T08:27:05Z</time>
      </trkpt>
      <trkpt lat="45.46541" lon="5.1953">
        <ele>546.65</ele>
        <time>2024-05-19T08:27:21Z</time>
      </trkpt>
      <trkpt lat="45.4654" lon="5.19518">
        <ele>546.17</ele>
        <time>2024-05-19T08:27:27Z</time>
      </trkpt>
      <trkpt lat="45.46534" lon="5.19491">
        <ele>543.28</ele>
        <time>2024-05-19T08:27:42Z</time>
      </trkpt>
      <trkpt lat="45.46528" lon="5.19465">
        <ele>542.8</ele>
        <time>2024-05-19T08:27:57Z</time>
      </trkpt>
      <trkpt lat="45.46528" lon="5.19463">
        <ele>542.8</ele>
        <time>2024-05-19T08:27:58Z</time>
      </trkpt>
      <trkpt lat="45.46531" lon="5.1943">
        <ele>542.8</ele>
        <time>2024-05-19T08:28:13Z</time>
      </trkpt>
      <trkpt lat="45.46535" lon="5.19398">
        <ele>542.8</ele>
        <time>2024-05-19T08:28:29Z</time>
      </trkpt>
      <trkpt lat="45.46539" lon="5.19355">
        <ele>540.88</ele>
        <time>2024-05-19T08:28:48Z</time>
      </trkpt>
      <trkpt lat="45.46534" lon="5.19333">
        <ele>539.44</ele>
        <time>2024-05-19T08:29:04Z</time>
      </trkpt>
      <trkpt lat="45.46531" lon="5.19301">
        <ele>534.15</ele>
        <time>2024-05-19T08:29:21Z</time>
      </trkpt>
      <trkpt lat="45.46535" lon="5.19265">
        <ele>530.3</ele>
        <time>2024-05-19T08:29:38Z</time>
      </trkpt>
      <trkpt lat="45.46541" lon="5.19226">
        <ele>526.94</ele>
        <time>2024-05-19T08:29:58Z</time>
      </trkpt>
      <trkpt lat="45.46558" lon="5.19204">
        <ele>523.09</ele>
        <time>2024-05-19T08:30:17Z</time>
      </trkpt>
      <trkpt lat="45.46569" lon="5.19171">
        <ele>521.17</ele>
        <time>2024-05-19T08:30:35Z</time>
      </trkpt>
      <trkpt lat="45.46581" lon="5.19126">
        <ele>527.42</ele>
        <time>2024-05-19T08:30:53Z</time>
      </trkpt>
      <trkpt lat="45.46586" lon="5.19098">
        <ele>534.63</ele>
        <time>2024-05-19T08:31:07Z</time>
      </trkpt>
      <trkpt lat="45.4659" lon="5.19063">
        <ele>533.67</ele>
        <time>2024-05-19T08:31:24Z</time>
      </trkpt>
      <trkpt lat="45.46592" lon="5.1903">
        <ele>531.75</ele>
        <time>2024-05-19T08:31:40Z</time>
      </trkpt>
      <trkpt lat="45.46593" lon="5.18998">
        <ele>528.86</ele>
        <time>2024-05-19T08:31:56Z</time>
      </trkpt>
      <trkpt lat="45.46596" lon="5.18979">
        <ele>527.42</ele>
        <time>2024-05-19T08:32:06Z</time>
      </trkpt>
      <trkpt lat="45.46596" lon="5.18977">
        <ele>526.94</ele>
        <time>2024-05-19T08:32:07Z</time>
      </trkpt>
      <trkpt lat="45.46599" lon="5.1895">
        <ele>525.02</ele>
        <time>2024-05-19T08:32:22Z</time>
      </trkpt>
      <trkpt lat="45.466" lon="5.18901">
        <ele>528.38</ele>
        <time>2024-05-19T08:32:43Z</time>
      </trkpt>
      <trkpt lat="45.46598" lon="5.18865">
        <ele>527.9</ele>
        <time>2024-05-19T08:33:00Z</time>
      </trkpt>
      <trkpt lat="45.4659" lon="5.18829">
        <ele>525.02</ele>
        <time>2024-05-19T08:33:19Z</time>
      </trkpt>
      <trkpt lat="45.46586" lon="5.18814">
        <ele>524.06</ele>
        <time>2024-05-19T08:33:26Z</time>
      </trkpt>
      <trkpt lat="45.46586" lon="5.18812">
        <ele>524.06</ele>
        <time>2024-05-19T08:33:27Z</time>
      </trkpt>
      <trkpt lat="45.46598" lon="5.18787">
        <ele>525.5</ele>
        <time>2024-05-19T08:33:44Z</time>
      </trkpt>
      <trkpt lat="45.46612" lon="5.1876">
        <ele>524.54</ele>
        <time>2024-05-19T08:34:01Z</time>
      </trkpt>
      <trkpt lat="45.4663" lon="5.18729">
        <ele>525.02</ele>
        <time>2024-05-19T08:34:20Z</time>
      </trkpt>
      <trkpt lat="45.46649" lon="5.18698">
        <ele>523.09</ele>
        <time>2024-05-19T08:34:41Z</time>
      </trkpt>
      <trkpt lat="45.46654" lon="5.18666">
        <ele>519.25</ele>
        <time>2024-05-19T08:34:59Z</time>
      </trkpt>
      <trkpt lat="45.46648" lon="5.18638">
        <ele>518.29</ele>
        <time>2024-05-19T08:35:15Z</time>
      </trkpt>
      <trkpt lat="45.46636" lon="5.18598">
        <ele>521.17</ele>
        <time>2024-05-19T08:35:34Z</time>
      </trkpt>
      <trkpt lat="45.46622" lon="5.18568">
        <ele>524.06</ele>
        <time>2024-05-19T08:35:52Z</time>
      </trkpt>
      <trkpt lat="45.46607" lon="5.18537">
        <ele>526.46</ele>
        <time>2024-05-19T08:36:10Z</time>
      </trkpt>
      <trkpt lat="45.46591" lon="5.18507">
        <ele>529.82</ele>
        <time>2024-05-19T08:36:28Z</time>
      </trkpt>
      <trkpt lat="45.46578" lon="5.18488">
        <ele>527.9</ele>
        <time>2024-05-19T08:36:45Z</time>
      </trkpt>
      <trkpt lat="45.46564" lon="5.18469">
        <ele>526.46</ele>
        <time>2024-05-19T08:36:59Z</time>
      </trkpt>
      <trkpt lat="45.46544" lon="5.18458">
        <ele>523.09</ele>
        <time>2024-05-19T08:37:17Z</time>
      </trkpt>
      <trkpt lat="45.46535" lon="5.18457">
        <ele>523.58</ele>
        <time>2024-05-19T08:37:22Z</time>
      </trkpt>
      <trkpt lat="45.46524" lon="5.18453">
        <ele>523.58</ele>
        <time>2024-05-19T08:37:38Z</time>
      </trkpt>
      <trkpt lat="45.4652" lon="5.18457">
        <ele>522.61</ele>
        <time>2024-05-19T08:37:56Z</time>
      </trkpt>
      <trkpt lat="45.46516" lon="5.18461">
        <ele>522.61</ele>
        <time>2024-05-19T08:38:25Z</time>
      </trkpt>
      <trkpt lat="45.46514" lon="5.18463">
        <ele>519.73</ele>
        <time>2024-05-19T08:38:58Z</time>
      </trkpt>
      <trkpt lat="45.46512" lon="5.18464">
        <ele>517.33</ele>
        <time>2024-05-19T08:39:26Z</time>
      </trkpt>
      <trkpt lat="45.46518" lon="5.18462">
        <ele>523.58</ele>
        <time>2024-05-19T08:40:00Z</time>
      </trkpt>
      <trkpt lat="45.4652" lon="5.18461">
        <ele>529.82</ele>
        <time>2024-05-19T08:40:30Z</time>
      </trkpt>
      <trkpt lat="45.46517" lon="5.18454">
        <ele>531.27</ele>
        <time>2024-05-19T08:41:00Z</time>
      </trkpt>
      <trkpt lat="45.46517" lon="5.18464">
        <ele>529.34</ele>
        <time>2024-05-19T08:41:24Z</time>
      </trkpt>
      <trkpt lat="45.46515" lon="5.18456">
        <ele>528.86</ele>
        <time>2024-05-19T08:41:48Z</time>
      </trkpt>
      <trkpt lat="45.46518" lon="5.18461">
        <ele>527.42</ele>
        <time>2024-05-19T08:42:16Z</time>
      </trkpt>
      <trkpt lat="45.46512" lon="5.18444">
        <ele>525.98</ele>
        <time>2024-05-19T08:42:37Z</time>
      </trkpt>
      <trkpt lat="45.46519" lon="5.18418">
        <ele>525.5</ele>
        <time>2024-05-19T08:42:52Z</time>
      </trkpt>
      <trkpt lat="45.46521" lon="5.18382">
        <ele>521.17</ele>
        <time>2024-05-19T08:43:10Z</time>
      </trkpt>
      <trkpt lat="45.4652" lon="5.18377">
        <ele>520.69</ele>
        <time>2024-05-19T08:43:12Z</time>
      </trkpt>
      <trkpt lat="45.46511" lon="5.18345">
        <ele>519.25</ele>
        <time>2024-05-19T08:43:25Z</time>
      </trkpt>
      <trkpt lat="45.46497" lon="5.18323">
        <ele>517.81</ele>
        <time>2024-05-19T08:43:41Z</time>
      </trkpt>
      <trkpt lat="45.46479" lon="5.18287">
        <ele>515.4</ele>
        <time>2024-05-19T08:44:00Z</time>
      </trkpt>
      <trkpt lat="45.46473" lon="5.18248">
        <ele>513.48</ele>
        <time>2024-05-19T08:44:18Z</time>
      </trkpt>
      <trkpt lat="45.46453" lon="5.18218">
        <ele>514.92</ele>
        <time>2024-05-19T08:44:38Z</time>
      </trkpt>
      <trkpt lat="45.46433" lon="5.18193">
        <ele>511.08</ele>
        <time>2024-05-19T08:44:58Z</time>
      </trkpt>
      <trkpt lat="45.46406" lon="5.18167">
        <ele>513</ele>
        <time>2024-05-19T08:45:18Z</time>
      </trkpt>
      <trkpt lat="45.46387" lon="5.18135">
        <ele>515.88</ele>
        <time>2024-05-19T08:45:37Z</time>
      </trkpt>
      <trkpt lat="45.4637" lon="5.18103">
        <ele>516.85</ele>
        <time>2024-05-19T08:45:57Z</time>
      </trkpt>
      <trkpt lat="45.46362" lon="5.18073">
        <ele>515.88</ele>
        <time>2024-05-19T08:46:15Z</time>
      </trkpt>
      <trkpt lat="45.46348" lon="5.18052">
        <ele>517.33</ele>
        <time>2024-05-19T08:46:31Z</time>
      </trkpt>
      <trkpt lat="45.46338" lon="5.18025">
        <ele>514.44</ele>
        <time>2024-05-19T08:46:47Z</time>
      </trkpt>
      <trkpt lat="45.46325" lon="5.17993">
        <ele>510.6</ele>
        <time>2024-05-19T08:47:06Z</time>
      </trkpt>
      <trkpt lat="45.46308" lon="5.17955">
        <ele>504.35</ele>
        <time>2024-05-19T08:47:27Z</time>
      </trkpt>
      <trkpt lat="45.46295" lon="5.17923">
        <ele>500.02</ele>
        <time>2024-05-19T08:47:44Z</time>
      </trkpt>
      <trkpt lat="45.46288" lon="5.17888">
        <ele>492.81</ele>
        <time>2024-05-19T08:48:03Z</time>
      </trkpt>
      <trkpt lat="45.46293" lon="5.17861">
        <ele>484.64</ele>
        <time>2024-05-19T08:48:20Z</time>
      </trkpt>
      <trkpt lat="45.4629" lon="5.17816">
        <ele>488.49</ele>
        <time>2024-05-19T08:48:38Z</time>
      </trkpt>
      <trkpt lat="45.46286" lon="5.17809">
        <ele>489.45</ele>
        <time>2024-05-19T08:48:42Z</time>
      </trkpt>
      <trkpt lat="45.46269" lon="5.1777">
        <ele>493.77</ele>
        <time>2024-05-19T08:49:00Z</time>
      </trkpt>
      <trkpt lat="45.46255" lon="5.17747">
        <ele>496.66</ele>
        <time>2024-05-19T08:49:16Z</time>
      </trkpt>
      <trkpt lat="45.46235" lon="5.17734">
        <ele>497.62</ele>
        <time>2024-05-19T08:49:29Z</time>
      </trkpt>
      <trkpt lat="45.46231" lon="5.17727">
        <ele>497.62</ele>
        <time>2024-05-19T08:49:33Z</time>
      </trkpt>
      <trkpt lat="45.46206" lon="5.1769">
        <ele>497.62</ele>
        <time>2024-05-19T08:49:54Z</time>
      </trkpt>
      <trkpt lat="45.46205" lon="5.17688">
        <ele>497.62</ele>
        <time>2024-05-19T08:49:55Z</time>
      </trkpt>
      <trkpt lat="45.46203" lon="5.1768">
        <ele>496.18</ele>
        <time>2024-05-19T08:49:59Z</time>
      </trkpt>
      <trkpt lat="45.462" lon="5.17673">
        <ele>495.7</ele>
        <time>2024-05-19T08:50:03Z</time>
      </trkpt>
      <trkpt lat="45.46192" lon="5.17665">
        <ele>493.77</ele>
        <time>2024-05-19T08:50:12Z</time>
      </trkpt>
      <trkpt lat="45.46188" lon="5.17668">
        <ele>494.26</ele>
        <time>2024-05-19T08:50:16Z</time>
      </trkpt>
      <trkpt lat="45.46162" lon="5.17699">
        <ele>497.62</ele>
        <time>2024-05-19T08:50:38Z</time>
      </trkpt>
      <trkpt lat="45.46143" lon="5.17731">
        <ele>498.58</ele>
        <time>2024-05-19T08:50:57Z</time>
      </trkpt>
      <trkpt lat="45.46122" lon="5.17772">
        <ele>500.98</ele>
        <time>2024-05-19T08:51:20Z</time>
      </trkpt>
      <trkpt lat="45.46101" lon="5.17809">
        <ele>502.43</ele>
        <time>2024-05-19T08:51:44Z</time>
      </trkpt>
      <trkpt lat="45.46078" lon="5.17818">
        <ele>500.98</ele>
        <time>2024-05-19T08:52:02Z</time>
      </trkpt>
      <trkpt lat="45.46054" lon="5.17784">
        <ele>495.7</ele>
        <time>2024-05-19T08:52:24Z</time>
      </trkpt>
      <trkpt lat="45.46036" lon="5.17756">
        <ele>493.29</ele>
        <time>2024-05-19T08:52:41Z</time>
      </trkpt>
      <trkpt lat="45.46023" lon="5.17721">
        <ele>489.45</ele>
        <time>2024-05-19T08:53:01Z</time>
      </trkpt>
      <trkpt lat="45.46021" lon="5.17694">
        <ele>486.08</ele>
        <time>2024-05-19T08:53:20Z</time>
      </trkpt>
      <trkpt lat="45.4602" lon="5.17684">
        <ele>487.53</ele>
        <time>2024-05-19T08:53:35Z</time>
      </trkpt>
      <trkpt lat="45.46024" lon="5.17652">
        <ele>488.49</ele>
        <time>2024-05-19T08:53:51Z</time>
      </trkpt>
      <trkpt lat="45.46022" lon="5.17609">
        <ele>489.45</ele>
        <time>2024-05-19T08:54:11Z</time>
      </trkpt>
      <trkpt lat="45.46021" lon="5.17566">
        <ele>488.49</ele>
        <time>2024-05-19T08:54:31Z</time>
      </trkpt>
      <trkpt lat="45.46028" lon="5.17541">
        <ele>484.64</ele>
        <time>2024-05-19T08:54:47Z</time>
      </trkpt>
      <trkpt lat="45.4603" lon="5.1751">
        <ele>481.28</ele>
        <time>2024-05-19T08:55:03Z</time>
      </trkpt>
      <trkpt lat="45.4602" lon="5.17469">
        <ele>480.8</ele>
        <time>2024-05-19T08:55:22Z</time>
      </trkpt>
      <trkpt lat="45.46013" lon="5.17444">
        <ele>483.2</ele>
        <time>2024-05-19T08:55:35Z</time>
      </trkpt>
      <trkpt lat="45.46007" lon="5.17409">
        <ele>483.2</ele>
        <time>2024-05-19T08:55:52Z</time>
      </trkpt>
      <trkpt lat="45.45993" lon="5.17372">
        <ele>482.72</ele>
        <time>2024-05-19T08:56:13Z</time>
      </trkpt>
      <trkpt lat="45.45986" lon="5.1737">
        <ele>482.72</ele>
        <time>2024-05-19T08:56:19Z</time>
      </trkpt>
      <trkpt lat="45.45962" lon="5.1738">
        <ele>481.76</ele>
        <time>2024-05-19T08:56:39Z</time>
      </trkpt>
      <trkpt lat="45.45934" lon="5.17396">
        <ele>481.76</ele>
        <time>2024-05-19T08:57:00Z</time>
      </trkpt>
      <trkpt lat="45.45911" lon="5.17415">
        <ele>483.2</ele>
        <time>2024-05-19T08:57:18Z</time>
      </trkpt>
      <trkpt lat="45.45886" lon="5.17436">
        <ele>482.72</ele>
        <time>2024-05-19T08:57:39Z</time>
      </trkpt>
      <trkpt lat="45.45866" lon="5.17461">
        <ele>477.91</ele>
        <time>2024-05-19T08:58:01Z</time>
      </trkpt>
      <trkpt lat="45.45857" lon="5.17481">
        <ele>474.07</ele>
        <time>2024-05-19T08:58:19Z</time>
      </trkpt>
      <trkpt lat="45.45854" lon="5.17489">
        <ele>473.11</ele>
        <time>2024-05-19T08:58:39Z</time>
      </trkpt>
      <trkpt lat="45.45846" lon="5.17503">
        <ele>476.47</ele>
        <time>2024-05-19T08:59:07Z</time>
      </trkpt>
      <trkpt lat="45.45836" lon="5.17527">
        <ele>477.43</ele>
        <time>2024-05-19T08:59:24Z</time>
      </trkpt>
      <trkpt lat="45.45817" lon="5.17538">
        <ele>476.95</ele>
        <time>2024-05-19T08:59:39Z</time>
      </trkpt>
      <trkpt lat="45.45813" lon="5.17541">
        <ele>473.59</ele>
        <time>2024-05-19T08:59:59Z</time>
      </trkpt>
      <trkpt lat="45.45813" lon="5.17549">
        <ele>472.63</ele>
        <time>2024-05-19T09:00:26Z</time>
      </trkpt>
      <trkpt lat="45.45799" lon="5.17566">
        <ele>473.11</ele>
        <time>2024-05-19T09:00:46Z</time>
      </trkpt>
      <trkpt lat="45.45797" lon="5.1757">
        <ele>473.11</ele>
        <time>2024-05-19T09:00:48Z</time>
      </trkpt>
      <trkpt lat="45.45777" lon="5.17593">
        <ele>475.51</ele>
        <time>2024-05-19T09:01:06Z</time>
      </trkpt>
      <trkpt lat="45.45769" lon="5.17611">
        <ele>476.47</ele>
        <time>2024-05-19T09:01:26Z</time>
      </trkpt>
      <trkpt lat="45.45753" lon="5.17641">
        <ele>478.39</ele>
        <time>2024-05-19T09:01:44Z</time>
      </trkpt>
      <trkpt lat="45.45735" lon="5.17669">
        <ele>482.72</ele>
        <time>2024-05-19T09:02:02Z</time>
      </trkpt>
      <trkpt lat="45.4572" lon="5.17696">
        <ele>487.05</ele>
        <time>2024-05-19T09:02:20Z</time>
      </trkpt>
      <trkpt lat="45.45707" lon="5.17726">
        <ele>490.41</ele>
        <time>2024-05-19T09:02:39Z</time>
      </trkpt>
      <trkpt lat="45.45689" lon="5.17748">
        <ele>491.85</ele>
        <time>2024-05-19T09:02:55Z</time>
      </trkpt>
      <trkpt lat="45.45668" lon="5.17746">
        <ele>491.85</ele>
        <time>2024-05-19T09:03:08Z</time>
      </trkpt>
      <trkpt lat="45.45648" lon="5.17739">
        <ele>493.29</ele>
        <time>2024-05-19T09:03:21Z</time>
      </trkpt>
      <trkpt lat="45.45628" lon="5.17733">
        <ele>495.22</ele>
        <time>2024-05-19T09:03:36Z</time>
      </trkpt>
      <trkpt lat="45.456" lon="5.17726">
        <ele>495.7</ele>
        <time>2024-05-19T09:03:56Z</time>
      </trkpt>
      <trkpt lat="45.45571" lon="5.17717">
        <ele>497.62</ele>
        <time>2024-05-19T09:04:15Z</time>
      </trkpt>
      <trkpt lat="45.45545" lon="5.1771">
        <ele>500.5</ele>
        <time>2024-05-19T09:04:34Z</time>
      </trkpt>
      <trkpt lat="45.45522" lon="5.17693">
        <ele>502.43</ele>
        <time>2024-05-19T09:04:52Z</time>
      </trkpt>
      <trkpt lat="45.45501" lon="5.17679">
        <ele>504.35</ele>
        <time>2024-05-19T09:05:10Z</time>
      </trkpt>
      <trkpt lat="45.45479" lon="5.17663">
        <ele>505.79</ele>
        <time>2024-05-19T09:05:28Z</time>
      </trkpt>
      <trkpt lat="45.45456" lon="5.17646">
        <ele>508.67</ele>
        <time>2024-05-19T09:05:47Z</time>
      </trkpt>
      <trkpt lat="45.45429" lon="5.17616">
        <ele>513.48</ele>
        <time>2024-05-19T09:06:10Z</time>
      </trkpt>
      <trkpt lat="45.45416" lon="5.17601">
        <ele>516.37</ele>
        <time>2024-05-19T09:06:23Z</time>
      </trkpt>
      <trkpt lat="45.45416" lon="5.17599">
        <ele>516.37</ele>
        <time>2024-05-19T09:06:24Z</time>
      </trkpt>
      <trkpt lat="45.45416" lon="5.17597">
        <ele>516.37</ele>
        <time>2024-05-19T09:06:25Z</time>
      </trkpt>
      <trkpt lat="45.45416" lon="5.17595">
        <ele>516.37</ele>
        <time>2024-05-19T09:06:26Z</time>
      </trkpt>
      <trkpt lat="45.45417" lon="5.17593">
        <ele>516.37</ele>
        <time>2024-05-19T09:06:27Z</time>
      </trkpt>
      <trkpt lat="45.45422" lon="5.17564">
        <ele>517.33</ele>
        <time>2024-05-19T09:06:45Z</time>
      </trkpt>
      <trkpt lat="45.45429" lon="5.17528">
        <ele>518.29</ele>
        <time>2024-05-19T09:07:06Z</time>
      </trkpt>
      <trkpt lat="45.45435" lon="5.17491">
        <ele>516.37</ele>
        <time>2024-05-19T09:07:27Z</time>
      </trkpt>
      <trkpt lat="45.45437" lon="5.17442">
        <ele>514.92</ele>
        <time>2024-05-19T09:07:50Z</time>
      </trkpt>
      <trkpt lat="45.45436" lon="5.17386">
        <ele>517.81</ele>
        <time>2024-05-19T09:08:14Z</time>
      </trkpt>
      <trkpt lat="45.45438" lon="5.1735">
        <ele>522.13</ele>
        <time>2024-05-19T09:08:34Z</time>
      </trkpt>
      <trkpt lat="45.45443" lon="5.17324">
        <ele>522.61</ele>
        <time>2024-05-19T09:08:47Z</time>
      </trkpt>
      <trkpt lat="45.45455" lon="5.17299">
        <ele>523.09</ele>
        <time>2024-05-19T09:09:04Z</time>
      </trkpt>
      <trkpt lat="45.45458" lon="5.17294">
        <ele>523.58</ele>
        <time>2024-05-19T09:09:08Z</time>
      </trkpt>
      <trkpt lat="45.45459" lon="5.17293">
        <ele>523.58</ele>
        <time>2024-05-19T09:09:09Z</time>
      </trkpt>
      <trkpt lat="45.45469" lon="5.17283">
        <ele>523.09</ele>
        <time>2024-05-19T09:09:24Z</time>
      </trkpt>
      <trkpt lat="45.45483" lon="5.1724">
        <ele>521.65</ele>
        <time>2024-05-19T09:09:45Z</time>
      </trkpt>
      <trkpt lat="45.455" lon="5.17213">
        <ele>517.33</ele>
        <time>2024-05-19T09:10:05Z</time>
      </trkpt>
      <trkpt lat="45.45515" lon="5.17179">
        <ele>520.21</ele>
        <time>2024-05-19T09:10:24Z</time>
      </trkpt>
      <trkpt lat="45.45521" lon="5.17161">
        <ele>516.85</ele>
        <time>2024-05-19T09:10:39Z</time>
      </trkpt>
      <trkpt lat="45.45515" lon="5.17142">
        <ele>516.85</ele>
        <time>2024-05-19T09:10:54Z</time>
      </trkpt>
      <trkpt lat="45.45495" lon="5.1712">
        <ele>518.29</ele>
        <time>2024-05-19T09:11:13Z</time>
      </trkpt>
      <trkpt lat="45.45474" lon="5.17095">
        <ele>521.65</ele>
        <time>2024-05-19T09:11:31Z</time>
      </trkpt>
      <trkpt lat="45.45463" lon="5.17051">
        <ele>526.94</ele>
        <time>2024-05-19T09:11:54Z</time>
      </trkpt>
      <trkpt lat="45.45459" lon="5.17046">
        <ele>526.94</ele>
        <time>2024-05-19T09:11:57Z</time>
      </trkpt>
      <trkpt lat="45.45447" lon="5.1701">
        <ele>526.46</ele>
        <time>2024-05-19T09:12:18Z</time>
      </trkpt>
      <trkpt lat="45.45438" lon="5.16973">
        <ele>526.94</ele>
        <time>2024-05-19T09:12:37Z</time>
      </trkpt>
      <trkpt lat="45.45434" lon="5.16935">
        <ele>531.75</ele>
        <time>2024-05-19T09:12:55Z</time>
      </trkpt>
      <trkpt lat="45.4542" lon="5.169">
        <ele>534.63</ele>
        <time>2024-05-19T09:13:13Z</time>
      </trkpt>
      <trkpt lat="45.45409" lon="5.16867">
        <ele>532.71</ele>
        <time>2024-05-19T09:13:32Z</time>
      </trkpt>
      <trkpt lat="45.45409" lon="5.16818">
        <ele>529.34</ele>
        <time>2024-05-19T09:13:56Z</time>
      </trkpt>
      <trkpt lat="45.45397" lon="5.16804">
        <ele>526.94</ele>
        <time>2024-05-19T09:14:14Z</time>
      </trkpt>
      <trkpt lat="45.45375" lon="5.16795">
        <ele>523.09</ele>
        <time>2024-05-19T09:14:35Z</time>
      </trkpt>
      <trkpt lat="45.45358" lon="5.1678">
        <ele>523.09</ele>
        <time>2024-05-19T09:14:49Z</time>
      </trkpt>
      <trkpt lat="45.45354" lon="5.16772">
        <ele>524.54</ele>
        <time>2024-05-19T09:15:05Z</time>
      </trkpt>
      <trkpt lat="45.45345" lon="5.1677">
        <ele>525.98</ele>
        <time>2024-05-19T09:15:22Z</time>
      </trkpt>
      <trkpt lat="45.45344" lon="5.16768">
        <ele>528.38</ele>
        <time>2024-05-19T09:15:38Z</time>
      </trkpt>
      <trkpt lat="45.45345" lon="5.16768">
        <ele>529.34</ele>
        <time>2024-05-19T09:16:00Z</time>
      </trkpt>
      <trkpt lat="45.45338" lon="5.16773">
        <ele>528.38</ele>
        <time>2024-05-19T09:16:25Z</time>
      </trkpt>
      <trkpt lat="45.45331" lon="5.16773">
        <ele>526.94</ele>
        <time>2024-05-19T09:16:40Z</time>
      </trkpt>
      <trkpt lat="45.45332" lon="5.16774">
        <ele>526.46</ele>
        <time>2024-05-19T09:16:42Z</time>
      </trkpt>
      <trkpt lat="45.45348" lon="5.16771">
        <ele>525.5</ele>
        <time>2024-05-19T09:16:56Z</time>
      </trkpt>
      <trkpt lat="45.45355" lon="5.16771">
        <ele>527.42</ele>
        <time>2024-05-19T09:17:12Z</time>
      </trkpt>
      <trkpt lat="45.45359" lon="5.1676">
        <ele>531.27</ele>
        <time>2024-05-19T09:17:32Z</time>
      </trkpt>
      <trkpt lat="45.4536" lon="5.16757">
        <ele>531.27</ele>
        <time>2024-05-19T09:17:35Z</time>
      </trkpt>
      <trkpt lat="45.4537" lon="5.16732">
        <ele>526.94</ele>
        <time>2024-05-19T09:17:51Z</time>
      </trkpt>
      <trkpt lat="45.45385" lon="5.16707">
        <ele>523.09</ele>
        <time>2024-05-19T09:18:07Z</time>
      </trkpt>
      <trkpt lat="45.45401" lon="5.16678">
        <ele>519.25</ele>
        <time>2024-05-19T09:18:25Z</time>
      </trkpt>
      <trkpt lat="45.45409" lon="5.16662">
        <ele>519.73</ele>
        <time>2024-05-19T09:18:32Z</time>
      </trkpt>
      <trkpt lat="45.45411" lon="5.16657">
        <ele>519.73</ele>
        <time>2024-05-19T09:18:35Z</time>
      </trkpt>
      <trkpt lat="45.45424" lon="5.1663">
        <ele>519.73</ele>
        <time>2024-05-19T09:18:52Z</time>
      </trkpt>
      <trkpt lat="45.45425" lon="5.16619">
        <ele>518.77</ele>
        <time>2024-05-19T09:18:59Z</time>
      </trkpt>
      <trkpt lat="45.45411" lon="5.16594">
        <ele>520.69</ele>
        <time>2024-05-19T09:19:14Z</time>
      </trkpt>
      <trkpt lat="45.45403" lon="5.16583">
        <ele>521.17</ele>
        <time>2024-05-19T09:19:29Z</time>
      </trkpt>
      <trkpt lat="45.45388" lon="5.16564">
        <ele>520.21</ele>
        <time>2024-05-19T09:19:45Z</time>
      </trkpt>
      <trkpt lat="45.45369" lon="5.16545">
        <ele>518.29</ele>
        <time>2024-05-19T09:20:02Z</time>
      </trkpt>
      <trkpt lat="45.45349" lon="5.16522">
        <ele>516.37</ele>
        <time>2024-05-19T09:20:18Z</time>
      </trkpt>
      <trkpt lat="45.4533" lon="5.16528">
        <ele>520.21</ele>
        <time>2024-05-19T09:20:36Z</time>
      </trkpt>
      <trkpt lat="45.45315" lon="5.16558">
        <ele>523.09</ele>
        <time>2024-05-19T09:20:55Z</time>
      </trkpt>
      <trkpt lat="45.45314" lon="5.16561">
        <ele>523.09</ele>
        <time>2024-05-19T09:20:56Z</time>
      </trkpt>
      <trkpt lat="45.4531" lon="5.16568">
        <ele>524.06</ele>
        <time>2024-05-19T09:20:59Z</time>
      </trkpt>
      <trkpt lat="45.4529" lon="5.16603">
        <ele>522.13</ele>
        <time>2024-05-19T09:21:21Z</time>
      </trkpt>
      <trkpt lat="45.45283" lon="5.16647">
        <ele>521.17</ele>
        <time>2024-05-19T09:21:41Z</time>
      </trkpt>
      <trkpt lat="45.45271" lon="5.16685">
        <ele>525.98</ele>
        <time>2024-05-19T09:22:00Z</time>
      </trkpt>
      <trkpt lat="45.45252" lon="5.16721">
        <ele>531.27</ele>
        <time>2024-05-19T09:22:20Z</time>
      </trkpt>
      <trkpt lat="45.45234" lon="5.16757">
        <ele>533.19</ele>
        <time>2024-05-19T09:22:37Z</time>
      </trkpt>
      <trkpt lat="45.45234" lon="5.16781">
        <ele>531.75</ele>
        <time>2024-05-19T09:22:51Z</time>
      </trkpt>
      <trkpt lat="45.45229" lon="5.16816">
        <ele>527.9</ele>
        <time>2024-05-19T09:23:10Z</time>
      </trkpt>
      <trkpt lat="45.45228" lon="5.1685">
        <ele>526.46</ele>
        <time>2024-05-19T09:23:29Z</time>
      </trkpt>
      <trkpt lat="45.45232" lon="5.16862">
        <ele>527.9</ele>
        <time>2024-05-19T09:23:38Z</time>
      </trkpt>
      <trkpt lat="45.4522" lon="5.16904">
        <ele>525.5</ele>
        <time>2024-05-19T09:24:00Z</time>
      </trkpt>
      <trkpt lat="45.45205" lon="5.16931">
        <ele>529.34</ele>
        <time>2024-05-19T09:24:16Z</time>
      </trkpt>
      <trkpt lat="45.45192" lon="5.16965">
        <ele>529.34</ele>
        <time>2024-05-19T09:24:36Z</time>
      </trkpt>
      <trkpt lat="45.45181" lon="5.16997">
        <ele>529.82</ele>
        <time>2024-05-19T09:24:57Z</time>
      </trkpt>
      <trkpt lat="45.45152" lon="5.17037">
        <ele>530.79</ele>
        <time>2024-05-19T09:25:18Z</time>
      </trkpt>
      <trkpt lat="45.45131" lon="5.1706">
        <ele>529.34</ele>
        <time>2024-05-19T09:25:38Z</time>
      </trkpt>
      <trkpt lat="45.45128" lon="5.17083">
        <ele>526.94</ele>
        <time>2024-05-19T09:25:55Z</time>
      </trkpt>
      <trkpt lat="45.45131" lon="5.17103">
        <ele>526.46</ele>
        <time>2024-05-19T09:26:03Z</time>
      </trkpt>
      <trkpt lat="45.45133" lon="5.17111">
        <ele>527.42</ele>
        <time>2024-05-19T09:26:07Z</time>
      </trkpt>
      <trkpt lat="45.45137" lon="5.17119">
        <ele>526.94</ele>
        <time>2024-05-19T09:26:11Z</time>
      </trkpt>
      <trkpt lat="45.45149" lon="5.17147">
        <ele>525.5</ele>
        <time>2024-05-19T09:26:30Z</time>
      </trkpt>
      <trkpt lat="45.45158" lon="5.17159">
        <ele>525.02</ele>
        <time>2024-05-19T09:26:49Z</time>
      </trkpt>
      <trkpt lat="45.4516" lon="5.17161">
        <ele>535.59</ele>
        <time>2024-05-19T09:27:18Z</time>
      </trkpt>
      <trkpt lat="45.45164" lon="5.1716">
        <ele>539.92</ele>
        <time>2024-05-19T09:27:38Z</time>
      </trkpt>
      <trkpt lat="45.4516" lon="5.17162">
        <ele>539.44</ele>
        <time>2024-05-19T09:27:59Z</time>
      </trkpt>
      <trkpt lat="45.45158" lon="5.17167">
        <ele>537.51</ele>
        <time>2024-05-19T09:28:13Z</time>
      </trkpt>
      <trkpt lat="45.45161" lon="5.1717">
        <ele>533.19</ele>
        <time>2024-05-19T09:28:38Z</time>
      </trkpt>
      <trkpt lat="45.4516" lon="5.17175">
        <ele>533.19</ele>
        <time>2024-05-19T09:28:44Z</time>
      </trkpt>
      <trkpt lat="45.45157" lon="5.17196">
        <ele>532.71</ele>
        <time>2024-05-19T09:28:57Z</time>
      </trkpt>
      <trkpt lat="45.45154" lon="5.17212">
        <ele>531.27</ele>
        <time>2024-05-19T09:29:12Z</time>
      </trkpt>
      <trkpt lat="45.4516" lon="5.17211">
        <ele>528.86</ele>
        <time>2024-05-19T09:29:20Z</time>
      </trkpt>
      <trkpt lat="45.45179" lon="5.1721">
        <ele>526.94</ele>
        <time>2024-05-19T09:29:37Z</time>
      </trkpt>
      <trkpt lat="45.45189" lon="5.17215">
        <ele>526.46</ele>
        <time>2024-05-19T09:29:56Z</time>
      </trkpt>
      <trkpt lat="45.4519" lon="5.17216">
        <ele>531.27</ele>
        <time>2024-05-19T09:30:19Z</time>
      </trkpt>
      <trkpt lat="45.45191" lon="5.1722">
        <ele>534.63</ele>
        <time>2024-05-19T09:30:47Z</time>
      </trkpt>
      <trkpt lat="45.4519" lon="5.17213">
        <ele>532.71</ele>
        <time>2024-05-19T09:31:06Z</time>
      </trkpt>
      <trkpt lat="45.45188" lon="5.17213">
        <ele>532.71</ele>
        <time>2024-05-19T09:31:23Z</time>
      </trkpt>
      <trkpt lat="45.4519" lon="5.17215">
        <ele>537.51</ele>
        <time>2024-05-19T09:31:43Z</time>
      </trkpt>
      <trkpt lat="45.45187" lon="5.17215">
        <ele>537.51</ele>
        <time>2024-05-19T09:32:04Z</time>
      </trkpt>
      <trkpt lat="45.45185" lon="5.17213">
        <ele>535.59</ele>
        <time>2024-05-19T09:32:29Z</time>
      </trkpt>
      <trkpt lat="45.45165" lon="5.17213">
        <ele>529.34</ele>
        <time>2024-05-19T09:32:51Z</time>
      </trkpt>
      <trkpt lat="45.45151" lon="5.17207">
        <ele>531.75</ele>
        <time>2024-05-19T09:33:07Z</time>
      </trkpt>
      <trkpt lat="45.45156" lon="5.17168">
        <ele>533.67</ele>
        <time>2024-05-19T09:33:25Z</time>
      </trkpt>
      <trkpt lat="45.45154" lon="5.17155">
        <ele>533.19</ele>
        <time>2024-05-19T09:33:40Z</time>
      </trkpt>
      <trkpt lat="45.4515" lon="5.17154">
        <ele>533.67</ele>
        <time>2024-05-19T09:34:03Z</time>
      </trkpt>
      <trkpt lat="45.45149" lon="5.17154">
        <ele>533.67</ele>
        <time>2024-05-19T09:34:04Z</time>
      </trkpt>
      <trkpt lat="45.45141" lon="5.17144">
        <ele>532.71</ele>
        <time>2024-05-19T09:34:14Z</time>
      </trkpt>
      <trkpt lat="45.45129" lon="5.17098">
        <ele>532.71</ele>
        <time>2024-05-19T09:34:34Z</time>
      </trkpt>
      <trkpt lat="45.45127" lon="5.17079">
        <ele>532.71</ele>
        <time>2024-05-19T09:34:48Z</time>
      </trkpt>
      <trkpt lat="45.45131" lon="5.17053">
        <ele>533.19</ele>
        <time>2024-05-19T09:35:04Z</time>
      </trkpt>
      <trkpt lat="45.45153" lon="5.17026">
        <ele>531.75</ele>
        <time>2024-05-19T09:35:23Z</time>
      </trkpt>
      <trkpt lat="45.45172" lon="5.16996">
        <ele>530.3</ele>
        <time>2024-05-19T09:35:42Z</time>
      </trkpt>
      <trkpt lat="45.45187" lon="5.16967">
        <ele>527.42</ele>
        <time>2024-05-19T09:35:58Z</time>
      </trkpt>
      <trkpt lat="45.45195" lon="5.16944">
        <ele>523.58</ele>
        <time>2024-05-19T09:36:13Z</time>
      </trkpt>
      <trkpt lat="45.452" lon="5.16935">
        <ele>524.06</ele>
        <time>2024-05-19T09:36:17Z</time>
      </trkpt>
      <trkpt lat="45.45212" lon="5.16905">
        <ele>525.5</ele>
        <time>2024-05-19T09:36:33Z</time>
      </trkpt>
      <trkpt lat="45.45218" lon="5.16882">
        <ele>522.61</ele>
        <time>2024-05-19T09:36:46Z</time>
      </trkpt>
      <trkpt lat="45.45222" lon="5.16868">
        <ele>521.17</ele>
        <time>2024-05-19T09:36:53Z</time>
      </trkpt>
      <trkpt lat="45.45226" lon="5.16856">
        <ele>518.77</ele>
        <time>2024-05-19T09:37:02Z</time>
      </trkpt>
      <trkpt lat="45.45225" lon="5.16847">
        <ele>517.81</ele>
        <time>2024-05-19T09:37:06Z</time>
      </trkpt>
      <trkpt lat="45.45227" lon="5.16833">
        <ele>516.37</ele>
        <time>2024-05-19T09:37:13Z</time>
      </trkpt>
      <trkpt lat="45.45229" lon="5.16804">
        <ele>514.44</ele>
        <time>2024-05-19T09:37:27Z</time>
      </trkpt>
      <trkpt lat="45.4523" lon="5.16785">
        <ele>517.33</ele>
        <time>2024-05-19T09:37:33Z</time>
      </trkpt>
      <trkpt lat="45.45232" lon="5.16769">
        <ele>520.69</ele>
        <time>2024-05-19T09:37:41Z</time>
      </trkpt>
      <trkpt lat="45.45239" lon="5.16738">
        <ele>525.98</ele>
        <time>2024-05-19T09:37:57Z</time>
      </trkpt>
      <trkpt lat="45.45244" lon="5.16729">
        <ele>525.98</ele>
        <time>2024-05-19T09:38:02Z</time>
      </trkpt>
      <trkpt lat="45.45258" lon="5.16697">
        <ele>525.02</ele>
        <time>2024-05-19T09:38:18Z</time>
      </trkpt>
      <trkpt lat="45.45272" lon="5.16652">
        <ele>523.09</ele>
        <time>2024-05-19T09:38:40Z</time>
      </trkpt>
      <trkpt lat="45.45281" lon="5.16619">
        <ele>519.73</ele>
        <time>2024-05-19T09:38:57Z</time>
      </trkpt>
      <trkpt lat="45.45293" lon="5.16591">
        <ele>524.54</ele>
        <time>2024-05-19T09:39:12Z</time>
      </trkpt>
      <trkpt lat="45.45311" lon="5.16553">
        <ele>521.65</ele>
        <time>2024-05-19T09:39:31Z</time>
      </trkpt>
      <trkpt lat="45.45323" lon="5.16529">
        <ele>520.69</ele>
        <time>2024-05-19T09:39:48Z</time>
      </trkpt>
      <trkpt lat="45.45324" lon="5.16531">
        <ele>524.54</ele>
        <time>2024-05-19T09:40:08Z</time>
      </trkpt>
      <trkpt lat="45.45326" lon="5.1653">
        <ele>525.02</ele>
        <time>2024-05-19T09:40:33Z</time>
      </trkpt>
      <trkpt lat="45.45325" lon="5.16529">
        <ele>525.5</ele>
        <time>2024-05-19T09:40:56Z</time>
      </trkpt>
      <trkpt lat="45.45327" lon="5.16526">
        <ele>526.46</ele>
        <time>2024-05-19T09:41:23Z</time>
      </trkpt>
      <trkpt lat="45.45329" lon="5.16521">
        <ele>525.02</ele>
        <time>2024-05-19T09:41:51Z</time>
      </trkpt>
      <trkpt lat="45.45325" lon="5.16524">
        <ele>528.86</ele>
        <time>2024-05-19T09:42:16Z</time>
      </trkpt>
      <trkpt lat="45.45313" lon="5.16515">
        <ele>531.27</ele>
        <time>2024-05-19T09:42:41Z</time>
      </trkpt>
      <trkpt lat="45.4532" lon="5.16509">
        <ele>534.15</ele>
        <time>2024-05-19T09:43:10Z</time>
      </trkpt>
      <trkpt lat="45.45316" lon="5.16521">
        <ele>536.07</ele>
        <time>2024-05-19T09:43:34Z</time>
      </trkpt>
      <trkpt lat="45.45316" lon="5.1651">
        <ele>529.82</ele>
        <time>2024-05-19T09:44:00Z</time>
      </trkpt>
      <trkpt lat="45.45319" lon="5.16513">
        <ele>527.42</ele>
        <time>2024-05-19T09:44:24Z</time>
      </trkpt>
      <trkpt lat="45.45327" lon="5.16515">
        <ele>530.3</ele>
        <time>2024-05-19T09:44:56Z</time>
      </trkpt>
      <trkpt lat="45.45326" lon="5.16502">
        <ele>529.82</ele>
        <time>2024-05-19T09:45:13Z</time>
      </trkpt>
      <trkpt lat="45.45327" lon="5.16512">
        <ele>532.23</ele>
        <time>2024-05-19T09:45:49Z</time>
      </trkpt>
      <trkpt lat="45.45323" lon="5.16516">
        <ele>532.23</ele>
        <time>2024-05-19T09:46:22Z</time>
      </trkpt>
      <trkpt lat="45.45334" lon="5.16511">
        <ele>535.59</ele>
        <time>2024-05-19T09:46:52Z</time>
      </trkpt>
      <trkpt lat="45.4533" lon="5.16511">
        <ele>541.84</ele>
        <time>2024-05-19T09:47:19Z</time>
      </trkpt>
      <trkpt lat="45.45322" lon="5.16522">
        <ele>540.4</ele>
        <time>2024-05-19T09:47:44Z</time>
      </trkpt>
      <trkpt lat="45.45332" lon="5.16514">
        <ele>538.48</ele>
        <time>2024-05-19T09:48:08Z</time>
      </trkpt>
      <trkpt lat="45.45345" lon="5.16527">
        <ele>534.63</ele>
        <time>2024-05-19T09:48:22Z</time>
      </trkpt>
      <trkpt lat="45.45351" lon="5.16533">
        <ele>533.67</ele>
        <time>2024-05-19T09:48:27Z</time>
      </trkpt>
      <trkpt lat="45.45368" lon="5.16551">
        <ele>530.79</ele>
        <time>2024-05-19T09:48:42Z</time>
      </trkpt>
      <trkpt lat="45.45387" lon="5.16569">
        <ele>528.86</ele>
        <time>2024-05-19T09:49:00Z</time>
      </trkpt>
      <trkpt lat="45.45406" lon="5.16586">
        <ele>527.9</ele>
        <time>2024-05-19T09:49:15Z</time>
      </trkpt>
      <trkpt lat="45.45424" lon="5.16607">
        <ele>525.5</ele>
        <time>2024-05-19T09:49:32Z</time>
      </trkpt>
      <trkpt lat="45.4543" lon="5.16612">
        <ele>524.06</ele>
        <time>2024-05-19T09:49:48Z</time>
      </trkpt>
      <trkpt lat="45.45426" lon="5.16616">
        <ele>524.06</ele>
        <time>2024-05-19T09:49:55Z</time>
      </trkpt>
      <trkpt lat="45.45418" lon="5.16646">
        <ele>523.09</ele>
        <time>2024-05-19T09:50:13Z</time>
      </trkpt>
      <trkpt lat="45.45408" lon="5.16665">
        <ele>522.13</ele>
        <time>2024-05-19T09:50:32Z</time>
      </trkpt>
      <trkpt lat="45.45392" lon="5.16701">
        <ele>519.73</ele>
        <time>2024-05-19T09:50:51Z</time>
      </trkpt>
      <trkpt lat="45.45377" lon="5.16734">
        <ele>520.69</ele>
        <time>2024-05-19T09:51:08Z</time>
      </trkpt>
      <trkpt lat="45.45364" lon="5.16762">
        <ele>519.25</ele>
        <time>2024-05-19T09:51:28Z</time>
      </trkpt>
      <trkpt lat="45.4537" lon="5.16783">
        <ele>518.29</ele>
        <time>2024-05-19T09:51:42Z</time>
      </trkpt>
      <trkpt lat="45.45384" lon="5.16795">
        <ele>519.73</ele>
        <time>2024-05-19T09:51:58Z</time>
      </trkpt>
      <trkpt lat="45.45386" lon="5.16799">
        <ele>525.02</ele>
        <time>2024-05-19T09:52:22Z</time>
      </trkpt>
      <trkpt lat="45.45394" lon="5.16799">
        <ele>525.98</ele>
        <time>2024-05-19T09:52:38Z</time>
      </trkpt>
      <trkpt lat="45.45405" lon="5.16803">
        <ele>525.5</ele>
        <time>2024-05-19T09:52:48Z</time>
      </trkpt>
      <trkpt lat="45.45407" lon="5.1681">
        <ele>524.54</ele>
        <time>2024-05-19T09:52:52Z</time>
      </trkpt>
      <trkpt lat="45.45411" lon="5.1684">
        <ele>526.46</ele>
        <time>2024-05-19T09:53:08Z</time>
      </trkpt>
      <trkpt lat="45.45411" lon="5.16845">
        <ele>525.5</ele>
        <time>2024-05-19T09:53:11Z</time>
      </trkpt>
      <trkpt lat="45.45414" lon="5.16866">
        <ele>524.54</ele>
        <time>2024-05-19T09:53:21Z</time>
      </trkpt>
      <trkpt lat="45.45421" lon="5.16888">
        <ele>522.13</ele>
        <time>2024-05-19T09:53:34Z</time>
      </trkpt>
      <trkpt lat="45.4543" lon="5.16917">
        <ele>521.65</ele>
        <time>2024-05-19T09:53:49Z</time>
      </trkpt>
      <trkpt lat="45.45435" lon="5.16941">
        <ele>522.61</ele>
        <time>2024-05-19T09:54:01Z</time>
      </trkpt>
      <trkpt lat="45.45443" lon="5.16972">
        <ele>522.13</ele>
        <time>2024-05-19T09:54:17Z</time>
      </trkpt>
      <trkpt lat="45.4545" lon="5.17003">
        <ele>524.06</ele>
        <time>2024-05-19T09:54:32Z</time>
      </trkpt>
      <trkpt lat="45.45455" lon="5.17028">
        <ele>523.58</ele>
        <time>2024-05-19T09:54:44Z</time>
      </trkpt>
      <trkpt lat="45.45466" lon="5.17053">
        <ele>524.06</ele>
        <time>2024-05-19T09:54:57Z</time>
      </trkpt>
      <trkpt lat="45.45471" lon="5.17067">
        <ele>522.61</ele>
        <time>2024-05-19T09:55:12Z</time>
      </trkpt>
      <trkpt lat="45.45478" lon="5.17097">
        <ele>527.42</ele>
        <time>2024-05-19T09:55:29Z</time>
      </trkpt>
      <trkpt lat="45.45494" lon="5.17116">
        <ele>527.9</ele>
        <time>2024-05-19T09:55:43Z</time>
      </trkpt>
      <trkpt lat="45.45512" lon="5.17136">
        <ele>523.58</ele>
        <time>2024-05-19T09:55:58Z</time>
      </trkpt>
      <trkpt lat="45.4552" lon="5.17149">
        <ele>518.29</ele>
        <time>2024-05-19T09:56:08Z</time>
      </trkpt>
      <trkpt lat="45.45514" lon="5.17173">
        <ele>513</ele>
        <time>2024-05-19T09:56:22Z</time>
      </trkpt>
      <trkpt lat="45.45504" lon="5.17201">
        <ele>512.04</ele>
        <time>2024-05-19T09:56:39Z</time>
      </trkpt>
      <trkpt lat="45.45492" lon="5.1723">
        <ele>509.64</ele>
        <time>2024-05-19T09:56:57Z</time>
      </trkpt>
      <trkpt lat="45.45478" lon="5.17262">
        <ele>506.27</ele>
        <time>2024-05-19T09:57:16Z</time>
      </trkpt>
      <trkpt lat="45.4547" lon="5.17283">
        <ele>504.35</ele>
        <time>2024-05-19T09:57:28Z</time>
      </trkpt>
      <trkpt lat="45.45448" lon="5.17309">
        <ele>503.87</ele>
        <time>2024-05-19T09:57:47Z</time>
      </trkpt>
      <trkpt lat="45.45439" lon="5.17348">
        <ele>509.64</ele>
        <time>2024-05-19T09:58:03Z</time>
      </trkpt>
      <trkpt lat="45.45434" lon="5.17386">
        <ele>514.92</ele>
        <time>2024-05-19T09:58:18Z</time>
      </trkpt>
      <trkpt lat="45.45437" lon="5.17432">
        <ele>517.81</ele>
        <time>2024-05-19T09:58:38Z</time>
      </trkpt>
      <trkpt lat="45.45436" lon="5.17476">
        <ele>517.33</ele>
        <time>2024-05-19T09:58:58Z</time>
      </trkpt>
      <trkpt lat="45.4543" lon="5.17519">
        <ele>517.33</ele>
        <time>2024-05-19T09:59:17Z</time>
      </trkpt>
      <trkpt lat="45.45424" lon="5.17557">
        <ele>515.4</ele>
        <time>2024-05-19T09:59:35Z</time>
      </trkpt>
      <trkpt lat="45.45415" lon="5.17587">
        <ele>511.56</ele>
        <time>2024-05-19T09:59:51Z</time>
      </trkpt>
      <trkpt lat="45.45389" lon="5.17596">
        <ele>510.6</ele>
        <time>2024-05-19T10:00:08Z</time>
      </trkpt>
      <trkpt lat="45.45358" lon="5.17618">
        <ele>511.08</ele>
        <time>2024-05-19T10:00:29Z</time>
      </trkpt>
      <trkpt lat="45.45329" lon="5.17628">
        <ele>509.16</ele>
        <time>2024-05-19T10:00:49Z</time>
      </trkpt>
      <trkpt lat="45.45306" lon="5.17632">
        <ele>503.39</ele>
        <time>2024-05-19T10:01:06Z</time>
      </trkpt>
      <trkpt lat="45.45277" lon="5.17635">
        <ele>499.54</ele>
        <time>2024-05-19T10:01:25Z</time>
      </trkpt>
      <trkpt lat="45.45257" lon="5.17635">
        <ele>497.14</ele>
        <time>2024-05-19T10:01:39Z</time>
      </trkpt>
      <trkpt lat="45.45249" lon="5.17634">
        <ele>496.18</ele>
        <time>2024-05-19T10:01:44Z</time>
      </trkpt>
      <trkpt lat="45.45244" lon="5.17629">
        <ele>496.18</ele>
        <time>2024-05-19T10:01:48Z</time>
      </trkpt>
      <trkpt lat="45.4524" lon="5.17625">
        <ele>496.66</ele>
        <time>2024-05-19T10:02:03Z</time>
      </trkpt>
      <trkpt lat="45.45238" lon="5.17629">
        <ele>500.98</ele>
        <time>2024-05-19T10:02:28Z</time>
      </trkpt>
      <trkpt lat="45.45238" lon="5.17628">
        <ele>501.46</ele>
        <time>2024-05-19T10:02:40Z</time>
      </trkpt>
      <trkpt lat="45.45241" lon="5.17627">
        <ele>503.39</ele>
        <time>2024-05-19T10:02:57Z</time>
      </trkpt>
      <trkpt lat="45.45243" lon="5.17627">
        <ele>504.35</ele>
        <time>2024-05-19T10:03:17Z</time>
      </trkpt>
      <trkpt lat="45.45243" lon="5.17626">
        <ele>505.31</ele>
        <time>2024-05-19T10:03:43Z</time>
      </trkpt>
      <trkpt lat="45.45241" lon="5.17629">
        <ele>504.83</ele>
        <time>2024-05-19T10:04:00Z</time>
      </trkpt>
      <trkpt lat="45.45241" lon="5.17627">
        <ele>504.83</ele>
        <time>2024-05-19T10:04:16Z</time>
      </trkpt>
      <trkpt lat="45.45241" lon="5.17627">
        <ele>504.83</ele>
        <time>2024-05-19T10:04:44Z</time>
      </trkpt>
      <trkpt lat="45.45241" lon="5.17627">
        <ele>505.79</ele>
        <time>2024-05-19T10:05:11Z</time>
      </trkpt>
      <trkpt lat="45.45241" lon="5.17631">
        <ele>505.31</ele>
        <time>2024-05-19T10:05:20Z</time>
      </trkpt>
      <trkpt lat="45.45236" lon="5.1764">
        <ele>504.35</ele>
        <time>2024-05-19T10:05:25Z</time>
      </trkpt>
      <trkpt lat="45.4522" lon="5.17671">
        <ele>500.5</ele>
        <time>2024-05-19T10:05:44Z</time>
      </trkpt>
      <trkpt lat="45.45209" lon="5.17711">
        <ele>496.18</ele>
        <time>2024-05-19T10:06:05Z</time>
      </trkpt>
      <trkpt lat="45.45197" lon="5.17747">
        <ele>497.62</ele>
        <time>2024-05-19T10:06:24Z</time>
      </trkpt>
      <trkpt lat="45.45169" lon="5.17758">
        <ele>500.02</ele>
        <time>2024-05-19T10:06:42Z</time>
      </trkpt>
      <trkpt lat="45.45131" lon="5.17766">
        <ele>500.98</ele>
        <time>2024-05-19T10:07:08Z</time>
      </trkpt>
      <trkpt lat="45.451" lon="5.17774">
        <ele>500.98</ele>
        <time>2024-05-19T10:07:29Z</time>
      </trkpt>
      <trkpt lat="45.45073" lon="5.17771">
        <ele>498.58</ele>
        <time>2024-05-19T10:07:47Z</time>
      </trkpt>
      <trkpt lat="45.45044" lon="5.17757">
        <ele>496.66</ele>
        <time>2024-05-19T10:08:06Z</time>
      </trkpt>
      <trkpt lat="45.45014" lon="5.17744">
        <ele>500.02</ele>
        <time>2024-05-19T10:08:26Z</time>
      </trkpt>
      <trkpt lat="45.4499" lon="5.17737">
        <ele>504.35</ele>
        <time>2024-05-19T10:08:43Z</time>
      </trkpt>
      <trkpt lat="45.44961" lon="5.17726">
        <ele>506.27</ele>
        <time>2024-05-19T10:09:02Z</time>
      </trkpt>
      <trkpt lat="45.44946" lon="5.17721">
        <ele>505.79</ele>
        <time>2024-05-19T10:09:16Z</time>
      </trkpt>
      <trkpt lat="45.44936" lon="5.17718">
        <ele>503.39</ele>
        <time>2024-05-19T10:09:37Z</time>
      </trkpt>
      <trkpt lat="45.44911" lon="5.17708">
        <ele>502.91</ele>
        <time>2024-05-19T10:09:53Z</time>
      </trkpt>
      <trkpt lat="45.44889" lon="5.17697">
        <ele>500.5</ele>
        <time>2024-05-19T10:10:10Z</time>
      </trkpt>
      <trkpt lat="45.44866" lon="5.1769">
        <ele>499.54</ele>
        <time>2024-05-19T10:10:25Z</time>
      </trkpt>
      <trkpt lat="45.44844" lon="5.17685">
        <ele>500.02</ele>
        <time>2024-05-19T10:10:40Z</time>
      </trkpt>
      <trkpt lat="45.4481" lon="5.17673">
        <ele>498.1</ele>
        <time>2024-05-19T10:11:02Z</time>
      </trkpt>
      <trkpt lat="45.44789" lon="5.17665">
        <ele>496.66</ele>
        <time>2024-05-19T10:11:16Z</time>
      </trkpt>
      <trkpt lat="45.44785" lon="5.17663">
        <ele>496.18</ele>
        <time>2024-05-19T10:11:19Z</time>
      </trkpt>
      <trkpt lat="45.44761" lon="5.17657">
        <ele>496.18</ele>
        <time>2024-05-19T10:11:37Z</time>
      </trkpt>
      <trkpt lat="45.44752" lon="5.17655">
        <ele>496.66</ele>
        <time>2024-05-19T10:11:43Z</time>
      </trkpt>
      <trkpt lat="45.44731" lon="5.17647">
        <ele>498.58</ele>
        <time>2024-05-19T10:11:59Z</time>
      </trkpt>
      <trkpt lat="45.44708" lon="5.1764">
        <ele>500.5</ele>
        <time>2024-05-19T10:12:17Z</time>
      </trkpt>
      <trkpt lat="45.4468" lon="5.17634">
        <ele>503.87</ele>
        <time>2024-05-19T10:12:34Z</time>
      </trkpt>
      <trkpt lat="45.44668" lon="5.17631">
        <ele>506.75</ele>
        <time>2024-05-19T10:12:44Z</time>
      </trkpt>
      <trkpt lat="45.44659" lon="5.17617">
        <ele>511.08</ele>
        <time>2024-05-19T10:13:03Z</time>
      </trkpt>
      <trkpt lat="45.44656" lon="5.17614">
        <ele>513</ele>
        <time>2024-05-19T10:13:24Z</time>
      </trkpt>
      <trkpt lat="45.44624" lon="5.17606">
        <ele>513.48</ele>
        <time>2024-05-19T10:13:45Z</time>
      </trkpt>
      <trkpt lat="45.44597" lon="5.17602">
        <ele>511.56</ele>
        <time>2024-05-19T10:14:02Z</time>
      </trkpt>
      <trkpt lat="45.44572" lon="5.17615">
        <ele>509.64</ele>
        <time>2024-05-19T10:14:20Z</time>
      </trkpt>
      <trkpt lat="45.44545" lon="5.17647">
        <ele>511.08</ele>
        <time>2024-05-19T10:14:43Z</time>
      </trkpt>
      <trkpt lat="45.44518" lon="5.17679">
        <ele>512.04</ele>
        <time>2024-05-19T10:15:06Z</time>
      </trkpt>
      <trkpt lat="45.44494" lon="5.17711">
        <ele>512.04</ele>
        <time>2024-05-19T10:15:27Z</time>
      </trkpt>
      <trkpt lat="45.44495" lon="5.17729">
        <ele>510.6</ele>
        <time>2024-05-19T10:15:39Z</time>
      </trkpt>
      <trkpt lat="45.44516" lon="5.17738">
        <ele>510.12</ele>
        <time>2024-05-19T10:15:58Z</time>
      </trkpt>
      <trkpt lat="45.44525" lon="5.17741">
        <ele>512.52</ele>
        <time>2024-05-19T10:16:22Z</time>
      </trkpt>
      <trkpt lat="45.44532" lon="5.17746">
        <ele>512.52</ele>
        <time>2024-05-19T10:16:30Z</time>
      </trkpt>
      <trkpt lat="45.44546" lon="5.17775">
        <ele>514.44</ele>
        <time>2024-05-19T10:16:51Z</time>
      </trkpt>
      <trkpt lat="45.44546" lon="5.17781">
        <ele>513.48</ele>
        <time>2024-05-19T10:16:55Z</time>
      </trkpt>
      <trkpt lat="45.44547" lon="5.17821">
        <ele>509.64</ele>
        <time>2024-05-19T10:17:13Z</time>
      </trkpt>
      <trkpt lat="45.44538" lon="5.17855">
        <ele>511.56</ele>
        <time>2024-05-19T10:17:31Z</time>
      </trkpt>
      <trkpt lat="45.44526" lon="5.17896">
        <ele>517.33</ele>
        <time>2024-05-19T10:17:49Z</time>
      </trkpt>
      <trkpt lat="45.44524" lon="5.17938">
        <ele>521.65</ele>
        <time>2024-05-19T10:18:08Z</time>
      </trkpt>
      <trkpt lat="45.44532" lon="5.17968">
        <ele>523.09</ele>
        <time>2024-05-19T10:18:23Z</time>
      </trkpt>
      <trkpt lat="45.44541" lon="5.17997">
        <ele>523.58</ele>
        <time>2024-05-19T10:18:40Z</time>
      </trkpt>
      <trkpt lat="45.44542" lon="5.17999">
        <ele>523.58</ele>
        <time>2024-05-19T10:18:41Z</time>
      </trkpt>
      <trkpt lat="45.44535" lon="5.18031">
        <ele>524.06</ele>
        <time>2024-05-19T10:18:58Z</time>
      </trkpt>
      <trkpt lat="45.44524" lon="5.18063">
        <ele>525.98</ele>
        <time>2024-05-19T10:19:16Z</time>
      </trkpt>
      <trkpt lat="45.44523" lon="5.18095">
        <ele>526.94</ele>
        <time>2024-05-19T10:19:34Z</time>
      </trkpt>
      <trkpt lat="45.44528" lon="5.1813">
        <ele>527.42</ele>
        <time>2024-05-19T10:19:52Z</time>
      </trkpt>
      <trkpt lat="45.44531" lon="5.18172">
        <ele>527.9</ele>
        <time>2024-05-19T10:20:12Z</time>
      </trkpt>
      <trkpt lat="45.44533" lon="5.18206">
        <ele>528.38</ele>
        <time>2024-05-19T10:20:29Z</time>
      </trkpt>
      <trkpt lat="45.44525" lon="5.18241">
        <ele>527.9</ele>
        <time>2024-05-19T10:20:46Z</time>
      </trkpt>
      <trkpt lat="45.44514" lon="5.18275">
        <ele>526.46</ele>
        <time>2024-05-19T10:21:04Z</time>
      </trkpt>
      <trkpt lat="45.44498" lon="5.18317">
        <ele>527.42</ele>
        <time>2024-05-19T10:21:24Z</time>
      </trkpt>
      <trkpt lat="45.44492" lon="5.18356">
        <ele>530.79</ele>
        <time>2024-05-19T10:21:42Z</time>
      </trkpt>
      <trkpt lat="45.44487" lon="5.18396">
        <ele>531.27</ele>
        <time>2024-05-19T10:22:02Z</time>
      </trkpt>
      <trkpt lat="45.44485" lon="5.18454">
        <ele>534.63</ele>
        <time>2024-05-19T10:22:23Z</time>
      </trkpt>
      <trkpt lat="45.4448" lon="5.18497">
        <ele>539.44</ele>
        <time>2024-05-19T10:22:42Z</time>
      </trkpt>
      <trkpt lat="45.44476" lon="5.18536">
        <ele>540.88</ele>
        <time>2024-05-19T10:22:58Z</time>
      </trkpt>
      <trkpt lat="45.44467" lon="5.18576">
        <ele>540.4</ele>
        <time>2024-05-19T10:23:17Z</time>
      </trkpt>
      <trkpt lat="45.44455" lon="5.18615">
        <ele>538.96</ele>
        <time>2024-05-19T10:23:35Z</time>
      </trkpt>
      <trkpt lat="45.44442" lon="5.18652">
        <ele>539.44</ele>
        <time>2024-05-19T10:23:53Z</time>
      </trkpt>
      <trkpt lat="45.44432" lon="5.18695">
        <ele>539.44</ele>
        <time>2024-05-19T10:24:14Z</time>
      </trkpt>
      <trkpt lat="45.44422" lon="5.18742">
        <ele>540.4</ele>
        <time>2024-05-19T10:24:36Z</time>
      </trkpt>
      <trkpt lat="45.44412" lon="5.18786">
        <ele>540.4</ele>
        <time>2024-05-19T10:24:59Z</time>
      </trkpt>
      <trkpt lat="45.44397" lon="5.18831">
        <ele>539.92</ele>
        <time>2024-05-19T10:25:19Z</time>
      </trkpt>
      <trkpt lat="45.44387" lon="5.18874">
        <ele>537.03</ele>
        <time>2024-05-19T10:25:40Z</time>
      </trkpt>
      <trkpt lat="45.44376" lon="5.18926">
        <ele>535.11</ele>
        <time>2024-05-19T10:26:01Z</time>
      </trkpt>
      <trkpt lat="45.44364" lon="5.18969">
        <ele>534.15</ele>
        <time>2024-05-19T10:26:21Z</time>
      </trkpt>
      <trkpt lat="45.44355" lon="5.19008">
        <ele>537.51</ele>
        <time>2024-05-19T10:26:36Z</time>
      </trkpt>
      <trkpt lat="45.4434" lon="5.19058">
        <ele>537.03</ele>
        <time>2024-05-19T10:26:48Z</time>
      </trkpt>
      <trkpt lat="45.44339" lon="5.19059">
        <ele>537.03</ele>
        <time>2024-05-19T10:26:49Z</time>
      </trkpt>
      <trkpt lat="45.44335" lon="5.1906">
        <ele>537.03</ele>
        <time>2024-05-19T10:26:53Z</time>
      </trkpt>
      <trkpt lat="45.44333" lon="5.19059">
        <ele>537.03</ele>
        <time>2024-05-19T10:26:54Z</time>
      </trkpt>
      <trkpt lat="45.44315" lon="5.19056">
        <ele>538.96</ele>
        <time>2024-05-19T10:27:10Z</time>
      </trkpt>
      <trkpt lat="45.44312" lon="5.19055">
        <ele>539.44</ele>
        <time>2024-05-19T10:27:12Z</time>
      </trkpt>
      <trkpt lat="45.4431" lon="5.19054">
        <ele>539.44</ele>
        <time>2024-05-19T10:27:13Z</time>
      </trkpt>
      <trkpt lat="45.44285" lon="5.19044">
        <ele>539.92</ele>
        <time>2024-05-19T10:27:30Z</time>
      </trkpt>
      <trkpt lat="45.44264" lon="5.19037">
        <ele>540.88</ele>
        <time>2024-05-19T10:27:45Z</time>
      </trkpt>
      <trkpt lat="45.44241" lon="5.19038">
        <ele>541.84</ele>
        <time>2024-05-19T10:28:02Z</time>
      </trkpt>
      <trkpt lat="45.44221" lon="5.19049">
        <ele>543.28</ele>
        <time>2024-05-19T10:28:18Z</time>
      </trkpt>
      <trkpt lat="45.44194" lon="5.19058">
        <ele>545.69</ele>
        <time>2024-05-19T10:28:37Z</time>
      </trkpt>
      <trkpt lat="45.44171" lon="5.19064">
        <ele>546.65</ele>
        <time>2024-05-19T10:28:53Z</time>
      </trkpt>
      <trkpt lat="45.44144" lon="5.19074">
        <ele>548.57</ele>
        <time>2024-05-19T10:29:12Z</time>
      </trkpt>
      <trkpt lat="45.4412" lon="5.19085">
        <ele>549.53</ele>
        <time>2024-05-19T10:29:29Z</time>
      </trkpt>
      <trkpt lat="45.44097" lon="5.19098">
        <ele>550.49</ele>
        <time>2024-05-19T10:29:45Z</time>
      </trkpt>
      <trkpt lat="45.44075" lon="5.19106">
        <ele>552.41</ele>
        <time>2024-05-19T10:29:59Z</time>
      </trkpt>
      <trkpt lat="45.44072" lon="5.19105">
        <ele>552.9</ele>
        <time>2024-05-19T10:30:02Z</time>
      </trkpt>
      <trkpt lat="45.44056" lon="5.19107">
        <ele>553.86</ele>
        <time>2024-05-19T10:30:14Z</time>
      </trkpt>
      <trkpt lat="45.44053" lon="5.1911">
        <ele>553.86</ele>
        <time>2024-05-19T10:30:16Z</time>
      </trkpt>
      <trkpt lat="45.44029" lon="5.19122">
        <ele>553.86</ele>
        <time>2024-05-19T10:30:33Z</time>
      </trkpt>
      <trkpt lat="45.44005" lon="5.19127">
        <ele>554.34</ele>
        <time>2024-05-19T10:30:48Z</time>
      </trkpt>
      <trkpt lat="45.43973" lon="5.19128">
        <ele>555.78</ele>
        <time>2024-05-19T10:31:05Z</time>
      </trkpt>
      <trkpt lat="45.43947" lon="5.19125">
        <ele>556.74</ele>
        <time>2024-05-19T10:31:22Z</time>
      </trkpt>
      <trkpt lat="45.43924" lon="5.19128">
        <ele>557.7</ele>
        <time>2024-05-19T10:31:38Z</time>
      </trkpt>
      <trkpt lat="45.43895" lon="5.19131">
        <ele>558.18</ele>
        <time>2024-05-19T10:32:00Z</time>
      </trkpt>
      <trkpt lat="45.43871" lon="5.19135">
        <ele>560.59</ele>
        <time>2024-05-19T10:32:17Z</time>
      </trkpt>
      <trkpt lat="45.43838" lon="5.19136">
        <ele>563.47</ele>
        <time>2024-05-19T10:32:37Z</time>
      </trkpt>
      <trkpt lat="45.43813" lon="5.19141">
        <ele>562.99</ele>
        <time>2024-05-19T10:32:55Z</time>
      </trkpt>
      <trkpt lat="45.43799" lon="5.19134">
        <ele>562.51</ele>
        <time>2024-05-19T10:33:06Z</time>
      </trkpt>
      <trkpt lat="45.43798" lon="5.19132">
        <ele>562.51</ele>
        <time>2024-05-19T10:33:07Z</time>
      </trkpt>
      <trkpt lat="45.43797" lon="5.19131">
        <ele>562.51</ele>
        <time>2024-05-19T10:33:08Z</time>
      </trkpt>
      <trkpt lat="45.43795" lon="5.19129">
        <ele>562.51</ele>
        <time>2024-05-19T10:33:09Z</time>
      </trkpt>
      <trkpt lat="45.43794" lon="5.19128">
        <ele>562.51</ele>
        <time>2024-05-19T10:33:10Z</time>
      </trkpt>
      <trkpt lat="45.43782" lon="5.19084">
        <ele>558.18</ele>
        <time>2024-05-19T10:33:30Z</time>
      </trkpt>
      <trkpt lat="45.43786" lon="5.19048">
        <ele>559.14</ele>
        <time>2024-05-19T10:33:47Z</time>
      </trkpt>
      <trkpt lat="45.43796" lon="5.19013">
        <ele>558.66</ele>
        <time>2024-05-19T10:34:05Z</time>
      </trkpt>
      <trkpt lat="45.43799" lon="5.19002">
        <ele>558.18</ele>
        <time>2024-05-19T10:34:11Z</time>
      </trkpt>
      <trkpt lat="45.43801" lon="5.18995">
        <ele>557.7</ele>
        <time>2024-05-19T10:34:15Z</time>
      </trkpt>
      <trkpt lat="45.43807" lon="5.18977">
        <ele>556.26</ele>
        <time>2024-05-19T10:34:25Z</time>
      </trkpt>
      <trkpt lat="45.43802" lon="5.18932">
        <ele>557.7</ele>
        <time>2024-05-19T10:34:42Z</time>
      </trkpt>
      <trkpt lat="45.43783" lon="5.18921">
        <ele>557.7</ele>
        <time>2024-05-19T10:34:57Z</time>
      </trkpt>
      <trkpt lat="45.43759" lon="5.1892">
        <ele>557.7</ele>
        <time>2024-05-19T10:35:14Z</time>
      </trkpt>
      <trkpt lat="45.43735" lon="5.18919">
        <ele>557.7</ele>
        <time>2024-05-19T10:35:32Z</time>
      </trkpt>
      <trkpt lat="45.4371" lon="5.18917">
        <ele>557.7</ele>
        <time>2024-05-19T10:35:48Z</time>
      </trkpt>
      <trkpt lat="45.4368" lon="5.18918">
        <ele>555.3</ele>
        <time>2024-05-19T10:36:06Z</time>
      </trkpt>
      <trkpt lat="45.43676" lon="5.18916">
        <ele>555.3</ele>
        <time>2024-05-19T10:36:09Z</time>
      </trkpt>
      <trkpt lat="45.43674" lon="5.18914">
        <ele>555.3</ele>
        <time>2024-05-19T10:36:10Z</time>
      </trkpt>
      <trkpt lat="45.43673" lon="5.18913">
        <ele>554.82</ele>
        <time>2024-05-19T10:36:11Z</time>
      </trkpt>
      <trkpt lat="45.43672" lon="5.18911">
        <ele>554.82</ele>
        <time>2024-05-19T10:36:12Z</time>
      </trkpt>
      <trkpt lat="45.43671" lon="5.18909">
        <ele>554.82</ele>
        <time>2024-05-19T10:36:13Z</time>
      </trkpt>
      <trkpt lat="45.43667" lon="5.18891">
        <ele>554.82</ele>
        <time>2024-05-19T10:36:25Z</time>
      </trkpt>
      <trkpt lat="45.43675" lon="5.18861">
        <ele>554.82</ele>
        <time>2024-05-19T10:36:40Z</time>
      </trkpt>
      <trkpt lat="45.43695" lon="5.18833">
        <ele>554.34</ele>
        <time>2024-05-19T10:36:58Z</time>
      </trkpt>
      <trkpt lat="45.43714" lon="5.18815">
        <ele>553.86</ele>
        <time>2024-05-19T10:37:12Z</time>
      </trkpt>
      <trkpt lat="45.43721" lon="5.18783">
        <ele>552.9</ele>
        <time>2024-05-19T10:37:27Z</time>
      </trkpt>
      <trkpt lat="45.43728" lon="5.18757">
        <ele>552.9</ele>
        <time>2024-05-19T10:37:41Z</time>
      </trkpt>
      <trkpt lat="45.43739" lon="5.18724">
        <ele>552.41</ele>
        <time>2024-05-19T10:38:00Z</time>
      </trkpt>
      <trkpt lat="45.43741" lon="5.18717">
        <ele>552.41</ele>
        <time>2024-05-19T10:38:03Z</time>
      </trkpt>
      <trkpt lat="45.43747" lon="5.18681">
        <ele>552.41</ele>
        <time>2024-05-19T10:38:20Z</time>
      </trkpt>
      <trkpt lat="45.43756" lon="5.18662">
        <ele>552.41</ele>
        <time>2024-05-19T10:38:32Z</time>
      </trkpt>
      <trkpt lat="45.43777" lon="5.18631">
        <ele>553.38</ele>
        <time>2024-05-19T10:38:51Z</time>
      </trkpt>
      <trkpt lat="45.43797" lon="5.18602">
        <ele>553.38</ele>
        <time>2024-05-19T10:39:07Z</time>
      </trkpt>
      <trkpt lat="45.43817" lon="5.18573">
        <ele>553.38</ele>
        <time>2024-05-19T10:39:24Z</time>
      </trkpt>
      <trkpt lat="45.43832" lon="5.18546">
        <ele>553.38</ele>
        <time>2024-05-19T10:39:40Z</time>
      </trkpt>
      <trkpt lat="45.43847" lon="5.18518">
        <ele>552.9</ele>
        <time>2024-05-19T10:39:58Z</time>
      </trkpt>
      <trkpt lat="45.43853" lon="5.18502">
        <ele>552.9</ele>
        <time>2024-05-19T10:40:06Z</time>
      </trkpt>
      <trkpt lat="45.43854" lon="5.18499">
        <ele>552.9</ele>
        <time>2024-05-19T10:40:07Z</time>
      </trkpt>
      <trkpt lat="45.43863" lon="5.18462">
        <ele>552.41</ele>
        <time>2024-05-19T10:40:24Z</time>
      </trkpt>
      <trkpt lat="45.43868" lon="5.18434">
        <ele>552.9</ele>
        <time>2024-05-19T10:40:37Z</time>
      </trkpt>
      <trkpt lat="45.43868" lon="5.18432">
        <ele>552.9</ele>
        <time>2024-05-19T10:40:38Z</time>
      </trkpt>
      <trkpt lat="45.43866" lon="5.18412">
        <ele>552.9</ele>
        <time>2024-05-19T10:40:49Z</time>
      </trkpt>
      <trkpt lat="45.43865" lon="5.18409">
        <ele>552.9</ele>
        <time>2024-05-19T10:40:50Z</time>
      </trkpt>
      <trkpt lat="45.43846" lon="5.18401">
        <ele>552.41</ele>
        <time>2024-05-19T10:41:04Z</time>
      </trkpt>
      <trkpt lat="45.43818" lon="5.18397">
        <ele>551.45</ele>
        <time>2024-05-19T10:41:22Z</time>
      </trkpt>
      <trkpt lat="45.43791" lon="5.18382">
        <ele>550.49</ele>
        <time>2024-05-19T10:41:42Z</time>
      </trkpt>
      <trkpt lat="45.43769" lon="5.18368">
        <ele>550.01</ele>
        <time>2024-05-19T10:41:58Z</time>
      </trkpt>
      <trkpt lat="45.43746" lon="5.18352">
        <ele>549.53</ele>
        <time>2024-05-19T10:42:15Z</time>
      </trkpt>
      <trkpt lat="45.43721" lon="5.18336">
        <ele>549.53</ele>
        <time>2024-05-19T10:42:33Z</time>
      </trkpt>
      <trkpt lat="45.43698" lon="5.18329">
        <ele>548.57</ele>
        <time>2024-05-19T10:42:49Z</time>
      </trkpt>
      <trkpt lat="45.4368" lon="5.18327">
        <ele>548.57</ele>
        <time>2024-05-19T10:43:04Z</time>
      </trkpt>
      <trkpt lat="45.43649" lon="5.18319">
        <ele>548.09</ele>
        <time>2024-05-19T10:43:20Z</time>
      </trkpt>
      <trkpt lat="45.43634" lon="5.18305">
        <ele>548.09</ele>
        <time>2024-05-19T10:43:39Z</time>
      </trkpt>
      <trkpt lat="45.43614" lon="5.18282">
        <ele>547.61</ele>
        <time>2024-05-19T10:43:56Z</time>
      </trkpt>
      <trkpt lat="45.43591" lon="5.1826">
        <ele>547.61</ele>
        <time>2024-05-19T10:44:15Z</time>
      </trkpt>
      <trkpt lat="45.43563" lon="5.18245">
        <ele>559.14</ele>
        <time>2024-05-19T10:44:34Z</time>
      </trkpt>
      <trkpt lat="45.43549" lon="5.18224">
        <ele>562.99</ele>
        <time>2024-05-19T10:44:50Z</time>
      </trkpt>
      <trkpt lat="45.43528" lon="5.18202">
        <ele>562.03</ele>
        <time>2024-05-19T10:45:08Z</time>
      </trkpt>
      <trkpt lat="45.43511" lon="5.18178">
        <ele>561.07</ele>
        <time>2024-05-19T10:45:24Z</time>
      </trkpt>
      <trkpt lat="45.43494" lon="5.18158">
        <ele>562.03</ele>
        <time>2024-05-19T10:45:42Z</time>
      </trkpt>
      <trkpt lat="45.43489" lon="5.18151">
        <ele>563.95</ele>
        <time>2024-05-19T10:46:02Z</time>
      </trkpt>
      <trkpt lat="45.43485" lon="5.18138">
        <ele>563.47</ele>
        <time>2024-05-19T10:46:24Z</time>
      </trkpt>
      <trkpt lat="45.43471" lon="5.18118">
        <ele>563.95</ele>
        <time>2024-05-19T10:46:38Z</time>
      </trkpt>
      <trkpt lat="45.43451" lon="5.18085">
        <ele>560.11</ele>
        <time>2024-05-19T10:46:54Z</time>
      </trkpt>
      <trkpt lat="45.43433" lon="5.18061">
        <ele>559.14</ele>
        <time>2024-05-19T10:47:09Z</time>
      </trkpt>
      <trkpt lat="45.43409" lon="5.18025">
        <ele>558.18</ele>
        <time>2024-05-19T10:47:29Z</time>
      </trkpt>
      <trkpt lat="45.43395" lon="5.18001">
        <ele>557.7</ele>
        <time>2024-05-19T10:47:45Z</time>
      </trkpt>
      <trkpt lat="45.43383" lon="5.17971">
        <ele>557.22</ele>
        <time>2024-05-19T10:48:01Z</time>
      </trkpt>
      <trkpt lat="45.43374" lon="5.17947">
        <ele>555.78</ele>
        <time>2024-05-19T10:48:16Z</time>
      </trkpt>
      <trkpt lat="45.43355" lon="5.17912">
        <ele>556.26</ele>
        <time>2024-05-19T10:48:34Z</time>
      </trkpt>
      <trkpt lat="45.43354" lon="5.17894">
        <ele>552.41</ele>
        <time>2024-05-19T10:48:45Z</time>
      </trkpt>
      <trkpt lat="45.43354" lon="5.17879">
        <ele>552.9</ele>
        <time>2024-05-19T10:48:53Z</time>
      </trkpt>
      <trkpt lat="45.43357" lon="5.17849">
        <ele>552.9</ele>
        <time>2024-05-19T10:49:10Z</time>
      </trkpt>
      <trkpt lat="45.43364" lon="5.17816">
        <ele>552.41</ele>
        <time>2024-05-19T10:49:31Z</time>
      </trkpt>
      <trkpt lat="45.43366" lon="5.17774">
        <ele>550.97</ele>
        <time>2024-05-19T10:49:49Z</time>
      </trkpt>
      <trkpt lat="45.43367" lon="5.17737">
        <ele>542.8</ele>
        <time>2024-05-19T10:50:09Z</time>
      </trkpt>
      <trkpt lat="45.43365" lon="5.17694">
        <ele>536.07</ele>
        <time>2024-05-19T10:50:28Z</time>
      </trkpt>
      <trkpt lat="45.43365" lon="5.1769">
        <ele>536.07</ele>
        <time>2024-05-19T10:50:29Z</time>
      </trkpt>
      <trkpt lat="45.43365" lon="5.17685">
        <ele>536.07</ele>
        <time>2024-05-19T10:50:30Z</time>
      </trkpt>
      <trkpt lat="45.43365" lon="5.17682">
        <ele>536.55</ele>
        <time>2024-05-19T10:50:31Z</time>
      </trkpt>
      <trkpt lat="45.43365" lon="5.1768">
        <ele>536.55</ele>
        <time>2024-05-19T10:50:32Z</time>
      </trkpt>
      <trkpt lat="45.43367" lon="5.17672">
        <ele>536.55</ele>
        <time>2024-05-19T10:50:36Z</time>
      </trkpt>
      <trkpt lat="45.43366" lon="5.17668">
        <ele>536.55</ele>
        <time>2024-05-19T10:50:37Z</time>
      </trkpt>
      <trkpt lat="45.43369" lon="5.17637">
        <ele>536.55</ele>
        <time>2024-05-19T10:50:50Z</time>
      </trkpt>
      <trkpt lat="45.4337" lon="5.17612">
        <ele>536.55</ele>
        <time>2024-05-19T10:51:04Z</time>
      </trkpt>
      <trkpt lat="45.43376" lon="5.17592">
        <ele>537.03</ele>
        <time>2024-05-19T10:51:16Z</time>
      </trkpt>
      <trkpt lat="45.43377" lon="5.17544">
        <ele>537.99</ele>
        <time>2024-05-19T10:51:37Z</time>
      </trkpt>
      <trkpt lat="45.43374" lon="5.17497">
        <ele>540.88</ele>
        <time>2024-05-19T10:52:01Z</time>
      </trkpt>
      <trkpt lat="45.4337" lon="5.17464">
        <ele>541.36</ele>
        <time>2024-05-19T10:52:15Z</time>
      </trkpt>
      <trkpt lat="45.43369" lon="5.1746">
        <ele>541.36</ele>
        <time>2024-05-19T10:52:17Z</time>
      </trkpt>
      <trkpt lat="45.43352" lon="5.17432">
        <ele>541.36</ele>
        <time>2024-05-19T10:52:37Z</time>
      </trkpt>
      <trkpt lat="45.43338" lon="5.174">
        <ele>540.88</ele>
        <time>2024-05-19T10:52:50Z</time>
      </trkpt>
      <trkpt lat="45.43325" lon="5.17369">
        <ele>541.36</ele>
        <time>2024-05-19T10:53:07Z</time>
      </trkpt>
      <trkpt lat="45.4331" lon="5.17344">
        <ele>541.36</ele>
        <time>2024-05-19T10:53:23Z</time>
      </trkpt>
      <trkpt lat="45.43297" lon="5.1733">
        <ele>540.88</ele>
        <time>2024-05-19T10:53:37Z</time>
      </trkpt>
      <trkpt lat="45.43289" lon="5.17325">
        <ele>540.88</ele>
        <time>2024-05-19T10:53:43Z</time>
      </trkpt>
      <trkpt lat="45.43262" lon="5.17304">
        <ele>540.88</ele>
        <time>2024-05-19T10:54:04Z</time>
      </trkpt>
      <trkpt lat="45.43257" lon="5.17302">
        <ele>540.88</ele>
        <time>2024-05-19T10:54:08Z</time>
      </trkpt>
      <trkpt lat="45.43227" lon="5.17297">
        <ele>540.4</ele>
        <time>2024-05-19T10:54:26Z</time>
      </trkpt>
      <trkpt lat="45.43204" lon="5.17292">
        <ele>539.92</ele>
        <time>2024-05-19T10:54:42Z</time>
      </trkpt>
      <trkpt lat="45.43176" lon="5.17287">
        <ele>539.44</ele>
        <time>2024-05-19T10:54:59Z</time>
      </trkpt>
      <trkpt lat="45.4315" lon="5.17277">
        <ele>538.96</ele>
        <time>2024-05-19T10:55:16Z</time>
      </trkpt>
      <trkpt lat="45.43112" lon="5.17274">
        <ele>545.69</ele>
        <time>2024-05-19T10:55:36Z</time>
      </trkpt>
      <trkpt lat="45.43107" lon="5.17277">
        <ele>547.13</ele>
        <time>2024-05-19T10:55:53Z</time>
      </trkpt>
      <trkpt lat="45.43112" lon="5.17287">
        <ele>555.3</ele>
        <time>2024-05-19T10:56:27Z</time>
      </trkpt>
      <trkpt lat="45.43108" lon="5.1728">
        <ele>555.3</ele>
        <time>2024-05-19T10:56:58Z</time>
      </trkpt>
      <trkpt lat="45.43105" lon="5.17274">
        <ele>553.38</ele>
        <time>2024-05-19T10:57:29Z</time>
      </trkpt>
      <trkpt lat="45.43104" lon="5.17274">
        <ele>550.49</ele>
        <time>2024-05-19T10:57:49Z</time>
      </trkpt>
      <trkpt lat="45.43098" lon="5.17272">
        <ele>551.45</ele>
        <time>2024-05-19T10:58:12Z</time>
      </trkpt>
      <trkpt lat="45.43097" lon="5.1727">
        <ele>549.53</ele>
        <time>2024-05-19T10:58:25Z</time>
      </trkpt>
      <trkpt lat="45.43097" lon="5.17267">
        <ele>547.61</ele>
        <time>2024-05-19T10:58:41Z</time>
      </trkpt>
      <trkpt lat="45.4311" lon="5.1726">
        <ele>550.01</ele>
        <time>2024-05-19T10:59:01Z</time>
      </trkpt>
      <trkpt lat="45.43116" lon="5.17256">
        <ele>549.53</ele>
        <time>2024-05-19T10:59:35Z</time>
      </trkpt>
      <trkpt lat="45.43114" lon="5.17255">
        <ele>543.28</ele>
        <time>2024-05-19T11:00:05Z</time>
      </trkpt>
      <trkpt lat="45.43111" lon="5.17253">
        <ele>543.28</ele>
        <time>2024-05-19T11:00:31Z</time>
      </trkpt>
      <trkpt lat="45.43106" lon="5.17257">
        <ele>539.44</ele>
        <time>2024-05-19T11:00:47Z</time>
      </trkpt>
      <trkpt lat="45.43102" lon="5.17268">
        <ele>529.34</ele>
        <time>2024-05-19T11:01:08Z</time>
      </trkpt>
      <trkpt lat="45.43104" lon="5.17263">
        <ele>526.46</ele>
        <time>2024-05-19T11:01:26Z</time>
      </trkpt>
      <trkpt lat="45.43104" lon="5.17267">
        <ele>525.5</ele>
        <time>2024-05-19T11:01:43Z</time>
      </trkpt>
      <trkpt lat="45.43107" lon="5.17272">
        <ele>524.54</ele>
        <time>2024-05-19T11:01:58Z</time>
      </trkpt>
      <trkpt lat="45.43102" lon="5.17279">
        <ele>521.17</ele>
        <time>2024-05-19T11:02:29Z</time>
      </trkpt>
      <trkpt lat="45.43104" lon="5.17278">
        <ele>521.17</ele>
        <time>2024-05-19T11:02:51Z</time>
      </trkpt>
      <trkpt lat="45.43103" lon="5.1727">
        <ele>520.69</ele>
        <time>2024-05-19T11:03:13Z</time>
      </trkpt>
      <trkpt lat="45.431" lon="5.17264">
        <ele>521.17</ele>
        <time>2024-05-19T11:03:39Z</time>
      </trkpt>
      <trkpt lat="45.431" lon="5.17267">
        <ele>522.13</ele>
        <time>2024-05-19T11:04:06Z</time>
      </trkpt>
      <trkpt lat="45.43098" lon="5.17272">
        <ele>525.02</ele>
        <time>2024-05-19T11:04:41Z</time>
      </trkpt>
      <trkpt lat="45.43097" lon="5.17281">
        <ele>537.03</ele>
        <time>2024-05-19T11:05:14Z</time>
      </trkpt>
      <trkpt lat="45.43103" lon="5.17287">
        <ele>536.07</ele>
        <time>2024-05-19T11:05:40Z</time>
      </trkpt>
      <trkpt lat="45.43106" lon="5.17281">
        <ele>532.71</ele>
        <time>2024-05-19T11:06:01Z</time>
      </trkpt>
      <trkpt lat="45.43104" lon="5.17279">
        <ele>531.27</ele>
        <time>2024-05-19T11:06:27Z</time>
      </trkpt>
      <trkpt lat="45.431" lon="5.17271">
        <ele>527.42</ele>
        <time>2024-05-19T11:06:40Z</time>
      </trkpt>
      <trkpt lat="45.43096" lon="5.17263">
        <ele>522.61</ele>
        <time>2024-05-19T11:06:57Z</time>
      </trkpt>
      <trkpt lat="45.43097" lon="5.17261">
        <ele>521.65</ele>
        <time>2024-05-19T11:07:11Z</time>
      </trkpt>
      <trkpt lat="45.43087" lon="5.17253">
        <ele>519.73</ele>
        <time>2024-05-19T11:07:24Z</time>
      </trkpt>
      <trkpt lat="45.43086" lon="5.17246">
        <ele>521.17</ele>
        <time>2024-05-19T11:07:42Z</time>
      </trkpt>
      <trkpt lat="45.43085" lon="5.17247">
        <ele>523.58</ele>
        <time>2024-05-19T11:08:06Z</time>
      </trkpt>
      <trkpt lat="45.43073" lon="5.17253">
        <ele>522.61</ele>
        <time>2024-05-19T11:08:22Z</time>
      </trkpt>
      <trkpt lat="45.43053" lon="5.17242">
        <ele>525.98</ele>
        <time>2024-05-19T11:08:36Z</time>
      </trkpt>
      <trkpt lat="45.43039" lon="5.1722">
        <ele>525.02</ele>
        <time>2024-05-19T11:08:50Z</time>
      </trkpt>
      <trkpt lat="45.43025" lon="5.17197">
        <ele>523.58</ele>
        <time>2024-05-19T11:09:04Z</time>
      </trkpt>
      <trkpt lat="45.43007" lon="5.17162">
        <ele>521.65</ele>
        <time>2024-05-19T11:09:23Z</time>
      </trkpt>
      <trkpt lat="45.42988" lon="5.17126">
        <ele>523.58</ele>
        <time>2024-05-19T11:09:42Z</time>
      </trkpt>
      <trkpt lat="45.42979" lon="5.17111">
        <ele>524.54</ele>
        <time>2024-05-19T11:09:52Z</time>
      </trkpt>
      <trkpt lat="45.42977" lon="5.17073">
        <ele>529.34</ele>
        <time>2024-05-19T11:10:08Z</time>
      </trkpt>
      <trkpt lat="45.42981" lon="5.17034">
        <ele>529.82</ele>
        <time>2024-05-19T11:10:24Z</time>
      </trkpt>
      <trkpt lat="45.4299" lon="5.17005">
        <ele>525.5</ele>
        <time>2024-05-19T11:10:39Z</time>
      </trkpt>
      <trkpt lat="45.43001" lon="5.16976">
        <ele>526.46</ele>
        <time>2024-05-19T11:10:52Z</time>
      </trkpt>
      <trkpt lat="45.43019" lon="5.16947">
        <ele>526.94</ele>
        <time>2024-05-19T11:11:09Z</time>
      </trkpt>
      <trkpt lat="45.43038" lon="5.16923">
        <ele>526.46</ele>
        <time>2024-05-19T11:11:26Z</time>
      </trkpt>
      <trkpt lat="45.43057" lon="5.16895">
        <ele>523.58</ele>
        <time>2024-05-19T11:11:44Z</time>
      </trkpt>
      <trkpt lat="45.43071" lon="5.16874">
        <ele>522.61</ele>
        <time>2024-05-19T11:11:59Z</time>
      </trkpt>
      <trkpt lat="45.43088" lon="5.16852">
        <ele>523.09</ele>
        <time>2024-05-19T11:12:15Z</time>
      </trkpt>
      <trkpt lat="45.43097" lon="5.16829">
        <ele>523.09</ele>
        <time>2024-05-19T11:12:30Z</time>
      </trkpt>
      <trkpt lat="45.43107" lon="5.16802">
        <ele>525.02</ele>
        <time>2024-05-19T11:12:44Z</time>
      </trkpt>
      <trkpt lat="45.43115" lon="5.16772">
        <ele>524.54</ele>
        <time>2024-05-19T11:13:00Z</time>
      </trkpt>
      <trkpt lat="45.4312" lon="5.16739">
        <ele>525.02</ele>
        <time>2024-05-19T11:13:15Z</time>
      </trkpt>
      <trkpt lat="45.43126" lon="5.16702">
        <ele>524.54</ele>
        <time>2024-05-19T11:13:32Z</time>
      </trkpt>
      <trkpt lat="45.43133" lon="5.1667">
        <ele>523.09</ele>
        <time>2024-05-19T11:13:49Z</time>
      </trkpt>
      <trkpt lat="45.43132" lon="5.16638">
        <ele>522.61</ele>
        <time>2024-05-19T11:14:05Z</time>
      </trkpt>
      <trkpt lat="45.43113" lon="5.16601">
        <ele>524.06</ele>
        <time>2024-05-19T11:14:20Z</time>
      </trkpt>
      <trkpt lat="45.43102" lon="5.16576">
        <ele>525.98</ele>
        <time>2024-05-19T11:14:34Z</time>
      </trkpt>
      <trkpt lat="45.43093" lon="5.1654">
        <ele>525.98</ele>
        <time>2024-05-19T11:14:51Z</time>
      </trkpt>
      <trkpt lat="45.43092" lon="5.16509">
        <ele>525.98</ele>
        <time>2024-05-19T11:15:04Z</time>
      </trkpt>
      <trkpt lat="45.43096" lon="5.1648">
        <ele>525.98</ele>
        <time>2024-05-19T11:15:18Z</time>
      </trkpt>
      <trkpt lat="45.43103" lon="5.16446">
        <ele>525.5</ele>
        <time>2024-05-19T11:15:34Z</time>
      </trkpt>
      <trkpt lat="45.43109" lon="5.16411">
        <ele>523.09</ele>
        <time>2024-05-19T11:15:50Z</time>
      </trkpt>
      <trkpt lat="45.43112" lon="5.16383">
        <ele>521.65</ele>
        <time>2024-05-19T11:16:01Z</time>
      </trkpt>
      <trkpt lat="45.43121" lon="5.16349">
        <ele>520.21</ele>
        <time>2024-05-19T11:16:17Z</time>
      </trkpt>
      <trkpt lat="45.43129" lon="5.16308">
        <ele>517.81</ele>
        <time>2024-05-19T11:16:35Z</time>
      </trkpt>
      <trkpt lat="45.43142" lon="5.16278">
        <ele>514.44</ele>
        <time>2024-05-19T11:16:51Z</time>
      </trkpt>
      <trkpt lat="45.43155" lon="5.16255">
        <ele>513.96</ele>
        <time>2024-05-19T11:17:06Z</time>
      </trkpt>
      <trkpt lat="45.43171" lon="5.16233">
        <ele>516.85</ele>
        <time>2024-05-19T11:17:20Z</time>
      </trkpt>
      <trkpt lat="45.43189" lon="5.16197">
        <ele>519.73</ele>
        <time>2024-05-19T11:17:38Z</time>
      </trkpt>
      <trkpt lat="45.432" lon="5.16167">
        <ele>521.65</ele>
        <time>2024-05-19T11:17:54Z</time>
      </trkpt>
      <trkpt lat="45.43204" lon="5.16127">
        <ele>520.21</ele>
        <time>2024-05-19T11:18:12Z</time>
      </trkpt>
      <trkpt lat="45.43209" lon="5.16093">
        <ele>519.73</ele>
        <time>2024-05-19T11:18:27Z</time>
      </trkpt>
      <trkpt lat="45.43215" lon="5.16056">
        <ele>520.21</ele>
        <time>2024-05-19T11:18:44Z</time>
      </trkpt>
      <trkpt lat="45.43222" lon="5.16021">
        <ele>518.77</ele>
        <time>2024-05-19T11:19:00Z</time>
      </trkpt>
      <trkpt lat="45.43229" lon="5.15983">
        <ele>520.69</ele>
        <time>2024-05-19T11:19:16Z</time>
      </trkpt>
      <trkpt lat="45.43237" lon="5.15949">
        <ele>521.17</ele>
        <time>2024-05-19T11:19:30Z</time>
      </trkpt>
      <trkpt lat="45.43241" lon="5.15919">
        <ele>521.17</ele>
        <time>2024-05-19T11:19:44Z</time>
      </trkpt>
      <trkpt lat="45.43248" lon="5.15887">
        <ele>522.61</ele>
        <time>2024-05-19T11:19:59Z</time>
      </trkpt>
      <trkpt lat="45.43255" lon="5.15853">
        <ele>521.65</ele>
        <time>2024-05-19T11:20:15Z</time>
      </trkpt>
      <trkpt lat="45.43259" lon="5.15818">
        <ele>522.61</ele>
        <time>2024-05-19T11:20:30Z</time>
      </trkpt>
      <trkpt lat="45.43271" lon="5.15784">
        <ele>523.58</ele>
        <time>2024-05-19T11:20:46Z</time>
      </trkpt>
      <trkpt lat="45.4329" lon="5.15748">
        <ele>522.61</ele>
        <time>2024-05-19T11:21:06Z</time>
      </trkpt>
      <trkpt lat="45.43306" lon="5.15723">
        <ele>522.13</ele>
        <time>2024-05-19T11:21:21Z</time>
      </trkpt>
      <trkpt lat="45.43314" lon="5.15694">
        <ele>522.61</ele>
        <time>2024-05-19T11:21:37Z</time>
      </trkpt>
      <trkpt lat="45.43315" lon="5.1567">
        <ele>522.61</ele>
        <time>2024-05-19T11:21:50Z</time>
      </trkpt>
      <trkpt lat="45.43314" lon="5.15668">
        <ele>522.61</ele>
        <time>2024-05-19T11:21:51Z</time>
      </trkpt>
      <trkpt lat="45.43317" lon="5.15638">
        <ele>524.06</ele>
        <time>2024-05-19T11:22:05Z</time>
      </trkpt>
      <trkpt lat="45.4332" lon="5.15608">
        <ele>524.06</ele>
        <time>2024-05-19T11:22:18Z</time>
      </trkpt>
      <trkpt lat="45.43319" lon="5.15585">
        <ele>524.06</ele>
        <time>2024-05-19T11:22:29Z</time>
      </trkpt>
      <trkpt lat="45.43319" lon="5.15582">
        <ele>524.06</ele>
        <time>2024-05-19T11:22:30Z</time>
      </trkpt>
      <trkpt lat="45.43319" lon="5.1558">
        <ele>524.54</ele>
        <time>2024-05-19T11:22:31Z</time>
      </trkpt>
      <trkpt lat="45.43319" lon="5.15577">
        <ele>524.54</ele>
        <time>2024-05-19T11:22:32Z</time>
      </trkpt>
      <trkpt lat="45.43319" lon="5.15573">
        <ele>524.54</ele>
        <time>2024-05-19T11:22:33Z</time>
      </trkpt>
      <trkpt lat="45.43319" lon="5.15572">
        <ele>524.54</ele>
        <time>2024-05-19T11:22:34Z</time>
      </trkpt>
      <trkpt lat="45.43318" lon="5.1557">
        <ele>524.54</ele>
        <time>2024-05-19T11:22:35Z</time>
      </trkpt>
      <trkpt lat="45.43318" lon="5.15567">
        <ele>524.54</ele>
        <time>2024-05-19T11:22:36Z</time>
      </trkpt>
      <trkpt lat="45.43319" lon="5.15565">
        <ele>524.54</ele>
        <time>2024-05-19T11:22:37Z</time>
      </trkpt>
      <trkpt lat="45.43319" lon="5.15564">
        <ele>524.54</ele>
        <time>2024-05-19T11:22:38Z</time>
      </trkpt>
      <trkpt lat="45.43319" lon="5.15532">
        <ele>523.58</ele>
        <time>2024-05-19T11:22:53Z</time>
      </trkpt>
      <trkpt lat="45.43319" lon="5.1552">
        <ele>522.61</ele>
        <time>2024-05-19T11:23:08Z</time>
      </trkpt>
      <trkpt lat="45.43321" lon="5.15522">
        <ele>524.06</ele>
        <time>2024-05-19T11:23:34Z</time>
      </trkpt>
      <trkpt lat="45.43316" lon="5.15517">
        <ele>524.06</ele>
        <time>2024-05-19T11:23:46Z</time>
      </trkpt>
      <trkpt lat="45.43315" lon="5.15518">
        <ele>524.06</ele>
        <time>2024-05-19T11:23:47Z</time>
      </trkpt>
      <trkpt lat="45.43313" lon="5.15518">
        <ele>524.06</ele>
        <time>2024-05-19T11:23:48Z</time>
      </trkpt>
      <trkpt lat="45.43305" lon="5.15514">
        <ele>524.06</ele>
        <time>2024-05-19T11:23:54Z</time>
      </trkpt>
      <trkpt lat="45.43293" lon="5.15489">
        <ele>524.54</ele>
        <time>2024-05-19T11:24:09Z</time>
      </trkpt>
      <trkpt lat="45.43289" lon="5.15478">
        <ele>525.02</ele>
        <time>2024-05-19T11:24:14Z</time>
      </trkpt>
      <trkpt lat="45.43285" lon="5.1547">
        <ele>525.5</ele>
        <time>2024-05-19T11:24:18Z</time>
      </trkpt>
      <trkpt lat="45.43266" lon="5.15443">
        <ele>526.46</ele>
        <time>2024-05-19T11:24:35Z</time>
      </trkpt>
      <trkpt lat="45.43245" lon="5.15427">
        <ele>526.46</ele>
        <time>2024-05-19T11:24:51Z</time>
      </trkpt>
      <trkpt lat="45.43233" lon="5.15442">
        <ele>524.54</ele>
        <time>2024-05-19T11:25:07Z</time>
      </trkpt>
      <trkpt lat="45.43235" lon="5.15441">
        <ele>524.06</ele>
        <time>2024-05-19T11:25:11Z</time>
      </trkpt>
      <trkpt lat="45.43242" lon="5.15442">
        <ele>525.5</ele>
        <time>2024-05-19T11:25:28Z</time>
      </trkpt>
      <trkpt lat="45.43239" lon="5.15438">
        <ele>526.46</ele>
        <time>2024-05-19T11:26:00Z</time>
      </trkpt>
      <trkpt lat="45.43237" lon="5.15446">
        <ele>522.13</ele>
        <time>2024-05-19T11:26:23Z</time>
      </trkpt>
      <trkpt lat="45.4324" lon="5.1545">
        <ele>526.94</ele>
        <time>2024-05-19T11:26:53Z</time>
      </trkpt>
      <trkpt lat="45.43239" lon="5.1545">
        <ele>527.42</ele>
        <time>2024-05-19T11:27:18Z</time>
      </trkpt>
      <trkpt lat="45.43239" lon="5.15451">
        <ele>526.46</ele>
        <time>2024-05-19T11:27:44Z</time>
      </trkpt>
      <trkpt lat="45.43245" lon="5.1545">
        <ele>527.42</ele>
        <time>2024-05-19T11:28:09Z</time>
      </trkpt>
      <trkpt lat="45.4324" lon="5.15447">
        <ele>523.58</ele>
        <time>2024-05-19T11:28:36Z</time>
      </trkpt>
      <trkpt lat="45.43233" lon="5.15445">
        <ele>522.13</ele>
        <time>2024-05-19T11:28:52Z</time>
      </trkpt>
      <trkpt lat="45.43231" lon="5.15437">
        <ele>522.13</ele>
        <time>2024-05-19T11:29:11Z</time>
      </trkpt>
      <trkpt lat="45.4323" lon="5.1544">
        <ele>519.73</ele>
        <time>2024-05-19T11:29:33Z</time>
      </trkpt>
      <trkpt lat="45.43234" lon="5.15441">
        <ele>517.33</ele>
        <time>2024-05-19T11:29:46Z</time>
      </trkpt>
      <trkpt lat="45.43234" lon="5.15443">
        <ele>518.29</ele>
        <time>2024-05-19T11:30:15Z</time>
      </trkpt>
      <trkpt lat="45.43233" lon="5.15444">
        <ele>521.17</ele>
        <time>2024-05-19T11:30:32Z</time>
      </trkpt>
      <trkpt lat="45.43232" lon="5.15443">
        <ele>524.06</ele>
        <time>2024-05-19T11:30:52Z</time>
      </trkpt>
      <trkpt lat="45.43235" lon="5.15438">
        <ele>525.98</ele>
        <time>2024-05-19T11:31:13Z</time>
      </trkpt>
      <trkpt lat="45.43234" lon="5.15436">
        <ele>522.61</ele>
        <time>2024-05-19T11:31:34Z</time>
      </trkpt>
      <trkpt lat="45.43238" lon="5.15442">
        <ele>520.69</ele>
        <time>2024-05-19T11:31:52Z</time>
      </trkpt>
      <trkpt lat="45.43238" lon="5.15439">
        <ele>519.25</ele>
        <time>2024-05-19T11:32:17Z</time>
      </trkpt>
      <trkpt lat="45.43238" lon="5.15443">
        <ele>520.69</ele>
        <time>2024-05-19T11:32:38Z</time>
      </trkpt>
      <trkpt lat="45.43238" lon="5.15443">
        <ele>519.73</ele>
        <time>2024-05-19T11:33:07Z</time>
      </trkpt>
      <trkpt lat="45.43235" lon="5.15445">
        <ele>520.21</ele>
        <time>2024-05-19T11:33:24Z</time>
      </trkpt>
      <trkpt lat="45.43237" lon="5.15445">
        <ele>524.06</ele>
        <time>2024-05-19T11:33:46Z</time>
      </trkpt>
      <trkpt lat="45.4328" lon="5.15446">
        <ele>530.79</ele>
        <time>2024-05-19T13:33:14Z</time>
      </trkpt>
      <trkpt lat="45.43286" lon="5.15461">
        <ele>540.4</ele>
        <time>2024-05-19T13:33:32Z</time>
      </trkpt>
      <trkpt lat="45.43287" lon="5.15464">
        <ele>540.88</ele>
        <time>2024-05-19T13:33:40Z</time>
      </trkpt>
      <trkpt lat="45.43292" lon="5.15473">
        <ele>544.72</ele>
        <time>2024-05-19T13:33:55Z</time>
      </trkpt>
      <trkpt lat="45.43299" lon="5.15483">
        <ele>546.17</ele>
        <time>2024-05-19T13:34:11Z</time>
      </trkpt>
      <trkpt lat="45.43313" lon="5.15505">
        <ele>545.2</ele>
        <time>2024-05-19T13:34:30Z</time>
      </trkpt>
      <trkpt lat="45.43318" lon="5.1551">
        <ele>543.76</ele>
        <time>2024-05-19T13:34:47Z</time>
      </trkpt>
      <trkpt lat="45.43321" lon="5.15535">
        <ele>543.28</ele>
        <time>2024-05-19T13:35:00Z</time>
      </trkpt>
      <trkpt lat="45.43321" lon="5.15529">
        <ele>543.28</ele>
        <time>2024-05-19T13:35:12Z</time>
      </trkpt>
      <trkpt lat="45.43323" lon="5.15521">
        <ele>542.32</ele>
        <time>2024-05-19T13:35:19Z</time>
      </trkpt>
      <trkpt lat="45.43326" lon="5.15511">
        <ele>540.4</ele>
        <time>2024-05-19T13:35:26Z</time>
      </trkpt>
      <trkpt lat="45.43327" lon="5.15489">
        <ele>538.48</ele>
        <time>2024-05-19T13:35:40Z</time>
      </trkpt>
      <trkpt lat="45.43327" lon="5.15477">
        <ele>536.07</ele>
        <time>2024-05-19T13:36:06Z</time>
      </trkpt>
      <trkpt lat="45.43329" lon="5.15471">
        <ele>538.48</ele>
        <time>2024-05-19T13:36:21Z</time>
      </trkpt>
      <trkpt lat="45.43329" lon="5.15471">
        <ele>537.51</ele>
        <time>2024-05-19T13:36:23Z</time>
      </trkpt>
      <trkpt lat="45.43328" lon="5.1545">
        <ele>533.19</ele>
        <time>2024-05-19T13:36:35Z</time>
      </trkpt>
      <trkpt lat="45.43329" lon="5.15441">
        <ele>533.19</ele>
        <time>2024-05-19T13:36:44Z</time>
      </trkpt>
      <trkpt lat="45.43333" lon="5.15414">
        <ele>532.71</ele>
        <time>2024-05-19T13:37:00Z</time>
      </trkpt>
      <trkpt lat="45.43333" lon="5.15407">
        <ele>532.71</ele>
        <time>2024-05-19T13:37:04Z</time>
      </trkpt>
      <trkpt lat="45.43337" lon="5.15388">
        <ele>533.19</ele>
        <time>2024-05-19T13:37:18Z</time>
      </trkpt>
      <trkpt lat="45.43336" lon="5.15365">
        <ele>533.19</ele>
        <time>2024-05-19T13:37:34Z</time>
      </trkpt>
      <trkpt lat="45.43335" lon="5.15337">
        <ele>531.27</ele>
        <time>2024-05-19T13:37:52Z</time>
      </trkpt>
      <trkpt lat="45.43329" lon="5.15307">
        <ele>528.38</ele>
        <time>2024-05-19T13:38:10Z</time>
      </trkpt>
      <trkpt lat="45.43322" lon="5.15289">
        <ele>526.94</ele>
        <time>2024-05-19T13:38:22Z</time>
      </trkpt>
      <trkpt lat="45.43325" lon="5.15264">
        <ele>525.02</ele>
        <time>2024-05-19T13:38:39Z</time>
      </trkpt>
      <trkpt lat="45.43328" lon="5.1524">
        <ele>524.06</ele>
        <time>2024-05-19T13:38:59Z</time>
      </trkpt>
      <trkpt lat="45.43325" lon="5.15228">
        <ele>524.54</ele>
        <time>2024-05-19T13:39:29Z</time>
      </trkpt>
      <trkpt lat="45.43326" lon="5.1521">
        <ele>525.02</ele>
        <time>2024-05-19T13:39:51Z</time>
      </trkpt>
      <trkpt lat="45.43325" lon="5.15168">
        <ele>525.5</ele>
        <time>2024-05-19T13:40:07Z</time>
      </trkpt>
      <trkpt lat="45.43326" lon="5.1516">
        <ele>525.5</ele>
        <time>2024-05-19T13:40:11Z</time>
      </trkpt>
      <trkpt lat="45.43337" lon="5.15138">
        <ele>526.46</ele>
        <time>2024-05-19T13:40:26Z</time>
      </trkpt>
      <trkpt lat="45.43339" lon="5.15134">
        <ele>526.46</ele>
        <time>2024-05-19T13:40:29Z</time>
      </trkpt>
      <trkpt lat="45.43343" lon="5.15126">
        <ele>526.46</ele>
        <time>2024-05-19T13:40:33Z</time>
      </trkpt>
      <trkpt lat="45.43354" lon="5.15099">
        <ele>527.9</ele>
        <time>2024-05-19T13:40:51Z</time>
      </trkpt>
      <trkpt lat="45.43352" lon="5.15088">
        <ele>528.86</ele>
        <time>2024-05-19T13:41:07Z</time>
      </trkpt>
      <trkpt lat="45.43357" lon="5.15067">
        <ele>528.38</ele>
        <time>2024-05-19T13:41:22Z</time>
      </trkpt>
      <trkpt lat="45.43364" lon="5.15036">
        <ele>528.86</ele>
        <time>2024-05-19T13:41:36Z</time>
      </trkpt>
      <trkpt lat="45.43368" lon="5.15018">
        <ele>528.38</ele>
        <time>2024-05-19T13:41:46Z</time>
      </trkpt>
      <trkpt lat="45.43385" lon="5.14997">
        <ele>526.94</ele>
        <time>2024-05-19T13:42:02Z</time>
      </trkpt>
      <trkpt lat="45.43412" lon="5.14981">
        <ele>526.46</ele>
        <time>2024-05-19T13:42:20Z</time>
      </trkpt>
      <trkpt lat="45.43435" lon="5.14967">
        <ele>525.5</ele>
        <time>2024-05-19T13:42:35Z</time>
      </trkpt>
      <trkpt lat="45.43458" lon="5.14953">
        <ele>525.5</ele>
        <time>2024-05-19T13:42:52Z</time>
      </trkpt>
      <trkpt lat="45.4348" lon="5.14938">
        <ele>526.46</ele>
        <time>2024-05-19T13:43:08Z</time>
      </trkpt>
      <trkpt lat="45.43501" lon="5.14924">
        <ele>526.94</ele>
        <time>2024-05-19T13:43:25Z</time>
      </trkpt>
      <trkpt lat="45.43523" lon="5.14909">
        <ele>525.98</ele>
        <time>2024-05-19T13:43:42Z</time>
      </trkpt>
      <trkpt lat="45.43549" lon="5.14893">
        <ele>525.5</ele>
        <time>2024-05-19T13:44:01Z</time>
      </trkpt>
      <trkpt lat="45.43579" lon="5.14882">
        <ele>524.54</ele>
        <time>2024-05-19T13:44:22Z</time>
      </trkpt>
      <trkpt lat="45.43613" lon="5.14872">
        <ele>524.06</ele>
        <time>2024-05-19T13:44:45Z</time>
      </trkpt>
      <trkpt lat="45.43649" lon="5.14858">
        <ele>523.58</ele>
        <time>2024-05-19T13:45:08Z</time>
      </trkpt>
      <trkpt lat="45.43679" lon="5.14861">
        <ele>522.13</ele>
        <time>2024-05-19T13:45:25Z</time>
      </trkpt>
      <trkpt lat="45.437" lon="5.14857">
        <ele>520.69</ele>
        <time>2024-05-19T13:45:39Z</time>
      </trkpt>
      <trkpt lat="45.43729" lon="5.14853">
        <ele>518.77</ele>
        <time>2024-05-19T13:45:59Z</time>
      </trkpt>
      <trkpt lat="45.43758" lon="5.14851">
        <ele>516.85</ele>
        <time>2024-05-19T13:46:19Z</time>
      </trkpt>
      <trkpt lat="45.43787" lon="5.14851">
        <ele>514.92</ele>
        <time>2024-05-19T13:46:38Z</time>
      </trkpt>
      <trkpt lat="45.43792" lon="5.14849">
        <ele>514.92</ele>
        <time>2024-05-19T13:46:42Z</time>
      </trkpt>
      <trkpt lat="45.43826" lon="5.14833">
        <ele>516.37</ele>
        <time>2024-05-19T13:47:05Z</time>
      </trkpt>
      <trkpt lat="45.43851" lon="5.14818">
        <ele>516.37</ele>
        <time>2024-05-19T13:47:25Z</time>
      </trkpt>
      <trkpt lat="45.43875" lon="5.14802">
        <ele>515.4</ele>
        <time>2024-05-19T13:47:47Z</time>
      </trkpt>
      <trkpt lat="45.43887" lon="5.14801">
        <ele>513.96</ele>
        <time>2024-05-19T13:47:57Z</time>
      </trkpt>
      <trkpt lat="45.43916" lon="5.14794">
        <ele>513.48</ele>
        <time>2024-05-19T13:48:16Z</time>
      </trkpt>
      <trkpt lat="45.43942" lon="5.14781">
        <ele>513.48</ele>
        <time>2024-05-19T13:48:34Z</time>
      </trkpt>
      <trkpt lat="45.43966" lon="5.14765">
        <ele>513.48</ele>
        <time>2024-05-19T13:48:52Z</time>
      </trkpt>
      <trkpt lat="45.43994" lon="5.14754">
        <ele>514.44</ele>
        <time>2024-05-19T13:49:12Z</time>
      </trkpt>
      <trkpt lat="45.44021" lon="5.14743">
        <ele>513.96</ele>
        <time>2024-05-19T13:49:32Z</time>
      </trkpt>
      <trkpt lat="45.44046" lon="5.14732">
        <ele>514.44</ele>
        <time>2024-05-19T13:49:49Z</time>
      </trkpt>
      <trkpt lat="45.44077" lon="5.14729">
        <ele>514.92</ele>
        <time>2024-05-19T13:50:08Z</time>
      </trkpt>
      <trkpt lat="45.44115" lon="5.14723">
        <ele>514.92</ele>
        <time>2024-05-19T13:50:30Z</time>
      </trkpt>
      <trkpt lat="45.44151" lon="5.14716">
        <ele>515.88</ele>
        <time>2024-05-19T13:50:50Z</time>
      </trkpt>
      <trkpt lat="45.4419" lon="5.14726">
        <ele>515.4</ele>
        <time>2024-05-19T13:51:11Z</time>
      </trkpt>
      <trkpt lat="45.4422" lon="5.14712">
        <ele>515.4</ele>
        <time>2024-05-19T13:51:26Z</time>
      </trkpt>
      <trkpt lat="45.44243" lon="5.147">
        <ele>512.52</ele>
        <time>2024-05-19T13:51:44Z</time>
      </trkpt>
      <trkpt lat="45.44266" lon="5.14688">
        <ele>506.27</ele>
        <time>2024-05-19T13:52:03Z</time>
      </trkpt>
      <trkpt lat="45.44289" lon="5.14684">
        <ele>501.46</ele>
        <time>2024-05-19T13:52:21Z</time>
      </trkpt>
      <trkpt lat="45.44319" lon="5.1468">
        <ele>497.62</ele>
        <time>2024-05-19T13:52:40Z</time>
      </trkpt>
      <trkpt lat="45.44338" lon="5.14689">
        <ele>497.14</ele>
        <time>2024-05-19T13:52:52Z</time>
      </trkpt>
      <trkpt lat="45.44357" lon="5.14704">
        <ele>494.26</ele>
        <time>2024-05-19T13:53:08Z</time>
      </trkpt>
      <trkpt lat="45.44381" lon="5.1472">
        <ele>489.45</ele>
        <time>2024-05-19T13:53:28Z</time>
      </trkpt>
      <trkpt lat="45.44391" lon="5.14723">
        <ele>486.56</ele>
        <time>2024-05-19T13:53:35Z</time>
      </trkpt>
      <trkpt lat="45.44418" lon="5.14725">
        <ele>480.32</ele>
        <time>2024-05-19T13:53:52Z</time>
      </trkpt>
      <trkpt lat="45.44431" lon="5.14721">
        <ele>477.43</ele>
        <time>2024-05-19T13:54:10Z</time>
      </trkpt>
      <trkpt lat="45.44435" lon="5.1472">
        <ele>479.35</ele>
        <time>2024-05-19T13:54:38Z</time>
      </trkpt>
      <trkpt lat="45.44439" lon="5.1472">
        <ele>480.8</ele>
        <time>2024-05-19T13:54:51Z</time>
      </trkpt>
      <trkpt lat="45.44438" lon="5.1472">
        <ele>482.24</ele>
        <time>2024-05-19T13:55:05Z</time>
      </trkpt>
      <trkpt lat="45.44434" lon="5.14733">
        <ele>491.37</ele>
        <time>2024-05-19T13:55:29Z</time>
      </trkpt>
      <trkpt lat="45.44441" lon="5.14725">
        <ele>491.37</ele>
        <time>2024-05-19T13:55:47Z</time>
      </trkpt>
      <trkpt lat="45.44447" lon="5.14714">
        <ele>490.89</ele>
        <time>2024-05-19T13:56:01Z</time>
      </trkpt>
      <trkpt lat="45.44456" lon="5.14697">
        <ele>490.89</ele>
        <time>2024-05-19T13:56:14Z</time>
      </trkpt>
      <trkpt lat="45.44462" lon="5.14683">
        <ele>490.89</ele>
        <time>2024-05-19T13:56:24Z</time>
      </trkpt>
      <trkpt lat="45.44462" lon="5.14681">
        <ele>490.89</ele>
        <time>2024-05-19T13:56:25Z</time>
      </trkpt>
      <trkpt lat="45.44468" lon="5.14657">
        <ele>490.89</ele>
        <time>2024-05-19T13:56:39Z</time>
      </trkpt>
      <trkpt lat="45.44469" lon="5.14655">
        <ele>490.89</ele>
        <time>2024-05-19T13:56:40Z</time>
      </trkpt>
      <trkpt lat="45.4447" lon="5.14653">
        <ele>490.89</ele>
        <time>2024-05-19T13:56:41Z</time>
      </trkpt>
      <trkpt lat="45.44471" lon="5.1465">
        <ele>490.89</ele>
        <time>2024-05-19T13:56:42Z</time>
      </trkpt>
      <trkpt lat="45.44472" lon="5.14648">
        <ele>490.89</ele>
        <time>2024-05-19T13:56:43Z</time>
      </trkpt>
      <trkpt lat="45.44473" lon="5.14647">
        <ele>490.89</ele>
        <time>2024-05-19T13:56:44Z</time>
      </trkpt>
      <trkpt lat="45.44485" lon="5.14628">
        <ele>490.41</ele>
        <time>2024-05-19T13:56:59Z</time>
      </trkpt>
      <trkpt lat="45.44488" lon="5.14623">
        <ele>490.41</ele>
        <time>2024-05-19T13:57:02Z</time>
      </trkpt>
      <trkpt lat="45.44504" lon="5.14604">
        <ele>490.41</ele>
        <time>2024-05-19T13:57:17Z</time>
      </trkpt>
      <trkpt lat="45.44509" lon="5.1459">
        <ele>489.93</ele>
        <time>2024-05-19T13:57:23Z</time>
      </trkpt>
      <trkpt lat="45.44516" lon="5.14564">
        <ele>489.93</ele>
        <time>2024-05-19T13:57:36Z</time>
      </trkpt>
      <trkpt lat="45.44533" lon="5.1454">
        <ele>490.89</ele>
        <time>2024-05-19T13:57:55Z</time>
      </trkpt>
      <trkpt lat="45.44547" lon="5.1452">
        <ele>490.89</ele>
        <time>2024-05-19T13:58:11Z</time>
      </trkpt>
      <trkpt lat="45.4457" lon="5.14497">
        <ele>490.41</ele>
        <time>2024-05-19T13:58:30Z</time>
      </trkpt>
      <trkpt lat="45.44587" lon="5.14482">
        <ele>490.89</ele>
        <time>2024-05-19T13:58:45Z</time>
      </trkpt>
      <trkpt lat="45.4461" lon="5.14461">
        <ele>491.85</ele>
        <time>2024-05-19T13:59:03Z</time>
      </trkpt>
      <trkpt lat="45.44633" lon="5.14437">
        <ele>491.37</ele>
        <time>2024-05-19T13:59:22Z</time>
      </trkpt>
      <trkpt lat="45.44658" lon="5.14417">
        <ele>488.97</ele>
        <time>2024-05-19T13:59:43Z</time>
      </trkpt>
      <trkpt lat="45.44682" lon="5.14408">
        <ele>491.85</ele>
        <time>2024-05-19T14:00:02Z</time>
      </trkpt>
      <trkpt lat="45.44696" lon="5.14399">
        <ele>496.18</ele>
        <time>2024-05-19T14:00:24Z</time>
      </trkpt>
      <trkpt lat="45.44699" lon="5.14405">
        <ele>499.06</ele>
        <time>2024-05-19T14:00:50Z</time>
      </trkpt>
      <trkpt lat="45.44698" lon="5.14415">
        <ele>500.02</ele>
        <time>2024-05-19T14:01:04Z</time>
      </trkpt>
      <trkpt lat="45.44693" lon="5.14423">
        <ele>498.1</ele>
        <time>2024-05-19T14:01:15Z</time>
      </trkpt>
      <trkpt lat="45.44695" lon="5.14453">
        <ele>494.74</ele>
        <time>2024-05-19T14:01:33Z</time>
      </trkpt>
      <trkpt lat="45.4469" lon="5.14494">
        <ele>500.5</ele>
        <time>2024-05-19T14:01:52Z</time>
      </trkpt>
      <trkpt lat="45.44685" lon="5.14528">
        <ele>502.43</ele>
        <time>2024-05-19T14:02:09Z</time>
      </trkpt>
      <trkpt lat="45.44685" lon="5.14565">
        <ele>504.35</ele>
        <time>2024-05-19T14:02:27Z</time>
      </trkpt>
      <trkpt lat="45.44687" lon="5.14604">
        <ele>504.83</ele>
        <time>2024-05-19T14:02:47Z</time>
      </trkpt>
      <trkpt lat="45.44687" lon="5.14634">
        <ele>505.31</ele>
        <time>2024-05-19T14:03:02Z</time>
      </trkpt>
      <trkpt lat="45.4469" lon="5.14678">
        <ele>506.27</ele>
        <time>2024-05-19T14:03:23Z</time>
      </trkpt>
      <trkpt lat="45.44702" lon="5.1471">
        <ele>506.27</ele>
        <time>2024-05-19T14:03:39Z</time>
      </trkpt>
      <trkpt lat="45.44717" lon="5.14737">
        <ele>507.23</ele>
        <time>2024-05-19T14:03:55Z</time>
      </trkpt>
      <trkpt lat="45.44734" lon="5.14749">
        <ele>509.16</ele>
        <time>2024-05-19T14:04:14Z</time>
      </trkpt>
      <trkpt lat="45.44755" lon="5.14771">
        <ele>511.56</ele>
        <time>2024-05-19T14:04:33Z</time>
      </trkpt>
      <trkpt lat="45.44784" lon="5.14792">
        <ele>514.44</ele>
        <time>2024-05-19T14:04:54Z</time>
      </trkpt>
      <trkpt lat="45.44806" lon="5.1482">
        <ele>514.92</ele>
        <time>2024-05-19T14:05:12Z</time>
      </trkpt>
      <trkpt lat="45.44821" lon="5.14852">
        <ele>514.92</ele>
        <time>2024-05-19T14:05:29Z</time>
      </trkpt>
      <trkpt lat="45.44837" lon="5.14892">
        <ele>514.44</ele>
        <time>2024-05-19T14:05:50Z</time>
      </trkpt>
      <trkpt lat="45.44838" lon="5.14894">
        <ele>513.96</ele>
        <time>2024-05-19T14:05:51Z</time>
      </trkpt>
      <trkpt lat="45.44851" lon="5.14936">
        <ele>513.96</ele>
        <time>2024-05-19T14:06:11Z</time>
      </trkpt>
      <trkpt lat="45.44858" lon="5.14974">
        <ele>513.96</ele>
        <time>2024-05-19T14:06:28Z</time>
      </trkpt>
      <trkpt lat="45.44859" lon="5.14977">
        <ele>513.96</ele>
        <time>2024-05-19T14:06:29Z</time>
      </trkpt>
      <trkpt lat="45.4486" lon="5.14979">
        <ele>513.96</ele>
        <time>2024-05-19T14:06:30Z</time>
      </trkpt>
      <trkpt lat="45.44861" lon="5.15023">
        <ele>513.48</ele>
        <time>2024-05-19T14:06:48Z</time>
      </trkpt>
      <trkpt lat="45.4486" lon="5.15067">
        <ele>513.48</ele>
        <time>2024-05-19T14:07:05Z</time>
      </trkpt>
      <trkpt lat="45.44867" lon="5.15078">
        <ele>513.48</ele>
        <time>2024-05-19T14:07:14Z</time>
      </trkpt>
      <trkpt lat="45.44895" lon="5.15083">
        <ele>513.48</ele>
        <time>2024-05-19T14:07:36Z</time>
      </trkpt>
      <trkpt lat="45.44926" lon="5.15103">
        <ele>513</ele>
        <time>2024-05-19T14:08:00Z</time>
      </trkpt>
      <trkpt lat="45.44954" lon="5.15144">
        <ele>511.56</ele>
        <time>2024-05-19T14:08:24Z</time>
      </trkpt>
      <trkpt lat="45.44976" lon="5.15186">
        <ele>503.87</ele>
        <time>2024-05-19T14:08:44Z</time>
      </trkpt>
      <trkpt lat="45.44993" lon="5.15217">
        <ele>498.1</ele>
        <time>2024-05-19T14:09:01Z</time>
      </trkpt>
      <trkpt lat="45.45008" lon="5.15235">
        <ele>493.77</ele>
        <time>2024-05-19T14:09:17Z</time>
      </trkpt>
      <trkpt lat="45.45014" lon="5.15237">
        <ele>492.33</ele>
        <time>2024-05-19T14:09:23Z</time>
      </trkpt>
      <trkpt lat="45.45034" lon="5.15245">
        <ele>490.41</ele>
        <time>2024-05-19T14:09:40Z</time>
      </trkpt>
      <trkpt lat="45.45062" lon="5.15275">
        <ele>489.93</ele>
        <time>2024-05-19T14:09:58Z</time>
      </trkpt>
      <trkpt lat="45.45079" lon="5.15301">
        <ele>488.49</ele>
        <time>2024-05-19T14:10:18Z</time>
      </trkpt>
      <trkpt lat="45.45085" lon="5.15312">
        <ele>488.49</ele>
        <time>2024-05-19T14:10:23Z</time>
      </trkpt>
      <trkpt lat="45.45086" lon="5.15314">
        <ele>488.49</ele>
        <time>2024-05-19T14:10:24Z</time>
      </trkpt>
      <trkpt lat="45.45096" lon="5.15354">
        <ele>490.89</ele>
        <time>2024-05-19T14:10:44Z</time>
      </trkpt>
      <trkpt lat="45.45102" lon="5.15386">
        <ele>489.45</ele>
        <time>2024-05-19T14:11:03Z</time>
      </trkpt>
      <trkpt lat="45.45103" lon="5.15431">
        <ele>488.97</ele>
        <time>2024-05-19T14:11:25Z</time>
      </trkpt>
      <trkpt lat="45.451" lon="5.15447">
        <ele>488.97</ele>
        <time>2024-05-19T14:11:32Z</time>
      </trkpt>
      <trkpt lat="45.45085" lon="5.15486">
        <ele>488.97</ele>
        <time>2024-05-19T14:11:50Z</time>
      </trkpt>
      <trkpt lat="45.45084" lon="5.1549">
        <ele>488.97</ele>
        <time>2024-05-19T14:11:52Z</time>
      </trkpt>
      <trkpt lat="45.45094" lon="5.15535">
        <ele>488.97</ele>
        <time>2024-05-19T14:12:09Z</time>
      </trkpt>
      <trkpt lat="45.45105" lon="5.15557">
        <ele>488.97</ele>
        <time>2024-05-19T14:12:24Z</time>
      </trkpt>
      <trkpt lat="45.45108" lon="5.15563">
        <ele>490.41</ele>
        <time>2024-05-19T14:12:52Z</time>
      </trkpt>
      <trkpt lat="45.45113" lon="5.15563">
        <ele>491.37</ele>
        <time>2024-05-19T14:13:24Z</time>
      </trkpt>
      <trkpt lat="45.45115" lon="5.15565">
        <ele>492.33</ele>
        <time>2024-05-19T14:13:50Z</time>
      </trkpt>
      <trkpt lat="45.45116" lon="5.15571">
        <ele>492.33</ele>
        <time>2024-05-19T14:14:17Z</time>
      </trkpt>
      <trkpt lat="45.45117" lon="5.15578">
        <ele>496.18</ele>
        <time>2024-05-19T14:14:44Z</time>
      </trkpt>
      <trkpt lat="45.45115" lon="5.15582">
        <ele>501.46</ele>
        <time>2024-05-19T14:15:06Z</time>
      </trkpt>
      <trkpt lat="45.45118" lon="5.15587">
        <ele>504.83</ele>
        <time>2024-05-19T14:15:33Z</time>
      </trkpt>
      <trkpt lat="45.45121" lon="5.15598">
        <ele>506.27</ele>
        <time>2024-05-19T14:15:47Z</time>
      </trkpt>
      <trkpt lat="45.45129" lon="5.15599">
        <ele>504.83</ele>
        <time>2024-05-19T14:15:55Z</time>
      </trkpt>
      <trkpt lat="45.45151" lon="5.15571">
        <ele>497.14</ele>
        <time>2024-05-19T14:16:16Z</time>
      </trkpt>
      <trkpt lat="45.45173" lon="5.15539">
        <ele>492.33</ele>
        <time>2024-05-19T14:16:37Z</time>
      </trkpt>
      <trkpt lat="45.45191" lon="5.15518">
        <ele>491.85</ele>
        <time>2024-05-19T14:16:53Z</time>
      </trkpt>
      <trkpt lat="45.45204" lon="5.15495">
        <ele>490.89</ele>
        <time>2024-05-19T14:17:11Z</time>
      </trkpt>
      <trkpt lat="45.45222" lon="5.15448">
        <ele>487.53</ele>
        <time>2024-05-19T14:17:33Z</time>
      </trkpt>
      <trkpt lat="45.45231" lon="5.15405">
        <ele>484.16</ele>
        <time>2024-05-19T14:17:53Z</time>
      </trkpt>
      <trkpt lat="45.4524" lon="5.15368">
        <ele>481.28</ele>
        <time>2024-05-19T14:18:10Z</time>
      </trkpt>
      <trkpt lat="45.45249" lon="5.15333">
        <ele>479.84</ele>
        <time>2024-05-19T14:18:25Z</time>
      </trkpt>
      <trkpt lat="45.45259" lon="5.15294">
        <ele>478.87</ele>
        <time>2024-05-19T14:18:43Z</time>
      </trkpt>
      <trkpt lat="45.45268" lon="5.1526">
        <ele>478.87</ele>
        <time>2024-05-19T14:19:01Z</time>
      </trkpt>
      <trkpt lat="45.45277" lon="5.1524">
        <ele>478.39</ele>
        <time>2024-05-19T14:19:12Z</time>
      </trkpt>
      <trkpt lat="45.45279" lon="5.1524">
        <ele>478.39</ele>
        <time>2024-05-19T14:19:13Z</time>
      </trkpt>
      <trkpt lat="45.4528" lon="5.1524">
        <ele>478.39</ele>
        <time>2024-05-19T14:19:14Z</time>
      </trkpt>
      <trkpt lat="45.45281" lon="5.1524">
        <ele>478.39</ele>
        <time>2024-05-19T14:19:15Z</time>
      </trkpt>
      <trkpt lat="45.45283" lon="5.15241">
        <ele>478.39</ele>
        <time>2024-05-19T14:19:16Z</time>
      </trkpt>
      <trkpt lat="45.45284" lon="5.15242">
        <ele>477.91</ele>
        <time>2024-05-19T14:19:17Z</time>
      </trkpt>
      <trkpt lat="45.45285" lon="5.15243">
        <ele>477.91</ele>
        <time>2024-05-19T14:19:18Z</time>
      </trkpt>
      <trkpt lat="45.45286" lon="5.15244">
        <ele>477.91</ele>
        <time>2024-05-19T14:19:19Z</time>
      </trkpt>
      <trkpt lat="45.45306" lon="5.15264">
        <ele>472.63</ele>
        <time>2024-05-19T14:19:35Z</time>
      </trkpt>
      <trkpt lat="45.45324" lon="5.15281">
        <ele>465.9</ele>
        <time>2024-05-19T14:19:50Z</time>
      </trkpt>
      <trkpt lat="45.45336" lon="5.15293">
        <ele>462.53</ele>
        <time>2024-05-19T14:19:58Z</time>
      </trkpt>
      <trkpt lat="45.45353" lon="5.15301">
        <ele>458.21</ele>
        <time>2024-05-19T14:20:11Z</time>
      </trkpt>
      <trkpt lat="45.45355" lon="5.15302">
        <ele>457.72</ele>
        <time>2024-05-19T14:20:12Z</time>
      </trkpt>
      <trkpt lat="45.45356" lon="5.15302">
        <ele>457.24</ele>
        <time>2024-05-19T14:20:13Z</time>
      </trkpt>
      <trkpt lat="45.45374" lon="5.15326">
        <ele>451.96</ele>
        <time>2024-05-19T14:20:30Z</time>
      </trkpt>
      <trkpt lat="45.45389" lon="5.15348">
        <ele>446.19</ele>
        <time>2024-05-19T14:20:46Z</time>
      </trkpt>
      <trkpt lat="45.45396" lon="5.15383">
        <ele>437.54</ele>
        <time>2024-05-19T14:21:04Z</time>
      </trkpt>
      <trkpt lat="45.45399" lon="5.15399">
        <ele>436.1</ele>
        <time>2024-05-19T14:21:11Z</time>
      </trkpt>
      <trkpt lat="45.45399" lon="5.15401">
        <ele>436.1</ele>
        <time>2024-05-19T14:21:12Z</time>
      </trkpt>
      <trkpt lat="45.45399" lon="5.15404">
        <ele>436.1</ele>
        <time>2024-05-19T14:21:13Z</time>
      </trkpt>
      <trkpt lat="45.454" lon="5.15406">
        <ele>436.1</ele>
        <time>2024-05-19T14:21:14Z</time>
      </trkpt>
      <trkpt lat="45.45401" lon="5.15408">
        <ele>436.1</ele>
        <time>2024-05-19T14:21:15Z</time>
      </trkpt>
      <trkpt lat="45.45401" lon="5.1541">
        <ele>436.58</ele>
        <time>2024-05-19T14:21:16Z</time>
      </trkpt>
      <trkpt lat="45.45407" lon="5.15455">
        <ele>438.98</ele>
        <time>2024-05-19T14:21:35Z</time>
      </trkpt>
      <trkpt lat="45.45408" lon="5.15458">
        <ele>438.98</ele>
        <time>2024-05-19T14:21:36Z</time>
      </trkpt>
      <trkpt lat="45.45408" lon="5.15471">
        <ele>438.98</ele>
        <time>2024-05-19T14:21:41Z</time>
      </trkpt>
      <trkpt lat="45.45408" lon="5.15473">
        <ele>438.98</ele>
        <time>2024-05-19T14:21:42Z</time>
      </trkpt>
      <trkpt lat="45.45408" lon="5.15476">
        <ele>438.98</ele>
        <time>2024-05-19T14:21:43Z</time>
      </trkpt>
      <trkpt lat="45.45399" lon="5.1551">
        <ele>436.58</ele>
        <time>2024-05-19T14:22:00Z</time>
      </trkpt>
      <trkpt lat="45.45391" lon="5.15531">
        <ele>430.33</ele>
        <time>2024-05-19T14:22:17Z</time>
      </trkpt>
      <trkpt lat="45.45389" lon="5.1555">
        <ele>427.92</ele>
        <time>2024-05-19T14:22:27Z</time>
      </trkpt>
      <trkpt lat="45.45389" lon="5.15553">
        <ele>427.44</ele>
        <time>2024-05-19T14:22:28Z</time>
      </trkpt>
      <trkpt lat="45.45388" lon="5.15579">
        <ele>423.6</ele>
        <time>2024-05-19T14:22:43Z</time>
      </trkpt>
      <trkpt lat="45.45387" lon="5.15591">
        <ele>422.16</ele>
        <time>2024-05-19T14:22:59Z</time>
      </trkpt>
      <trkpt lat="45.45389" lon="5.15614">
        <ele>426.96</ele>
        <time>2024-05-19T14:23:12Z</time>
      </trkpt>
      <trkpt lat="45.45407" lon="5.1562">
        <ele>428.89</ele>
        <time>2024-05-19T14:23:31Z</time>
      </trkpt>
      <trkpt lat="45.45424" lon="5.15616">
        <ele>431.77</ele>
        <time>2024-05-19T14:23:48Z</time>
      </trkpt>
      <trkpt lat="45.45436" lon="5.15616">
        <ele>433.21</ele>
        <time>2024-05-19T14:23:58Z</time>
      </trkpt>
      <trkpt lat="45.45461" lon="5.15603">
        <ele>437.54</ele>
        <time>2024-05-19T14:24:15Z</time>
      </trkpt>
      <trkpt lat="45.45479" lon="5.15596">
        <ele>440.42</ele>
        <time>2024-05-19T14:24:29Z</time>
      </trkpt>
      <trkpt lat="45.455" lon="5.15583">
        <ele>444.27</ele>
        <time>2024-05-19T14:24:48Z</time>
      </trkpt>
      <trkpt lat="45.45522" lon="5.15571">
        <ele>450.52</ele>
        <time>2024-05-19T14:25:07Z</time>
      </trkpt>
      <trkpt lat="45.4554" lon="5.15562">
        <ele>457.72</ele>
        <time>2024-05-19T14:25:22Z</time>
      </trkpt>
      <trkpt lat="45.45561" lon="5.15561">
        <ele>465.42</ele>
        <time>2024-05-19T14:25:39Z</time>
      </trkpt>
      <trkpt lat="45.45597" lon="5.15564">
        <ele>471.66</ele>
        <time>2024-05-19T14:26:04Z</time>
      </trkpt>
      <trkpt lat="45.45628" lon="5.15573">
        <ele>475.03</ele>
        <time>2024-05-19T14:26:22Z</time>
      </trkpt>
      <trkpt lat="45.4566" lon="5.15582">
        <ele>477.91</ele>
        <time>2024-05-19T14:26:42Z</time>
      </trkpt>
      <trkpt lat="45.45696" lon="5.15595">
        <ele>479.84</ele>
        <time>2024-05-19T14:27:06Z</time>
      </trkpt>
      <trkpt lat="45.45734" lon="5.15613">
        <ele>480.32</ele>
        <time>2024-05-19T14:27:31Z</time>
      </trkpt>
      <trkpt lat="45.45765" lon="5.15633">
        <ele>479.35</ele>
        <time>2024-05-19T14:27:50Z</time>
      </trkpt>
      <trkpt lat="45.45793" lon="5.15651">
        <ele>477.43</ele>
        <time>2024-05-19T14:28:10Z</time>
      </trkpt>
      <trkpt lat="45.45816" lon="5.15673">
        <ele>475.03</ele>
        <time>2024-05-19T14:28:29Z</time>
      </trkpt>
      <trkpt lat="45.4585" lon="5.15699">
        <ele>473.59</ele>
        <time>2024-05-19T14:28:54Z</time>
      </trkpt>
      <trkpt lat="45.4588" lon="5.15719">
        <ele>473.59</ele>
        <time>2024-05-19T14:29:14Z</time>
      </trkpt>
      <trkpt lat="45.45897" lon="5.15755">
        <ele>472.14</ele>
        <time>2024-05-19T14:29:33Z</time>
      </trkpt>
      <trkpt lat="45.4592" lon="5.15769">
        <ele>467.82</ele>
        <time>2024-05-19T14:29:53Z</time>
      </trkpt>
      <trkpt lat="45.45938" lon="5.15778">
        <ele>461.09</ele>
        <time>2024-05-19T14:30:10Z</time>
      </trkpt>
      <trkpt lat="45.45942" lon="5.15782">
        <ele>459.65</ele>
        <time>2024-05-19T14:30:13Z</time>
      </trkpt>
      <trkpt lat="45.45962" lon="5.15811">
        <ele>449.55</ele>
        <time>2024-05-19T14:30:34Z</time>
      </trkpt>
      <trkpt lat="45.45981" lon="5.15834">
        <ele>441.38</ele>
        <time>2024-05-19T14:30:53Z</time>
      </trkpt>
      <trkpt lat="45.46004" lon="5.15846">
        <ele>432.73</ele>
        <time>2024-05-19T14:31:13Z</time>
      </trkpt>
      <trkpt lat="45.46012" lon="5.15846">
        <ele>432.25</ele>
        <time>2024-05-19T14:31:16Z</time>
      </trkpt>
      <trkpt lat="45.46043" lon="5.15841">
        <ele>431.77</ele>
        <time>2024-05-19T14:31:36Z</time>
      </trkpt>
      <trkpt lat="45.46066" lon="5.15838">
        <ele>432.25</ele>
        <time>2024-05-19T14:31:49Z</time>
      </trkpt>
      <trkpt lat="45.46091" lon="5.1583">
        <ele>433.69</ele>
        <time>2024-05-19T14:32:07Z</time>
      </trkpt>
      <trkpt lat="45.46107" lon="5.15807">
        <ele>431.77</ele>
        <time>2024-05-19T14:32:26Z</time>
      </trkpt>
      <trkpt lat="45.46115" lon="5.15774">
        <ele>426.96</ele>
        <time>2024-05-19T14:32:44Z</time>
      </trkpt>
      <trkpt lat="45.46117" lon="5.15763">
        <ele>425.52</ele>
        <time>2024-05-19T14:32:50Z</time>
      </trkpt>
      <trkpt lat="45.4612" lon="5.15724">
        <ele>428.89</ele>
        <time>2024-05-19T14:33:07Z</time>
      </trkpt>
      <trkpt lat="45.46114" lon="5.15669">
        <ele>430.81</ele>
        <time>2024-05-19T14:33:27Z</time>
      </trkpt>
      <trkpt lat="45.46107" lon="5.15625">
        <ele>432.73</ele>
        <time>2024-05-19T14:33:46Z</time>
      </trkpt>
      <trkpt lat="45.46107" lon="5.15619">
        <ele>432.73</ele>
        <time>2024-05-19T14:33:49Z</time>
      </trkpt>
      <trkpt lat="45.46112" lon="5.15614">
        <ele>433.21</ele>
        <time>2024-05-19T14:33:54Z</time>
      </trkpt>
      <trkpt lat="45.46116" lon="5.15623">
        <ele>433.69</ele>
        <time>2024-05-19T14:33:58Z</time>
      </trkpt>
      <trkpt lat="45.46128" lon="5.15666">
        <ele>435.13</ele>
        <time>2024-05-19T14:34:20Z</time>
      </trkpt>
      <trkpt lat="45.46139" lon="5.15708">
        <ele>436.1</ele>
        <time>2024-05-19T14:34:40Z</time>
      </trkpt>
      <trkpt lat="45.46149" lon="5.15752">
        <ele>437.54</ele>
        <time>2024-05-19T14:35:00Z</time>
      </trkpt>
      <trkpt lat="45.4616" lon="5.15809">
        <ele>460.61</ele>
        <time>2024-05-19T14:35:24Z</time>
      </trkpt>
      <trkpt lat="45.46167" lon="5.15847">
        <ele>464.93</ele>
        <time>2024-05-19T14:35:44Z</time>
      </trkpt>
      <trkpt lat="45.46168" lon="5.15851">
        <ele>465.42</ele>
        <time>2024-05-19T14:35:46Z</time>
      </trkpt>
      <trkpt lat="45.46182" lon="5.15893">
        <ele>464.45</ele>
        <time>2024-05-19T14:36:05Z</time>
      </trkpt>
      <trkpt lat="45.46198" lon="5.15935">
        <ele>461.57</ele>
        <time>2024-05-19T14:36:23Z</time>
      </trkpt>
      <trkpt lat="45.46216" lon="5.15973">
        <ele>460.61</ele>
        <time>2024-05-19T14:36:39Z</time>
      </trkpt>
      <trkpt lat="45.46229" lon="5.15996">
        <ele>462.05</ele>
        <time>2024-05-19T14:36:56Z</time>
      </trkpt>
      <trkpt lat="45.46231" lon="5.15996">
        <ele>462.53</ele>
        <time>2024-05-19T14:36:57Z</time>
      </trkpt>
      <trkpt lat="45.46232" lon="5.15996">
        <ele>462.53</ele>
        <time>2024-05-19T14:36:58Z</time>
      </trkpt>
      <trkpt lat="45.46253" lon="5.15997">
        <ele>463.97</ele>
        <time>2024-05-19T14:37:11Z</time>
      </trkpt>
      <trkpt lat="45.46266" lon="5.16025">
        <ele>463.49</ele>
        <time>2024-05-19T14:37:28Z</time>
      </trkpt>
      <trkpt lat="45.46282" lon="5.16057">
        <ele>462.05</ele>
        <time>2024-05-19T14:37:47Z</time>
      </trkpt>
      <trkpt lat="45.4629" lon="5.16092">
        <ele>458.69</ele>
        <time>2024-05-19T14:38:06Z</time>
      </trkpt>
      <trkpt lat="45.463" lon="5.16113">
        <ele>457.72</ele>
        <time>2024-05-19T14:38:21Z</time>
      </trkpt>
      <trkpt lat="45.46325" lon="5.16135">
        <ele>456.76</ele>
        <time>2024-05-19T14:38:38Z</time>
      </trkpt>
      <trkpt lat="45.46331" lon="5.16144">
        <ele>456.28</ele>
        <time>2024-05-19T14:38:54Z</time>
      </trkpt>
      <trkpt lat="45.46328" lon="5.16154">
        <ele>454.84</ele>
        <time>2024-05-19T14:39:08Z</time>
      </trkpt>
      <trkpt lat="45.46326" lon="5.16163">
        <ele>454.36</ele>
        <time>2024-05-19T14:39:13Z</time>
      </trkpt>
      <trkpt lat="45.46313" lon="5.16191">
        <ele>452.92</ele>
        <time>2024-05-19T14:39:30Z</time>
      </trkpt>
      <trkpt lat="45.46311" lon="5.16202">
        <ele>451.48</ele>
        <time>2024-05-19T14:39:52Z</time>
      </trkpt>
      <trkpt lat="45.46313" lon="5.16211">
        <ele>451</ele>
        <time>2024-05-19T14:40:19Z</time>
      </trkpt>
      <trkpt lat="45.46308" lon="5.16216">
        <ele>452.44</ele>
        <time>2024-05-19T14:40:49Z</time>
      </trkpt>
      <trkpt lat="45.46303" lon="5.16217">
        <ele>452.44</ele>
        <time>2024-05-19T14:41:21Z</time>
      </trkpt>
      <trkpt lat="45.46302" lon="5.16218">
        <ele>452.44</ele>
        <time>2024-05-19T14:41:50Z</time>
      </trkpt>
      <trkpt lat="45.4631" lon="5.16224">
        <ele>457.24</ele>
        <time>2024-05-19T14:42:13Z</time>
      </trkpt>
      <trkpt lat="45.46302" lon="5.16261">
        <ele>454.36</ele>
        <time>2024-05-19T14:42:34Z</time>
      </trkpt>
      <trkpt lat="45.46297" lon="5.16267">
        <ele>456.76</ele>
        <time>2024-05-19T14:42:35Z</time>
      </trkpt>
      <trkpt lat="45.46289" lon="5.16289">
        <ele>462.53</ele>
        <time>2024-05-19T14:42:46Z</time>
      </trkpt>
      <trkpt lat="45.46286" lon="5.16296">
        <ele>469.26</ele>
        <time>2024-05-19T14:43:05Z</time>
      </trkpt>
      <trkpt lat="45.46284" lon="5.16296">
        <ele>471.66</ele>
        <time>2024-05-19T14:43:23Z</time>
      </trkpt>
      <trkpt lat="45.46288" lon="5.16277">
        <ele>470.7</ele>
        <time>2024-05-19T14:43:39Z</time>
      </trkpt>
      <trkpt lat="45.4629" lon="5.16268">
        <ele>468.78</ele>
        <time>2024-05-19T14:43:55Z</time>
      </trkpt>
      <trkpt lat="45.46293" lon="5.16259">
        <ele>468.3</ele>
        <time>2024-05-19T14:44:17Z</time>
      </trkpt>
      <trkpt lat="45.46298" lon="5.16234">
        <ele>468.3</ele>
        <time>2024-05-19T14:44:30Z</time>
      </trkpt>
      <trkpt lat="45.46309" lon="5.16206">
        <ele>463.49</ele>
        <time>2024-05-19T14:44:45Z</time>
      </trkpt>
      <trkpt lat="45.46323" lon="5.16182">
        <ele>463.01</ele>
        <time>2024-05-19T14:45:00Z</time>
      </trkpt>
      <trkpt lat="45.46323" lon="5.1616">
        <ele>463.49</ele>
        <time>2024-05-19T14:45:11Z</time>
      </trkpt>
      <trkpt lat="45.46324" lon="5.16155">
        <ele>463.49</ele>
        <time>2024-05-19T14:45:14Z</time>
      </trkpt>
      <trkpt lat="45.4633" lon="5.16159">
        <ele>463.49</ele>
        <time>2024-05-19T14:45:19Z</time>
      </trkpt>
      <trkpt lat="45.46341" lon="5.16187">
        <ele>463.49</ele>
        <time>2024-05-19T14:45:38Z</time>
      </trkpt>
      <trkpt lat="45.46341" lon="5.16195">
        <ele>463.49</ele>
        <time>2024-05-19T14:45:45Z</time>
      </trkpt>
      <trkpt lat="45.46336" lon="5.16227">
        <ele>460.61</ele>
        <time>2024-05-19T14:46:03Z</time>
      </trkpt>
      <trkpt lat="45.46336" lon="5.16233">
        <ele>459.65</ele>
        <time>2024-05-19T14:46:06Z</time>
      </trkpt>
      <trkpt lat="45.46335" lon="5.16269">
        <ele>454.84</ele>
        <time>2024-05-19T14:46:23Z</time>
      </trkpt>
      <trkpt lat="45.46343" lon="5.163">
        <ele>450.52</ele>
        <time>2024-05-19T14:46:40Z</time>
      </trkpt>
      <trkpt lat="45.46353" lon="5.16329">
        <ele>452.92</ele>
        <time>2024-05-19T14:46:56Z</time>
      </trkpt>
      <trkpt lat="45.46362" lon="5.16358">
        <ele>453.88</ele>
        <time>2024-05-19T14:47:11Z</time>
      </trkpt>
      <trkpt lat="45.46371" lon="5.16391">
        <ele>453.4</ele>
        <time>2024-05-19T14:47:28Z</time>
      </trkpt>
      <trkpt lat="45.46385" lon="5.16425">
        <ele>452.44</ele>
        <time>2024-05-19T14:47:46Z</time>
      </trkpt>
      <trkpt lat="45.46396" lon="5.16465">
        <ele>451</ele>
        <time>2024-05-19T14:48:07Z</time>
      </trkpt>
      <trkpt lat="45.46409" lon="5.16499">
        <ele>449.07</ele>
        <time>2024-05-19T14:48:23Z</time>
      </trkpt>
      <trkpt lat="45.4643" lon="5.16527">
        <ele>447.63</ele>
        <time>2024-05-19T14:48:40Z</time>
      </trkpt>
      <trkpt lat="45.46458" lon="5.1655">
        <ele>457.24</ele>
        <time>2024-05-19T14:48:58Z</time>
      </trkpt>
      <trkpt lat="45.46466" lon="5.16576">
        <ele>460.13</ele>
        <time>2024-05-19T14:49:13Z</time>
      </trkpt>
      <trkpt lat="45.46467" lon="5.16578">
        <ele>460.13</ele>
        <time>2024-05-19T14:49:14Z</time>
      </trkpt>
      <trkpt lat="45.46482" lon="5.16581">
        <ele>463.49</ele>
        <time>2024-05-19T14:49:25Z</time>
      </trkpt>
      <trkpt lat="45.46494" lon="5.1658">
        <ele>465.9</ele>
        <time>2024-05-19T14:49:34Z</time>
      </trkpt>
      <trkpt lat="45.46527" lon="5.16587">
        <ele>470.22</ele>
        <time>2024-05-19T14:49:54Z</time>
      </trkpt>
      <trkpt lat="45.46543" lon="5.16584">
        <ele>471.18</ele>
        <time>2024-05-19T14:50:09Z</time>
      </trkpt>
      <trkpt lat="45.46548" lon="5.16579">
        <ele>472.63</ele>
        <time>2024-05-19T14:50:31Z</time>
      </trkpt>
      <trkpt lat="45.46566" lon="5.16575">
        <ele>473.11</ele>
        <time>2024-05-19T14:50:49Z</time>
      </trkpt>
      <trkpt lat="45.46589" lon="5.16577">
        <ele>475.51</ele>
        <time>2024-05-19T14:51:09Z</time>
      </trkpt>
      <trkpt lat="45.46592" lon="5.16576">
        <ele>476.95</ele>
        <time>2024-05-19T14:51:17Z</time>
      </trkpt>
      <trkpt lat="45.46601" lon="5.16575">
        <ele>478.39</ele>
        <time>2024-05-19T14:51:26Z</time>
      </trkpt>
      <trkpt lat="45.46606" lon="5.16578">
        <ele>479.84</ele>
        <time>2024-05-19T14:51:30Z</time>
      </trkpt>
      <trkpt lat="45.46621" lon="5.16589">
        <ele>481.28</ele>
        <time>2024-05-19T14:51:45Z</time>
      </trkpt>
      <trkpt lat="45.46633" lon="5.16592">
        <ele>482.72</ele>
        <time>2024-05-19T14:51:54Z</time>
      </trkpt>
      <trkpt lat="45.46641" lon="5.16596">
        <ele>483.2</ele>
        <time>2024-05-19T14:51:58Z</time>
      </trkpt>
      <trkpt lat="45.46645" lon="5.16599">
        <ele>483.68</ele>
        <time>2024-05-19T14:52:01Z</time>
      </trkpt>
      <trkpt lat="45.46668" lon="5.1662">
        <ele>488.49</ele>
        <time>2024-05-19T14:52:16Z</time>
      </trkpt>
      <trkpt lat="45.46685" lon="5.16645">
        <ele>491.37</ele>
        <time>2024-05-19T14:52:33Z</time>
      </trkpt>
      <trkpt lat="45.46686" lon="5.16648">
        <ele>491.37</ele>
        <time>2024-05-19T14:52:35Z</time>
      </trkpt>
      <trkpt lat="45.46705" lon="5.16664">
        <ele>495.22</ele>
        <time>2024-05-19T14:52:52Z</time>
      </trkpt>
      <trkpt lat="45.4671" lon="5.16669">
        <ele>496.18</ele>
        <time>2024-05-19T14:52:57Z</time>
      </trkpt>
      <trkpt lat="45.46737" lon="5.16689">
        <ele>497.14</ele>
        <time>2024-05-19T14:53:18Z</time>
      </trkpt>
      <trkpt lat="45.46752" lon="5.16696">
        <ele>498.58</ele>
        <time>2024-05-19T14:53:29Z</time>
      </trkpt>
      <trkpt lat="45.46773" lon="5.16718">
        <ele>498.1</ele>
        <time>2024-05-19T14:53:46Z</time>
      </trkpt>
      <trkpt lat="45.46785" lon="5.16735">
        <ele>497.14</ele>
        <time>2024-05-19T14:53:58Z</time>
      </trkpt>
      <trkpt lat="45.46814" lon="5.16756">
        <ele>500.98</ele>
        <time>2024-05-19T14:54:15Z</time>
      </trkpt>
      <trkpt lat="45.4684" lon="5.16774">
        <ele>506.75</ele>
        <time>2024-05-19T14:54:32Z</time>
      </trkpt>
      <trkpt lat="45.46861" lon="5.16789">
        <ele>508.67</ele>
        <time>2024-05-19T14:54:50Z</time>
      </trkpt>
      <trkpt lat="45.46878" lon="5.16813">
        <ele>507.23</ele>
        <time>2024-05-19T14:55:08Z</time>
      </trkpt>
      <trkpt lat="45.46903" lon="5.16835">
        <ele>505.79</ele>
        <time>2024-05-19T14:55:28Z</time>
      </trkpt>
      <trkpt lat="45.46932" lon="5.16857">
        <ele>502.91</ele>
        <time>2024-05-19T14:55:49Z</time>
      </trkpt>
      <trkpt lat="45.46953" lon="5.16861">
        <ele>499.54</ele>
        <time>2024-05-19T14:56:09Z</time>
      </trkpt>
      <trkpt lat="45.46979" lon="5.16871">
        <ele>497.14</ele>
        <time>2024-05-19T14:56:30Z</time>
      </trkpt>
      <trkpt lat="45.47005" lon="5.16876">
        <ele>490.89</ele>
        <time>2024-05-19T14:56:51Z</time>
      </trkpt>
      <trkpt lat="45.47032" lon="5.16882">
        <ele>484.64</ele>
        <time>2024-05-19T14:57:11Z</time>
      </trkpt>
      <trkpt lat="45.47037" lon="5.16885">
        <ele>484.16</ele>
        <time>2024-05-19T14:57:14Z</time>
      </trkpt>
      <trkpt lat="45.47072" lon="5.16892">
        <ele>489.45</ele>
        <time>2024-05-19T14:57:29Z</time>
      </trkpt>
      <trkpt lat="45.47103" lon="5.16893">
        <ele>492.81</ele>
        <time>2024-05-19T14:57:47Z</time>
      </trkpt>
      <trkpt lat="45.47131" lon="5.16898">
        <ele>498.1</ele>
        <time>2024-05-19T14:58:05Z</time>
      </trkpt>
      <trkpt lat="45.47155" lon="5.16896">
        <ele>503.87</ele>
        <time>2024-05-19T14:58:20Z</time>
      </trkpt>
      <trkpt lat="45.47163" lon="5.169">
        <ele>505.31</ele>
        <time>2024-05-19T14:58:26Z</time>
      </trkpt>
      <trkpt lat="45.47186" lon="5.16906">
        <ele>508.67</ele>
        <time>2024-05-19T14:58:41Z</time>
      </trkpt>
      <trkpt lat="45.47209" lon="5.16908">
        <ele>511.56</ele>
        <time>2024-05-19T14:58:58Z</time>
      </trkpt>
      <trkpt lat="45.4723" lon="5.16904">
        <ele>511.08</ele>
        <time>2024-05-19T14:59:13Z</time>
      </trkpt>
      <trkpt lat="45.47238" lon="5.16905">
        <ele>511.56</ele>
        <time>2024-05-19T14:59:19Z</time>
      </trkpt>
      <trkpt lat="45.47258" lon="5.16895">
        <ele>511.08</ele>
        <time>2024-05-19T14:59:37Z</time>
      </trkpt>
      <trkpt lat="45.47281" lon="5.16891">
        <ele>507.71</ele>
        <time>2024-05-19T14:59:54Z</time>
      </trkpt>
      <trkpt lat="45.47306" lon="5.1689">
        <ele>505.79</ele>
        <time>2024-05-19T15:00:12Z</time>
      </trkpt>
      <trkpt lat="45.47329" lon="5.16894">
        <ele>503.87</ele>
        <time>2024-05-19T15:00:28Z</time>
      </trkpt>
      <trkpt lat="45.47332" lon="5.16895">
        <ele>503.39</ele>
        <time>2024-05-19T15:00:30Z</time>
      </trkpt>
      <trkpt lat="45.47355" lon="5.16897">
        <ele>499.06</ele>
        <time>2024-05-19T15:00:47Z</time>
      </trkpt>
      <trkpt lat="45.47357" lon="5.169">
        <ele>498.1</ele>
        <time>2024-05-19T15:00:49Z</time>
      </trkpt>
      <trkpt lat="45.47365" lon="5.16938">
        <ele>496.18</ele>
        <time>2024-05-19T15:01:08Z</time>
      </trkpt>
      <trkpt lat="45.47361" lon="5.16966">
        <ele>493.77</ele>
        <time>2024-05-19T15:01:22Z</time>
      </trkpt>
      <trkpt lat="45.47358" lon="5.1697">
        <ele>495.22</ele>
        <time>2024-05-19T15:01:40Z</time>
      </trkpt>
      <trkpt lat="45.47357" lon="5.16968">
        <ele>493.29</ele>
        <time>2024-05-19T15:01:58Z</time>
      </trkpt>
      <trkpt lat="45.47355" lon="5.16963">
        <ele>492.33</ele>
        <time>2024-05-19T15:02:23Z</time>
      </trkpt>
      <trkpt lat="45.47356" lon="5.16962">
        <ele>495.22</ele>
        <time>2024-05-19T15:02:34Z</time>
      </trkpt>
      <trkpt lat="45.47357" lon="5.16958">
        <ele>497.62</ele>
        <time>2024-05-19T15:02:46Z</time>
      </trkpt>
      <trkpt lat="45.47358" lon="5.16961">
        <ele>495.7</ele>
        <time>2024-05-19T15:03:06Z</time>
      </trkpt>
      <trkpt lat="45.47356" lon="5.16961">
        <ele>492.81</ele>
        <time>2024-05-19T15:03:22Z</time>
      </trkpt>
      <trkpt lat="45.47358" lon="5.16956">
        <ele>492.81</ele>
        <time>2024-05-19T15:03:39Z</time>
      </trkpt>
      <trkpt lat="45.47358" lon="5.16954">
        <ele>492.33</ele>
        <time>2024-05-19T15:03:55Z</time>
      </trkpt>
      <trkpt lat="45.47362" lon="5.1695">
        <ele>494.74</ele>
        <time>2024-05-19T15:04:22Z</time>
      </trkpt>
      <trkpt lat="45.47365" lon="5.1694">
        <ele>497.14</ele>
        <time>2024-05-19T15:04:36Z</time>
      </trkpt>
      <trkpt lat="45.47366" lon="5.1695">
        <ele>493.77</ele>
        <time>2024-05-19T15:05:01Z</time>
      </trkpt>
      <trkpt lat="45.47367" lon="5.16951">
        <ele>497.14</ele>
        <time>2024-05-19T15:05:24Z</time>
      </trkpt>
      <trkpt lat="45.47372" lon="5.16951">
        <ele>501.95</ele>
        <time>2024-05-19T15:05:57Z</time>
      </trkpt>
      <trkpt lat="45.4737" lon="5.1695">
        <ele>501.95</ele>
        <time>2024-05-19T15:06:24Z</time>
      </trkpt>
      <trkpt lat="45.47367" lon="5.16948">
        <ele>500.98</ele>
        <time>2024-05-19T15:06:45Z</time>
      </trkpt>
      <trkpt lat="45.47366" lon="5.16955">
        <ele>499.54</ele>
        <time>2024-05-19T15:07:12Z</time>
      </trkpt>
      <trkpt lat="45.47366" lon="5.1695">
        <ele>499.54</ele>
        <time>2024-05-19T15:07:35Z</time>
      </trkpt>
      <trkpt lat="45.47366" lon="5.16955">
        <ele>496.18</ele>
        <time>2024-05-19T15:07:57Z</time>
      </trkpt>
      <trkpt lat="45.47366" lon="5.16955">
        <ele>494.26</ele>
        <time>2024-05-19T15:08:21Z</time>
      </trkpt>
      <trkpt lat="45.47364" lon="5.16967">
        <ele>491.37</ele>
        <time>2024-05-19T15:08:35Z</time>
      </trkpt>
      <trkpt lat="45.47361" lon="5.16977">
        <ele>488.97</ele>
        <time>2024-05-19T15:08:49Z</time>
      </trkpt>
      <trkpt lat="45.47362" lon="5.16976">
        <ele>490.89</ele>
        <time>2024-05-19T15:09:22Z</time>
      </trkpt>
      <trkpt lat="45.4736" lon="5.16978">
        <ele>494.74</ele>
        <time>2024-05-19T15:10:07Z</time>
      </trkpt>
      <trkpt lat="45.4735" lon="5.1698">
        <ele>498.1</ele>
        <time>2024-05-19T15:10:44Z</time>
      </trkpt>
      <trkpt lat="45.4735" lon="5.16985">
        <ele>498.1</ele>
        <time>2024-05-19T15:11:19Z</time>
      </trkpt>
      <trkpt lat="45.4735" lon="5.16988">
        <ele>498.58</ele>
        <time>2024-05-19T15:11:53Z</time>
      </trkpt>
      <trkpt lat="45.47354" lon="5.16989">
        <ele>496.18</ele>
        <time>2024-05-19T15:12:19Z</time>
      </trkpt>
      <trkpt lat="45.47359" lon="5.16982">
        <ele>497.14</ele>
        <time>2024-05-19T15:12:47Z</time>
      </trkpt>
      <trkpt lat="45.47357" lon="5.16985">
        <ele>499.54</ele>
        <time>2024-05-19T15:13:25Z</time>
      </trkpt>
      <trkpt lat="45.4736" lon="5.16979">
        <ele>498.1</ele>
        <time>2024-05-19T15:13:52Z</time>
      </trkpt>
      <trkpt lat="45.47361" lon="5.16979">
        <ele>495.22</ele>
        <time>2024-05-19T15:14:32Z</time>
      </trkpt>
      <trkpt lat="45.47358" lon="5.16976">
        <ele>497.14</ele>
        <time>2024-05-19T15:15:10Z</time>
      </trkpt>
      <trkpt lat="45.47357" lon="5.16978">
        <ele>495.22</ele>
        <time>2024-05-19T15:15:45Z</time>
      </trkpt>
      <trkpt lat="45.47356" lon="5.16976">
        <ele>489.93</ele>
        <time>2024-05-19T15:16:14Z</time>
      </trkpt>
      <trkpt lat="45.47357" lon="5.1698">
        <ele>488.49</ele>
        <time>2024-05-19T15:16:45Z</time>
      </trkpt>
      <trkpt lat="45.47357" lon="5.16975">
        <ele>490.89</ele>
        <time>2024-05-19T15:17:24Z</time>
      </trkpt>
      <trkpt lat="45.47359" lon="5.16975">
        <ele>489.93</ele>
        <time>2024-05-19T15:17:59Z</time>
      </trkpt>
      <trkpt lat="45.47362" lon="5.16975">
        <ele>493.77</ele>
        <time>2024-05-19T15:18:19Z</time>
      </trkpt>
      <trkpt lat="45.47361" lon="5.16975">
        <ele>495.7</ele>
        <time>2024-05-19T15:18:41Z</time>
      </trkpt>
      <trkpt lat="45.47362" lon="5.16975">
        <ele>496.18</ele>
        <time>2024-05-19T15:18:58Z</time>
      </trkpt>
      <trkpt lat="45.47363" lon="5.16975">
        <ele>497.62</ele>
        <time>2024-05-19T15:19:17Z</time>
      </trkpt>
      <trkpt lat="45.47359" lon="5.16975">
        <ele>498.58</ele>
        <time>2024-05-19T15:19:47Z</time>
      </trkpt>
      <trkpt lat="45.47361" lon="5.16975">
        <ele>495.7</ele>
        <time>2024-05-19T15:20:07Z</time>
      </trkpt>
      <trkpt lat="45.4736" lon="5.16978">
        <ele>495.22</ele>
        <time>2024-05-19T15:20:26Z</time>
      </trkpt>
      <trkpt lat="45.47362" lon="5.16983">
        <ele>496.66</ele>
        <time>2024-05-19T15:20:49Z</time>
      </trkpt>
      <trkpt lat="45.47358" lon="5.16981">
        <ele>498.1</ele>
        <time>2024-05-19T15:21:19Z</time>
      </trkpt>
      <trkpt lat="45.47363" lon="5.16973">
        <ele>497.62</ele>
        <time>2024-05-19T15:21:32Z</time>
      </trkpt>
      <trkpt lat="45.4737" lon="5.16978">
        <ele>494.74</ele>
        <time>2024-05-19T15:21:47Z</time>
      </trkpt>
      <trkpt lat="45.47371" lon="5.16982">
        <ele>491.85</ele>
        <time>2024-05-19T15:22:15Z</time>
      </trkpt>
      <trkpt lat="45.47379" lon="5.16988">
        <ele>489.93</ele>
        <time>2024-05-19T15:22:32Z</time>
      </trkpt>
      <trkpt lat="45.474" lon="5.17002">
        <ele>488.49</ele>
        <time>2024-05-19T15:22:50Z</time>
      </trkpt>
      <trkpt lat="45.47421" lon="5.17012">
        <ele>485.6</ele>
        <time>2024-05-19T15:23:00Z</time>
      </trkpt>
      <trkpt lat="45.47446" lon="5.16999">
        <ele>485.6</ele>
        <time>2024-05-19T15:23:19Z</time>
      </trkpt>
      <trkpt lat="45.47469" lon="5.16996">
        <ele>485.6</ele>
        <time>2024-05-19T15:23:39Z</time>
      </trkpt>
      <trkpt lat="45.47456" lon="5.17032">
        <ele>486.56</ele>
        <time>2024-05-19T15:23:58Z</time>
      </trkpt>
      <trkpt lat="45.47446" lon="5.17078">
        <ele>488.97</ele>
        <time>2024-05-19T15:24:22Z</time>
      </trkpt>
      <trkpt lat="45.47454" lon="5.1711">
        <ele>491.37</ele>
        <time>2024-05-19T15:24:39Z</time>
      </trkpt>
      <trkpt lat="45.47464" lon="5.17157">
        <ele>494.26</ele>
        <time>2024-05-19T15:25:03Z</time>
      </trkpt>
      <trkpt lat="45.47472" lon="5.17199">
        <ele>497.14</ele>
        <time>2024-05-19T15:25:25Z</time>
      </trkpt>
      <trkpt lat="45.47479" lon="5.17238">
        <ele>499.06</ele>
        <time>2024-05-19T15:25:45Z</time>
      </trkpt>
      <trkpt lat="45.47487" lon="5.1727">
        <ele>500.98</ele>
        <time>2024-05-19T15:26:01Z</time>
      </trkpt>
      <trkpt lat="45.47507" lon="5.17312">
        <ele>499.06</ele>
        <time>2024-05-19T15:26:17Z</time>
      </trkpt>
      <trkpt lat="45.47515" lon="5.17345">
        <ele>498.1</ele>
        <time>2024-05-19T15:26:30Z</time>
      </trkpt>
      <trkpt lat="45.47525" lon="5.17385">
        <ele>500.02</ele>
        <time>2024-05-19T15:26:52Z</time>
      </trkpt>
      <trkpt lat="45.47534" lon="5.17424">
        <ele>500.5</ele>
        <time>2024-05-19T15:27:12Z</time>
      </trkpt>
      <trkpt lat="45.47543" lon="5.17461">
        <ele>501.95</ele>
        <time>2024-05-19T15:27:31Z</time>
      </trkpt>
      <trkpt lat="45.47549" lon="5.1749">
        <ele>503.39</ele>
        <time>2024-05-19T15:27:47Z</time>
      </trkpt>
      <trkpt lat="45.4755" lon="5.17492">
        <ele>503.39</ele>
        <time>2024-05-19T15:27:48Z</time>
      </trkpt>
      <trkpt lat="45.4755" lon="5.17493">
        <ele>503.39</ele>
        <time>2024-05-19T15:27:49Z</time>
      </trkpt>
      <trkpt lat="45.47551" lon="5.17495">
        <ele>503.87</ele>
        <time>2024-05-19T15:27:50Z</time>
      </trkpt>
      <trkpt lat="45.47551" lon="5.17497">
        <ele>503.87</ele>
        <time>2024-05-19T15:27:51Z</time>
      </trkpt>
      <trkpt lat="45.47552" lon="5.17499">
        <ele>503.87</ele>
        <time>2024-05-19T15:27:52Z</time>
      </trkpt>
      <trkpt lat="45.47552" lon="5.17501">
        <ele>503.87</ele>
        <time>2024-05-19T15:27:53Z</time>
      </trkpt>
      <trkpt lat="45.47559" lon="5.1753">
        <ele>507.23</ele>
        <time>2024-05-19T15:28:10Z</time>
      </trkpt>
      <trkpt lat="45.47562" lon="5.17543">
        <ele>508.67</ele>
        <time>2024-05-19T15:28:18Z</time>
      </trkpt>
      <trkpt lat="45.47563" lon="5.17544">
        <ele>508.67</ele>
        <time>2024-05-19T15:28:19Z</time>
      </trkpt>
      <trkpt lat="45.47563" lon="5.17546">
        <ele>508.67</ele>
        <time>2024-05-19T15:28:20Z</time>
      </trkpt>
      <trkpt lat="45.4757" lon="5.17581">
        <ele>511.08</ele>
        <time>2024-05-19T15:28:38Z</time>
      </trkpt>
      <trkpt lat="45.4756" lon="5.17607">
        <ele>509.16</ele>
        <time>2024-05-19T15:28:55Z</time>
      </trkpt>
      <trkpt lat="45.47552" lon="5.17626">
        <ele>510.6</ele>
        <time>2024-05-19T15:29:05Z</time>
      </trkpt>
      <trkpt lat="45.4755" lon="5.17634">
        <ele>511.56</ele>
        <time>2024-05-19T15:29:09Z</time>
      </trkpt>
      <trkpt lat="45.4755" lon="5.17636">
        <ele>511.56</ele>
        <time>2024-05-19T15:29:10Z</time>
      </trkpt>
      <trkpt lat="45.47543" lon="5.17674">
        <ele>511.56</ele>
        <time>2024-05-19T15:29:28Z</time>
      </trkpt>
      <trkpt lat="45.47537" lon="5.1771">
        <ele>512.52</ele>
        <time>2024-05-19T15:29:45Z</time>
      </trkpt>
      <trkpt lat="45.47537" lon="5.17753">
        <ele>513.48</ele>
        <time>2024-05-19T15:30:07Z</time>
      </trkpt>
      <trkpt lat="45.47536" lon="5.17794">
        <ele>513.96</ele>
        <time>2024-05-19T15:30:27Z</time>
      </trkpt>
      <trkpt lat="45.4752" lon="5.17845">
        <ele>520.21</ele>
        <time>2024-05-19T15:30:51Z</time>
      </trkpt>
      <trkpt lat="45.475" lon="5.17889">
        <ele>524.06</ele>
        <time>2024-05-19T15:31:14Z</time>
      </trkpt>
      <trkpt lat="45.47486" lon="5.17927">
        <ele>524.06</ele>
        <time>2024-05-19T15:31:35Z</time>
      </trkpt>
      <trkpt lat="45.47485" lon="5.17956">
        <ele>522.13</ele>
        <time>2024-05-19T15:31:51Z</time>
      </trkpt>
      <trkpt lat="45.47486" lon="5.17971">
        <ele>520.21</ele>
        <time>2024-05-19T15:31:58Z</time>
      </trkpt>
      <trkpt lat="45.47493" lon="5.18013">
        <ele>517.81</ele>
        <time>2024-05-19T15:32:14Z</time>
      </trkpt>
      <trkpt lat="45.47498" lon="5.18062">
        <ele>516.37</ele>
        <time>2024-05-19T15:32:34Z</time>
      </trkpt>
      <trkpt lat="45.47497" lon="5.18095">
        <ele>512.52</ele>
        <time>2024-05-19T15:32:54Z</time>
      </trkpt>
      <trkpt lat="45.47475" lon="5.18083">
        <ele>512.04</ele>
        <time>2024-05-19T15:33:12Z</time>
      </trkpt>
      <trkpt lat="45.47446" lon="5.18053">
        <ele>513.48</ele>
        <time>2024-05-19T15:33:35Z</time>
      </trkpt>
      <trkpt lat="45.47423" lon="5.1805">
        <ele>512.04</ele>
        <time>2024-05-19T15:33:56Z</time>
      </trkpt>
      <trkpt lat="45.47404" lon="5.18041">
        <ele>510.6</ele>
        <time>2024-05-19T15:34:16Z</time>
      </trkpt>
      <trkpt lat="45.47361" lon="5.18023">
        <ele>515.88</ele>
        <time>2024-05-19T15:34:38Z</time>
      </trkpt>
      <trkpt lat="45.47337" lon="5.18009">
        <ele>520.69</ele>
        <time>2024-05-19T15:34:59Z</time>
      </trkpt>
      <trkpt lat="45.47318" lon="5.17989">
        <ele>518.77</ele>
        <time>2024-05-19T15:35:19Z</time>
      </trkpt>
      <trkpt lat="45.473" lon="5.17973">
        <ele>516.37</ele>
        <time>2024-05-19T15:35:38Z</time>
      </trkpt>
      <trkpt lat="45.47274" lon="5.1795">
        <ele>516.37</ele>
        <time>2024-05-19T15:35:59Z</time>
      </trkpt>
      <trkpt lat="45.47241" lon="5.17921">
        <ele>526.46</ele>
        <time>2024-05-19T15:36:16Z</time>
      </trkpt>
      <trkpt lat="45.47207" lon="5.17913">
        <ele>524.06</ele>
        <time>2024-05-19T15:36:36Z</time>
      </trkpt>
      <trkpt lat="45.47202" lon="5.17912">
        <ele>523.58</ele>
        <time>2024-05-19T15:36:39Z</time>
      </trkpt>
      <trkpt lat="45.47171" lon="5.17906">
        <ele>516.37</ele>
        <time>2024-05-19T15:36:58Z</time>
      </trkpt>
      <trkpt lat="45.47142" lon="5.17897">
        <ele>512.52</ele>
        <time>2024-05-19T15:37:16Z</time>
      </trkpt>
      <trkpt lat="45.47116" lon="5.17896">
        <ele>509.64</ele>
        <time>2024-05-19T15:37:34Z</time>
      </trkpt>
      <trkpt lat="45.47111" lon="5.17906">
        <ele>510.6</ele>
        <time>2024-05-19T15:37:40Z</time>
      </trkpt>
      <trkpt lat="45.47103" lon="5.17955">
        <ele>514.44</ele>
        <time>2024-05-19T15:38:03Z</time>
      </trkpt>
      <trkpt lat="45.47092" lon="5.17985">
        <ele>516.37</ele>
        <time>2024-05-19T15:38:21Z</time>
      </trkpt>
      <trkpt lat="45.4707" lon="5.18014">
        <ele>515.4</ele>
        <time>2024-05-19T15:38:42Z</time>
      </trkpt>
      <trkpt lat="45.47053" lon="5.18055">
        <ele>514.92</ele>
        <time>2024-05-19T15:39:04Z</time>
      </trkpt>
      <trkpt lat="45.47051" lon="5.18086">
        <ele>516.85</ele>
        <time>2024-05-19T15:39:18Z</time>
      </trkpt>
      <trkpt lat="45.47053" lon="5.18125">
        <ele>516.85</ele>
        <time>2024-05-19T15:39:38Z</time>
      </trkpt>
      <trkpt lat="45.47061" lon="5.18173">
        <ele>519.25</ele>
        <time>2024-05-19T15:40:00Z</time>
      </trkpt>
      <trkpt lat="45.4707" lon="5.18219">
        <ele>521.65</ele>
        <time>2024-05-19T15:40:21Z</time>
      </trkpt>
      <trkpt lat="45.47077" lon="5.18268">
        <ele>524.06</ele>
        <time>2024-05-19T15:40:44Z</time>
      </trkpt>
      <trkpt lat="45.47088" lon="5.18318">
        <ele>526.46</ele>
        <time>2024-05-19T15:41:07Z</time>
      </trkpt>
      <trkpt lat="45.47101" lon="5.18367">
        <ele>527.42</ele>
        <time>2024-05-19T15:41:29Z</time>
      </trkpt>
      <trkpt lat="45.47107" lon="5.18416">
        <ele>529.34</ele>
        <time>2024-05-19T15:41:53Z</time>
      </trkpt>
      <trkpt lat="45.47106" lon="5.18458">
        <ele>529.34</ele>
        <time>2024-05-19T15:42:14Z</time>
      </trkpt>
      <trkpt lat="45.47106" lon="5.18511">
        <ele>528.86</ele>
        <time>2024-05-19T15:42:39Z</time>
      </trkpt>
      <trkpt lat="45.47122" lon="5.18558">
        <ele>528.86</ele>
        <time>2024-05-19T15:43:02Z</time>
      </trkpt>
      <trkpt lat="45.47146" lon="5.18591">
        <ele>526.46</ele>
        <time>2024-05-19T15:43:24Z</time>
      </trkpt>
      <trkpt lat="45.4717" lon="5.18622">
        <ele>527.9</ele>
        <time>2024-05-19T15:43:45Z</time>
      </trkpt>
      <trkpt lat="45.47196" lon="5.18648">
        <ele>529.82</ele>
        <time>2024-05-19T15:44:07Z</time>
      </trkpt>
      <trkpt lat="45.4722" lon="5.18673">
        <ele>531.75</ele>
        <time>2024-05-19T15:44:25Z</time>
      </trkpt>
      <trkpt lat="45.47249" lon="5.18701">
        <ele>532.23</ele>
        <time>2024-05-19T15:44:47Z</time>
      </trkpt>
      <trkpt lat="45.47269" lon="5.18724">
        <ele>529.82</ele>
        <time>2024-05-19T15:45:06Z</time>
      </trkpt>
      <trkpt lat="45.47275" lon="5.18735">
        <ele>527.9</ele>
        <time>2024-05-19T15:45:14Z</time>
      </trkpt>
      <trkpt lat="45.4728" lon="5.18744">
        <ele>527.42</ele>
        <time>2024-05-19T15:45:19Z</time>
      </trkpt>
      <trkpt lat="45.47291" lon="5.18779">
        <ele>524.06</ele>
        <time>2024-05-19T15:45:38Z</time>
      </trkpt>
      <trkpt lat="45.47303" lon="5.18822">
        <ele>515.88</ele>
        <time>2024-05-19T15:45:59Z</time>
      </trkpt>
      <trkpt lat="45.47314" lon="5.18854">
        <ele>503.87</ele>
        <time>2024-05-19T15:46:19Z</time>
      </trkpt>
      <trkpt lat="45.47323" lon="5.18879">
        <ele>490.89</ele>
        <time>2024-05-19T15:46:39Z</time>
      </trkpt>
      <trkpt lat="45.47325" lon="5.18894">
        <ele>482.72</ele>
        <time>2024-05-19T15:46:57Z</time>
      </trkpt>
      <trkpt lat="45.47327" lon="5.18897">
        <ele>479.35</ele>
        <time>2024-05-19T15:47:23Z</time>
      </trkpt>
      <trkpt lat="45.47348" lon="5.18908">
        <ele>492.81</ele>
        <time>2024-05-19T15:47:55Z</time>
      </trkpt>
      <trkpt lat="45.47346" lon="5.18901">
        <ele>505.31</ele>
        <time>2024-05-19T15:48:19Z</time>
      </trkpt>
      <trkpt lat="45.47345" lon="5.18907">
        <ele>512.52</ele>
        <time>2024-05-19T15:48:49Z</time>
      </trkpt>
      <trkpt lat="45.47348" lon="5.18904">
        <ele>513</ele>
        <time>2024-05-19T15:49:17Z</time>
      </trkpt>
      <trkpt lat="45.47349" lon="5.18903">
        <ele>520.21</ele>
        <time>2024-05-19T15:49:50Z</time>
      </trkpt>
      <trkpt lat="45.47345" lon="5.18905">
        <ele>520.21</ele>
        <time>2024-05-19T15:50:20Z</time>
      </trkpt>
      <trkpt lat="45.47354" lon="5.1892">
        <ele>521.17</ele>
        <time>2024-05-19T15:50:39Z</time>
      </trkpt>
      <trkpt lat="45.47356" lon="5.18919">
        <ele>519.73</ele>
        <time>2024-05-19T15:51:15Z</time>
      </trkpt>
      <trkpt lat="45.47363" lon="5.18925">
        <ele>521.65</ele>
        <time>2024-05-19T15:51:39Z</time>
      </trkpt>
      <trkpt lat="45.4736" lon="5.18926">
        <ele>521.17</ele>
        <time>2024-05-19T15:52:05Z</time>
      </trkpt>
      <trkpt lat="45.47362" lon="5.18924">
        <ele>520.69</ele>
        <time>2024-05-19T15:52:36Z</time>
      </trkpt>
      <trkpt lat="45.47367" lon="5.18925">
        <ele>521.65</ele>
        <time>2024-05-19T15:53:02Z</time>
      </trkpt>
      <trkpt lat="45.47381" lon="5.18944">
        <ele>523.09</ele>
        <time>2024-05-19T15:53:23Z</time>
      </trkpt>
      <trkpt lat="45.47401" lon="5.18995">
        <ele>526.94</ele>
        <time>2024-05-19T15:53:45Z</time>
      </trkpt>
      <trkpt lat="45.4741" lon="5.19018">
        <ele>528.86</ele>
        <time>2024-05-19T15:54:04Z</time>
      </trkpt>
      <trkpt lat="45.4743" lon="5.19055">
        <ele>525.98</ele>
        <time>2024-05-19T15:54:23Z</time>
      </trkpt>
      <trkpt lat="45.4743" lon="5.19065">
        <ele>527.9</ele>
        <time>2024-05-19T15:54:47Z</time>
      </trkpt>
      <trkpt lat="45.47431" lon="5.19067">
        <ele>529.82</ele>
        <time>2024-05-19T15:54:50Z</time>
      </trkpt>
      <trkpt lat="45.47435" lon="5.19081">
        <ele>532.23</ele>
        <time>2024-05-19T15:54:59Z</time>
      </trkpt>
      <trkpt lat="45.47445" lon="5.19109">
        <ele>534.15</ele>
        <time>2024-05-19T15:55:16Z</time>
      </trkpt>
      <trkpt lat="45.47446" lon="5.19112">
        <ele>534.15</ele>
        <time>2024-05-19T15:55:18Z</time>
      </trkpt>
      <trkpt lat="45.47454" lon="5.19149">
        <ele>531.75</ele>
        <time>2024-05-19T15:55:37Z</time>
      </trkpt>
      <trkpt lat="45.47454" lon="5.19154">
        <ele>531.75</ele>
        <time>2024-05-19T15:55:40Z</time>
      </trkpt>
      <trkpt lat="45.47451" lon="5.19184">
        <ele>527.42</ele>
        <time>2024-05-19T15:55:59Z</time>
      </trkpt>
      <trkpt lat="45.4745" lon="5.19202">
        <ele>525.5</ele>
        <time>2024-05-19T15:56:08Z</time>
      </trkpt>
      <trkpt lat="45.47452" lon="5.19226">
        <ele>523.09</ele>
        <time>2024-05-19T15:56:22Z</time>
      </trkpt>
      <trkpt lat="45.47458" lon="5.19259">
        <ele>520.69</ele>
        <time>2024-05-19T15:56:37Z</time>
      </trkpt>
      <trkpt lat="45.47462" lon="5.19297">
        <ele>522.13</ele>
        <time>2024-05-19T15:56:55Z</time>
      </trkpt>
      <trkpt lat="45.47463" lon="5.19303">
        <ele>522.61</ele>
        <time>2024-05-19T15:56:58Z</time>
      </trkpt>
      <trkpt lat="45.47468" lon="5.1933">
        <ele>525.5</ele>
        <time>2024-05-19T15:57:11Z</time>
      </trkpt>
      <trkpt lat="45.47472" lon="5.19356">
        <ele>524.54</ele>
        <time>2024-05-19T15:57:25Z</time>
      </trkpt>
      <trkpt lat="45.47476" lon="5.19386">
        <ele>521.65</ele>
        <time>2024-05-19T15:57:42Z</time>
      </trkpt>
      <trkpt lat="45.4749" lon="5.19436">
        <ele>525.02</ele>
        <time>2024-05-19T15:58:03Z</time>
      </trkpt>
      <trkpt lat="45.47492" lon="5.19466">
        <ele>519.25</ele>
        <time>2024-05-19T15:58:21Z</time>
      </trkpt>
      <trkpt lat="45.47496" lon="5.19513">
        <ele>525.02</ele>
        <time>2024-05-19T15:58:41Z</time>
      </trkpt>
      <trkpt lat="45.47482" lon="5.19542">
        <ele>529.82</ele>
        <time>2024-05-19T15:58:57Z</time>
      </trkpt>
      <trkpt lat="45.47464" lon="5.19569">
        <ele>532.71</ele>
        <time>2024-05-19T15:59:14Z</time>
      </trkpt>
      <trkpt lat="45.47442" lon="5.19598">
        <ele>532.71</ele>
        <time>2024-05-19T15:59:33Z</time>
      </trkpt>
      <trkpt lat="45.47423" lon="5.19621">
        <ele>533.19</ele>
        <time>2024-05-19T15:59:50Z</time>
      </trkpt>
      <trkpt lat="45.47402" lon="5.19646">
        <ele>535.59</ele>
        <time>2024-05-19T16:00:09Z</time>
      </trkpt>
      <trkpt lat="45.47378" lon="5.19666">
        <ele>538.48</ele>
        <time>2024-05-19T16:00:27Z</time>
      </trkpt>
      <trkpt lat="45.4737" lon="5.19686">
        <ele>537.99</ele>
        <time>2024-05-19T16:00:39Z</time>
      </trkpt>
      <trkpt lat="45.47377" lon="5.19698">
        <ele>536.55</ele>
        <time>2024-05-19T16:00:48Z</time>
      </trkpt>
      <trkpt lat="45.47402" lon="5.1973">
        <ele>535.11</ele>
        <time>2024-05-19T16:01:11Z</time>
      </trkpt>
      <trkpt lat="45.47431" lon="5.19768">
        <ele>538.48</ele>
        <time>2024-05-19T16:01:33Z</time>
      </trkpt>
      <trkpt lat="45.47453" lon="5.19798">
        <ele>538.96</ele>
        <time>2024-05-19T16:01:54Z</time>
      </trkpt>
      <trkpt lat="45.47472" lon="5.19828">
        <ele>537.03</ele>
        <time>2024-05-19T16:02:14Z</time>
      </trkpt>
      <trkpt lat="45.47495" lon="5.19865">
        <ele>538.96</ele>
        <time>2024-05-19T16:02:36Z</time>
      </trkpt>
      <trkpt lat="45.47521" lon="5.19892">
        <ele>538.48</ele>
        <time>2024-05-19T16:02:57Z</time>
      </trkpt>
      <trkpt lat="45.47549" lon="5.19913">
        <ele>533.19</ele>
        <time>2024-05-19T16:03:21Z</time>
      </trkpt>
      <trkpt lat="45.47582" lon="5.19944">
        <ele>533.67</ele>
        <time>2024-05-19T16:03:43Z</time>
      </trkpt>
      <trkpt lat="45.47611" lon="5.19972">
        <ele>531.27</ele>
        <time>2024-05-19T16:04:07Z</time>
      </trkpt>
      <trkpt lat="45.47641" lon="5.2">
        <ele>529.82</ele>
        <time>2024-05-19T16:04:32Z</time>
      </trkpt>
      <trkpt lat="45.47666" lon="5.20019">
        <ele>525.98</ele>
        <time>2024-05-19T16:04:54Z</time>
      </trkpt>
      <trkpt lat="45.47692" lon="5.20044">
        <ele>530.79</ele>
        <time>2024-05-19T16:05:14Z</time>
      </trkpt>
      <trkpt lat="45.47723" lon="5.20068">
        <ele>533.67</ele>
        <time>2024-05-19T16:05:34Z</time>
      </trkpt>
      <trkpt lat="45.47751" lon="5.20094">
        <ele>532.23</ele>
        <time>2024-05-19T16:05:56Z</time>
      </trkpt>
      <trkpt lat="45.4778" lon="5.20126">
        <ele>530.3</ele>
        <time>2024-05-19T16:06:17Z</time>
      </trkpt>
      <trkpt lat="45.47811" lon="5.20158">
        <ele>527.9</ele>
        <time>2024-05-19T16:06:41Z</time>
      </trkpt>
      <trkpt lat="45.47848" lon="5.20183">
        <ele>526.46</ele>
        <time>2024-05-19T16:07:05Z</time>
      </trkpt>
      <trkpt lat="45.47876" lon="5.20211">
        <ele>523.09</ele>
        <time>2024-05-19T16:07:27Z</time>
      </trkpt>
      <trkpt lat="45.47898" lon="5.20229">
        <ele>524.54</ele>
        <time>2024-05-19T16:07:44Z</time>
      </trkpt>
      <trkpt lat="45.47916" lon="5.20246">
        <ele>524.06</ele>
        <time>2024-05-19T16:08:00Z</time>
      </trkpt>
      <trkpt lat="45.47917" lon="5.20249">
        <ele>524.06</ele>
        <time>2024-05-19T16:08:01Z</time>
      </trkpt>
      <trkpt lat="45.47917" lon="5.20251">
        <ele>524.06</ele>
        <time>2024-05-19T16:08:02Z</time>
      </trkpt>
      <trkpt lat="45.47918" lon="5.20254">
        <ele>524.54</ele>
        <time>2024-05-19T16:08:03Z</time>
      </trkpt>
      <trkpt lat="45.47919" lon="5.20257">
        <ele>525.02</ele>
        <time>2024-05-19T16:08:04Z</time>
      </trkpt>
      <trkpt lat="45.47905" lon="5.20302">
        <ele>526.94</ele>
        <time>2024-05-19T16:08:27Z</time>
      </trkpt>
      <trkpt lat="45.47878" lon="5.2033">
        <ele>528.86</ele>
        <time>2024-05-19T16:08:46Z</time>
      </trkpt>
      <trkpt lat="45.47861" lon="5.20352">
        <ele>531.75</ele>
        <time>2024-05-19T16:08:59Z</time>
      </trkpt>
      <trkpt lat="45.47852" lon="5.20388">
        <ele>533.19</ele>
        <time>2024-05-19T16:09:15Z</time>
      </trkpt>
      <trkpt lat="45.47844" lon="5.20403">
        <ele>533.19</ele>
        <time>2024-05-19T16:09:25Z</time>
      </trkpt>
      <trkpt lat="45.47843" lon="5.20405">
        <ele>533.19</ele>
        <time>2024-05-19T16:09:26Z</time>
      </trkpt>
      <trkpt lat="45.47831" lon="5.20426">
        <ele>534.15</ele>
        <time>2024-05-19T16:09:39Z</time>
      </trkpt>
      <trkpt lat="45.47831" lon="5.20428">
        <ele>534.15</ele>
        <time>2024-05-19T16:09:40Z</time>
      </trkpt>
      <trkpt lat="45.4783" lon="5.20429">
        <ele>534.15</ele>
        <time>2024-05-19T16:09:41Z</time>
      </trkpt>
      <trkpt lat="45.47829" lon="5.20431">
        <ele>534.15</ele>
        <time>2024-05-19T16:09:42Z</time>
      </trkpt>
      <trkpt lat="45.47827" lon="5.20432">
        <ele>534.15</ele>
        <time>2024-05-19T16:09:43Z</time>
      </trkpt>
      <trkpt lat="45.47807" lon="5.20444">
        <ele>537.99</ele>
        <time>2024-05-19T16:09:55Z</time>
      </trkpt>
      <trkpt lat="45.47786" lon="5.20461">
        <ele>538.48</ele>
        <time>2024-05-19T16:10:13Z</time>
      </trkpt>
      <trkpt lat="45.47756" lon="5.20474">
        <ele>537.99</ele>
        <time>2024-05-19T16:10:34Z</time>
      </trkpt>
      <trkpt lat="45.47735" lon="5.2049">
        <ele>538.96</ele>
        <time>2024-05-19T16:10:49Z</time>
      </trkpt>
      <trkpt lat="45.47714" lon="5.20511">
        <ele>537.99</ele>
        <time>2024-05-19T16:11:07Z</time>
      </trkpt>
      <trkpt lat="45.47681" lon="5.20525">
        <ele>536.07</ele>
        <time>2024-05-19T16:11:27Z</time>
      </trkpt>
      <trkpt lat="45.47651" lon="5.20548">
        <ele>535.59</ele>
        <time>2024-05-19T16:11:47Z</time>
      </trkpt>
      <trkpt lat="45.47631" lon="5.20564">
        <ele>535.11</ele>
        <time>2024-05-19T16:12:04Z</time>
      </trkpt>
      <trkpt lat="45.47597" lon="5.20576">
        <ele>535.59</ele>
        <time>2024-05-19T16:12:26Z</time>
      </trkpt>
      <trkpt lat="45.47569" lon="5.20585">
        <ele>537.51</ele>
        <time>2024-05-19T16:12:45Z</time>
      </trkpt>
      <trkpt lat="45.47539" lon="5.206">
        <ele>537.51</ele>
        <time>2024-05-19T16:13:05Z</time>
      </trkpt>
      <trkpt lat="45.47509" lon="5.20627">
        <ele>537.99</ele>
        <time>2024-05-19T16:13:25Z</time>
      </trkpt>
      <trkpt lat="45.47486" lon="5.20644">
        <ele>537.51</ele>
        <time>2024-05-19T16:13:41Z</time>
      </trkpt>
      <trkpt lat="45.47465" lon="5.20651">
        <ele>535.59</ele>
        <time>2024-05-19T16:14:01Z</time>
      </trkpt>
      <trkpt lat="45.47434" lon="5.20656">
        <ele>532.23</ele>
        <time>2024-05-19T16:14:20Z</time>
      </trkpt>
      <trkpt lat="45.4742" lon="5.20656">
        <ele>530.3</ele>
        <time>2024-05-19T16:14:29Z</time>
      </trkpt>
      <trkpt lat="45.47397" lon="5.20659">
        <ele>526.94</ele>
        <time>2024-05-19T16:14:45Z</time>
      </trkpt>
      <trkpt lat="45.47376" lon="5.20666">
        <ele>524.54</ele>
        <time>2024-05-19T16:14:58Z</time>
      </trkpt>
      <trkpt lat="45.47375" lon="5.20666">
        <ele>524.54</ele>
        <time>2024-05-19T16:14:59Z</time>
      </trkpt>
      <trkpt lat="45.47342" lon="5.20674">
        <ele>524.54</ele>
        <time>2024-05-19T16:15:17Z</time>
      </trkpt>
      <trkpt lat="45.47312" lon="5.20684">
        <ele>524.06</ele>
        <time>2024-05-19T16:15:34Z</time>
      </trkpt>
      <trkpt lat="45.47283" lon="5.20681">
        <ele>518.29</ele>
        <time>2024-05-19T16:15:52Z</time>
      </trkpt>
      <trkpt lat="45.47257" lon="5.20672">
        <ele>512.52</ele>
        <time>2024-05-19T16:16:08Z</time>
      </trkpt>
      <trkpt lat="45.47223" lon="5.20675">
        <ele>517.33</ele>
        <time>2024-05-19T16:16:24Z</time>
      </trkpt>
      <trkpt lat="45.47221" lon="5.20676">
        <ele>517.81</ele>
        <time>2024-05-19T16:16:25Z</time>
      </trkpt>
      <trkpt lat="45.47189" lon="5.20693">
        <ele>517.81</ele>
        <time>2024-05-19T16:16:42Z</time>
      </trkpt>
      <trkpt lat="45.47133" lon="5.20723">
        <ele>521.17</ele>
        <time>2024-05-19T16:16:57Z</time>
      </trkpt>
      <trkpt lat="45.47109" lon="5.20727">
        <ele>522.61</ele>
        <time>2024-05-19T16:17:11Z</time>
      </trkpt>
      <trkpt lat="45.47086" lon="5.20734">
        <ele>525.02</ele>
        <time>2024-05-19T16:17:27Z</time>
      </trkpt>
      <trkpt lat="45.47082" lon="5.20739">
        <ele>525.5</ele>
        <time>2024-05-19T16:17:32Z</time>
      </trkpt>
      <trkpt lat="45.47049" lon="5.20756">
        <ele>525.5</ele>
        <time>2024-05-19T16:17:47Z</time>
      </trkpt>
      <trkpt lat="45.46995" lon="5.20765">
        <ele>526.46</ele>
        <time>2024-05-19T16:18:03Z</time>
      </trkpt>
      <trkpt lat="45.46958" lon="5.20782">
        <ele>525.98</ele>
        <time>2024-05-19T16:18:20Z</time>
      </trkpt>
      <trkpt lat="45.46947" lon="5.2079">
        <ele>526.46</ele>
        <time>2024-05-19T16:18:24Z</time>
      </trkpt>
      <trkpt lat="45.46925" lon="5.20803">
        <ele>526.94</ele>
        <time>2024-05-19T16:18:29Z</time>
      </trkpt>
      <trkpt lat="45.46919" lon="5.20804">
        <ele>527.42</ele>
        <time>2024-05-19T16:18:30Z</time>
      </trkpt>
      <trkpt lat="45.46849" lon="5.2083">
        <ele>532.23</ele>
        <time>2024-05-19T16:18:41Z</time>
      </trkpt>
      <trkpt lat="45.46844" lon="5.20833">
        <ele>532.71</ele>
        <time>2024-05-19T16:18:42Z</time>
      </trkpt>
      <trkpt lat="45.46776" lon="5.20875">
        <ele>536.55</ele>
        <time>2024-05-19T16:18:58Z</time>
      </trkpt>
      <trkpt lat="45.46719" lon="5.20908">
        <ele>542.32</ele>
        <time>2024-05-19T16:19:12Z</time>
      </trkpt>
      <trkpt lat="45.4667" lon="5.20934">
        <ele>546.65</ele>
        <time>2024-05-19T16:19:29Z</time>
      </trkpt>
      <trkpt lat="45.46653" lon="5.20943">
        <ele>547.61</ele>
        <time>2024-05-19T16:19:43Z</time>
      </trkpt>
      <trkpt lat="45.46631" lon="5.20961">
        <ele>551.45</ele>
        <time>2024-05-19T16:20:01Z</time>
      </trkpt>
      <trkpt lat="45.46608" lon="5.20972">
        <ele>550.01</ele>
        <time>2024-05-19T16:20:20Z</time>
      </trkpt>
      <trkpt lat="45.46583" lon="5.20989">
        <ele>547.61</ele>
        <time>2024-05-19T16:20:41Z</time>
      </trkpt>
      <trkpt lat="45.46532" lon="5.2102">
        <ele>547.61</ele>
        <time>2024-05-19T16:21:09Z</time>
      </trkpt>
      <trkpt lat="45.46506" lon="5.21023">
        <ele>546.65</ele>
        <time>2024-05-19T16:21:26Z</time>
      </trkpt>
      <trkpt lat="45.46501" lon="5.21021">
        <ele>547.13</ele>
        <time>2024-05-19T16:21:29Z</time>
      </trkpt>
      <trkpt lat="45.46477" lon="5.21017">
        <ele>546.17</ele>
        <time>2024-05-19T16:21:45Z</time>
      </trkpt>
      <trkpt lat="45.46446" lon="5.21">
        <ele>541.36</ele>
        <time>2024-05-19T16:22:05Z</time>
      </trkpt>
      <trkpt lat="45.46411" lon="5.2099">
        <ele>538.48</ele>
        <time>2024-05-19T16:22:28Z</time>
      </trkpt>
      <trkpt lat="45.46386" lon="5.20973">
        <ele>536.55</ele>
        <time>2024-05-19T16:22:49Z</time>
      </trkpt>
      <trkpt lat="45.46366" lon="5.20953">
        <ele>538.48</ele>
        <time>2024-05-19T16:23:02Z</time>
      </trkpt>
      <trkpt lat="45.46339" lon="5.20932">
        <ele>539.92</ele>
        <time>2024-05-19T16:23:20Z</time>
      </trkpt>
      <trkpt lat="45.46319" lon="5.20939">
        <ele>537.51</ele>
        <time>2024-05-19T16:23:39Z</time>
      </trkpt>
      <trkpt lat="45.46314" lon="5.20972">
        <ele>529.34</ele>
        <time>2024-05-19T16:23:59Z</time>
      </trkpt>
      <trkpt lat="45.46287" lon="5.20993">
        <ele>521.17</ele>
        <time>2024-05-19T16:24:19Z</time>
      </trkpt>
      <trkpt lat="45.46258" lon="5.2099">
        <ele>524.06</ele>
        <time>2024-05-19T16:24:37Z</time>
      </trkpt>
      <trkpt lat="45.46232" lon="5.20968">
        <ele>519.73</ele>
        <time>2024-05-19T16:24:54Z</time>
      </trkpt>
      <trkpt lat="45.46209" lon="5.20966">
        <ele>520.69</ele>
        <time>2024-05-19T16:25:07Z</time>
      </trkpt>
      <trkpt lat="45.46205" lon="5.20966">
        <ele>521.17</ele>
        <time>2024-05-19T16:25:08Z</time>
      </trkpt>
      <trkpt lat="45.46202" lon="5.20968">
        <ele>522.13</ele>
        <time>2024-05-19T16:25:09Z</time>
      </trkpt>
      <trkpt lat="45.46199" lon="5.20969">
        <ele>522.61</ele>
        <time>2024-05-19T16:25:10Z</time>
      </trkpt>
      <trkpt lat="45.46196" lon="5.2097">
        <ele>523.09</ele>
        <time>2024-05-19T16:25:11Z</time>
      </trkpt>
      <trkpt lat="45.46158" lon="5.2099">
        <ele>524.06</ele>
        <time>2024-05-19T16:25:25Z</time>
      </trkpt>
      <trkpt lat="45.4615" lon="5.20994">
        <ele>523.58</ele>
        <time>2024-05-19T16:25:32Z</time>
      </trkpt>
      <trkpt lat="45.46148" lon="5.20993">
        <ele>523.58</ele>
        <time>2024-05-19T16:25:33Z</time>
      </trkpt>
      <trkpt lat="45.46147" lon="5.20993">
        <ele>523.58</ele>
        <time>2024-05-19T16:25:34Z</time>
      </trkpt>
      <trkpt lat="45.46137" lon="5.20974">
        <ele>527.42</ele>
        <time>2024-05-19T16:25:50Z</time>
      </trkpt>
      <trkpt lat="45.46117" lon="5.20941">
        <ele>530.3</ele>
        <time>2024-05-19T16:26:12Z</time>
      </trkpt>
      <trkpt lat="45.46099" lon="5.20912">
        <ele>534.63</ele>
        <time>2024-05-19T16:26:32Z</time>
      </trkpt>
      <trkpt lat="45.46075" lon="5.20878">
        <ele>540.88</ele>
        <time>2024-05-19T16:26:51Z</time>
      </trkpt>
      <trkpt lat="45.46054" lon="5.20848">
        <ele>542.32</ele>
        <time>2024-05-19T16:27:09Z</time>
      </trkpt>
      <trkpt lat="45.46035" lon="5.20829">
        <ele>543.76</ele>
        <time>2024-05-19T16:27:26Z</time>
      </trkpt>
      <trkpt lat="45.46002" lon="5.20839">
        <ele>543.28</ele>
        <time>2024-05-19T16:27:47Z</time>
      </trkpt>
      <trkpt lat="45.45974" lon="5.2085">
        <ele>544.24</ele>
        <time>2024-05-19T16:28:04Z</time>
      </trkpt>
      <trkpt lat="45.45946" lon="5.20874">
        <ele>546.17</ele>
        <time>2024-05-19T16:28:24Z</time>
      </trkpt>
      <trkpt lat="45.45923" lon="5.20902">
        <ele>547.13</ele>
        <time>2024-05-19T16:28:44Z</time>
      </trkpt>
      <trkpt lat="45.45922" lon="5.20904">
        <ele>549.05</ele>
        <time>2024-05-19T16:28:58Z</time>
      </trkpt>
      <trkpt lat="45.45922" lon="5.20906">
        <ele>549.05</ele>
        <time>2024-05-19T16:29:18Z</time>
      </trkpt>
      <trkpt lat="45.45919" lon="5.20902">
        <ele>547.61</ele>
        <time>2024-05-19T16:29:32Z</time>
      </trkpt>
      <trkpt lat="45.45918" lon="5.20901">
        <ele>548.09</ele>
        <time>2024-05-19T16:29:56Z</time>
      </trkpt>
      <trkpt lat="45.45919" lon="5.20903">
        <ele>547.61</ele>
        <time>2024-05-19T16:30:16Z</time>
      </trkpt>
      <trkpt lat="45.45919" lon="5.20899">
        <ele>549.53</ele>
        <time>2024-05-19T16:30:33Z</time>
        <extensions>
          <visugpx:TrkExtension xmlns:visugpx="https://www.visugpx.com/editgpx/">
            <visugpx:node>1</visugpx:node>
            </visugpx:TrkExtension>
        </extensions>
      </trkpt>
    </trkseg>
  </trk>
</gpx>